Provisional Data: Mill Creek near Lancaster, PA


Please select a monitoring station.
Please select start date.
Please select start date.

Toggle Unit: C/F Toggle Unit: C/F
Sample Time Temperature (C) Temperature (F) Specific Conductivity (mS/cm) pH   Turbidity (NTU+) DO (mg/L)
3/23/2021 12:00:00 AM 10.72 51.296 0.748 8.03 2.08 9.96
3/23/2021 12:15:00 AM 10.62 51.116 0.748 8.01 3.96 9.89
3/23/2021 12:30:00 AM 10.52 50.936 0.746 7.99 3.38 9.8
3/23/2021 12:45:00 AM 10.43 50.774 0.747 7.96 2.41 9.74
3/23/2021 1:00:00 AM 10.35 50.63 0.746 7.94 2.3 9.69
3/23/2021 1:15:00 AM 10.26 50.468 0.745 7.92 3.5 9.59
3/23/2021 1:30:00 AM 10.19 50.342 0.744 7.9 2.44 9.57
3/23/2021 1:45:00 AM 10.11 50.198 0.743 7.89 2.11 9.56
3/23/2021 2:00:00 AM 10.04 50.072 0.744 7.88 3.82 9.54
3/23/2021 2:15:00 AM 9.96 49.928 0.742 7.87 1.96 9.52
3/23/2021 2:30:00 AM 9.9 49.82 0.742 7.86 2.02 9.48
3/23/2021 2:45:00 AM 9.83 49.694 0.742 7.85 4.65 9.51
3/23/2021 3:00:00 AM 9.76 49.568 0.741 7.84 3.22 9.49
3/23/2021 3:15:00 AM 9.7 49.46 0.741 7.83 2.6 9.5
3/23/2021 3:30:00 AM 9.64 49.352 0.74 7.82 2.31 9.51
3/23/2021 3:45:00 AM 9.59 49.262 0.74 7.82 2.96 9.51
3/23/2021 4:00:00 AM 9.54 49.172 0.74 7.82 1.92 9.53
3/23/2021 4:15:00 AM 9.48 49.064 0.74 7.81 3.61 9.52
3/23/2021 4:30:00 AM 9.44 48.992 0.739 7.81 3.55 9.54
3/23/2021 4:45:00 AM 9.39 48.902 0.739 7.8 4.95 9.54
3/23/2021 5:00:00 AM 9.34 48.812 0.74 7.8 2.33 9.54
3/23/2021 5:15:00 AM 9.3 48.74 0.74 7.8 3.5 9.52
3/23/2021 5:30:00 AM 9.25 48.65 0.739 7.8 2.99 9.58
3/23/2021 5:45:00 AM 9.21 48.578 0.74 7.8 2.49 9.58
3/23/2021 6:00:00 AM 9.17 48.506 0.74 7.8 2.58 9.58
3/23/2021 6:15:00 AM 9.14 48.452 0.741 7.8 2.5 9.61
3/23/2021 6:30:00 AM 9.1 48.38 0.741 7.8 6.98 9.61
3/23/2021 6:45:00 AM 9.07 48.326 0.741 7.8 2.01 9.64
3/23/2021 7:00:00 AM 9.04 48.272 0.741 7.8 2.3 9.62
3/23/2021 7:15:00 AM 9.01 48.218 0.741 7.8 2.14 9.68
3/23/2021 7:30:00 AM 8.99 48.182 0.741 7.8 2.15 9.71
3/23/2021 7:45:00 AM 8.98 48.164 0.741 7.81 2.07 9.76
3/23/2021 8:00:00 AM 8.97 48.146 0.741 7.81 3.03 9.83
3/23/2021 8:15:00 AM 8.96 48.128 0.741 7.82 10.05 9.93
3/23/2021 8:30:00 AM 8.97 48.146 0.741 7.82 2.54 10.03
3/23/2021 8:45:00 AM 8.98 48.164 0.741 7.83 2.39 10.18
3/23/2021 9:00:00 AM 9.01 48.218 0.741 7.84 2.26 10.35
3/23/2021 9:15:00 AM 9.05 48.29 0.741 7.86 1.84 10.53
3/23/2021 9:30:00 AM 9.11 48.398 0.742 7.87 2.81 10.77
3/23/2021 9:45:00 AM 9.18 48.524 0.742 7.89 2.14 10.99
3/23/2021 10:00:00 AM 9.27 48.686 0.742 7.92 2.18 11.3
3/23/2021 10:15:00 AM 9.39 48.902 0.74 7.94 2.38 11.68
3/23/2021 10:30:00 AM 9.55 49.19 0.742 7.98 2.05 12.06
3/23/2021 10:45:00 AM 9.73 49.514 0.74 8.01 2.19 12.49
3/23/2021 11:00:00 AM 9.93 49.874 0.739 8.04 2.63 12.92
3/23/2021 11:15:00 AM 10.11 50.198 0.74 8.07 1.99 13.27
3/23/2021 11:30:00 AM 10.32 50.576 0.74 8.1 2.28 13.64
3/23/2021 11:45:00 AM 10.55 50.99 0.738 8.13 1.97 14.06
3/23/2021 12:00:00 PM 10.78 51.404 0.739 8.16 2.2 14.45
3/23/2021 12:15:00 PM 11 51.8 0.738 8.19 2.37 14.78
3/23/2021 12:30:00 PM 11.23 52.214 0.738 8.22 2.18 15.14
3/23/2021 12:45:00 PM 11.45 52.61 0.737 8.25 2.42 15.46
3/23/2021 1:00:00 PM 11.65 52.97 0.738 8.28 2.21 15.75
3/23/2021 1:15:00 PM 11.78 53.204 0.737 8.3 1.83 15.95
3/23/2021 1:30:00 PM 11.9 53.42 0.736 8.33 5.63 16.11
3/23/2021 1:45:00 PM 12.11 53.798 0.736 8.36 2.29 16.24
3/23/2021 2:00:00 PM 12.33 54.194 0.736 8.39 4.23 16.53
3/23/2021 2:15:00 PM 12.49 54.482 0.732 8.42 2.49 16.61
3/23/2021 2:30:00 PM 12.6 54.68 0.73 8.44 4.01 16.89
3/23/2021 2:45:00 PM 12.75 54.95 0.732 8.47 2.28 17.06
3/23/2021 3:00:00 PM 12.88 55.184 0.728 8.49 2.04 17.17
3/23/2021 3:15:00 PM 12.96 55.328 0.73 8.51 2.57 17.25
3/23/2021 3:30:00 PM 13.08 55.544 0.729 8.53 3.17 17.37
3/23/2021 3:45:00 PM 13.19 55.742 0.727 8.55 2.81 17.29
3/23/2021 4:00:00 PM 13.28 55.904 0.726 8.56 3.11 17.27
3/23/2021 4:15:00 PM 13.3 55.94 0.724 8.58 2.92 17.26
3/23/2021 4:30:00 PM 13.38 56.084 0.723 8.59 2.47 17.23
3/23/2021 4:45:00 PM 13.43 56.174 0.724 8.61 4.73 17.07
3/23/2021 5:00:00 PM 13.45 56.21 0.722 8.62 2.35 16.98
3/23/2021 5:15:00 PM 13.49 56.282 0.724 8.62 2.55 16.84
3/23/2021 5:30:00 PM 13.49 56.282 0.722 8.63 6.41 16.63
3/23/2021 5:45:00 PM 13.51 56.318 0.721 8.63 1.86 16.35
3/23/2021 6:00:00 PM 13.52 56.336 0.721 8.63 2.25 16.15
3/23/2021 6:15:00 PM 13.53 56.354 0.721 8.63 2.17 15.91
3/23/2021 6:30:00 PM 13.54 56.372 0.721 8.63 3.48 15.67
3/23/2021 6:45:00 PM 13.52 56.336 0.72 8.62 2.63 15.41
3/23/2021 7:00:00 PM 13.5 56.3 0.721 8.61 2.08 15.06
3/23/2021 7:15:00 PM 13.44 56.192 0.721 8.6 2.31 14.73
3/23/2021 7:30:00 PM 13.38 56.084 0.722 8.58 2.27 14.36
3/23/2021 7:45:00 PM 13.32 55.976 0.724 8.56 3 14.02
3/23/2021 8:00:00 PM 13.25 55.85 0.725 8.54 2.27 13.63
3/23/2021 8:15:00 PM 13.18 55.724 0.725 8.52 2.62 13.29
3/23/2021 8:30:00 PM 13.1 55.58 0.727 8.49 7.27 12.9
3/23/2021 8:45:00 PM 13.01 55.418 0.729 8.47 2.39 12.58
3/23/2021 9:00:00 PM 12.93 55.274 0.73 8.44 2.75 12.23
3/23/2021 9:15:00 PM 12.86 55.148 0.731 8.4 2.1 11.92
3/23/2021 9:30:00 PM 12.77 54.986 0.733 8.37 2.31 11.62
3/23/2021 9:45:00 PM 12.69 54.842 0.734 8.34 2.48 11.33
3/23/2021 10:00:00 PM 12.6 54.68 0.736 8.31 3.78 11.08
3/23/2021 10:15:00 PM 12.51 54.518 0.738 8.27 2.75 10.84
3/23/2021 10:30:00 PM 12.42 54.356 0.738 8.24 2.59 10.62
3/23/2021 10:45:00 PM 12.32 54.176 0.739 8.2 2.52 10.39
3/23/2021 11:00:00 PM 12.23 54.014 0.74 8.17 2.23 10.2
3/23/2021 11:15:00 PM 12.14 53.852 0.74 8.14 1.83 10.03
3/23/2021 11:30:00 PM 12.06 53.708 0.741 8.1 3.04 9.87
3/23/2021 11:45:00 PM 11.98 53.564 0.743 8.07 2.26 9.72
3/24/2021 12:00:00 AM 11.9 53.42 0.743 8.04 2.32 9.6
3/24/2021 12:15:00 AM 11.84 53.312 0.742 8.02 2.55 9.47
3/24/2021 12:30:00 AM 11.79 53.222 0.743 7.99 1.86 9.37
3/24/2021 12:45:00 AM 11.74 53.132 0.743 7.96 2.55 9.28
3/24/2021 1:00:00 AM 11.69 53.042 0.744 7.94 2.77 9.21
3/24/2021 1:15:00 AM 11.64 52.952 0.743 7.92 2.34 9.13
3/24/2021 1:30:00 AM 11.61 52.898 0.742 7.89 2.74 9.03
3/24/2021 1:45:00 AM 11.58 52.844 0.742 7.88 2.62 8.98
3/24/2021 2:00:00 AM 11.55 52.79 0.742 7.86 2.57 8.97
3/24/2021 2:15:00 AM 11.53 52.754 0.741 7.85 2.55 8.92
3/24/2021 2:30:00 AM 11.51 52.718 0.741 7.83 3.46 8.85
3/24/2021 2:45:00 AM 11.49 52.682 0.741 7.82 2.63 8.85
3/24/2021 3:00:00 AM 11.48 52.664 0.74 7.81 2.76 8.83
3/24/2021 3:15:00 AM 11.47 52.646 0.74 7.8 2.43 8.8
3/24/2021 3:30:00 AM 11.47 52.646 0.74 7.8 3.29 8.8
3/24/2021 3:45:00 AM 11.46 52.628 0.74 7.8 4.12 8.81
3/24/2021 4:00:00 AM 11.46 52.628 0.74 7.79 2.57 8.79
3/24/2021 4:15:00 AM 11.46 52.628 0.74 7.78 2.38 8.79
3/24/2021 4:30:00 AM 11.46 52.628 0.74 7.78 2.31 8.76
3/24/2021 4:45:00 AM 11.47 52.646 0.74 7.78 2.08 8.78
3/24/2021 5:00:00 AM 11.47 52.646 0.741 7.78 2.5 8.77
3/24/2021 5:15:00 AM 11.48 52.664 0.741 7.78 2.44 8.76
3/24/2021 5:30:00 AM 11.49 52.682 0.742 7.78 2.13 8.75
3/24/2021 5:45:00 AM 11.51 52.718 0.742 7.78 2.78 8.74
3/24/2021 6:00:00 AM 11.52 52.736 0.742 7.78 2.21 8.73
3/24/2021 6:15:00 AM 11.53 52.754 0.744 7.78 2.41 8.74
3/24/2021 6:30:00 AM 11.55 52.79 0.744 7.78 2.66 8.73
3/24/2021 6:45:00 AM 11.56 52.808 0.744 7.78 2.22 8.7
3/24/2021 7:00:00 AM 11.58 52.844 0.745 7.78 2.27 8.7
3/24/2021 7:15:00 AM 11.59 52.862 0.747 7.78 2.68 8.68
3/24/2021 7:30:00 AM 11.61 52.898 0.747 7.78 2.45 8.69
3/24/2021 7:45:00 AM 11.63 52.934 0.75 7.78 2.91 8.69
3/24/2021 8:00:00 AM 11.65 52.97 0.754 7.78 3.53 8.71
3/24/2021 8:15:00 AM 11.67 53.006 0.754 7.78 2.7 8.72
3/24/2021 8:30:00 AM 11.69 53.042 0.756 7.79 2.29 8.72
3/24/2021 8:45:00 AM 11.71 53.078 0.756 7.79 2.87 8.74
3/24/2021 9:00:00 AM 11.74 53.132 0.758 7.79 2.01 8.8
3/24/2021 9:15:00 AM 11.76 53.168 0.759 7.79 2.41 8.84
3/24/2021 9:30:00 AM 11.78 53.204 0.76 7.8 2.64 8.89
3/24/2021 9:45:00 AM 11.8 53.24 0.761 7.8 2.22 8.95
3/24/2021 10:00:00 AM 11.83 53.294 0.761 7.81 2.48 9.03
3/24/2021 10:15:00 AM 11.85 53.33 0.763 7.81 3.77 9.07
3/24/2021 10:30:00 AM 11.87 53.366 0.764 7.82 4.67 9.08
3/24/2021 10:45:00 AM 11.89 53.402 0.763 7.82 2.7 9.22
3/24/2021 11:00:00 AM 11.92 53.456 0.764 7.84 2.06 9.37
3/24/2021 11:15:00 AM 11.94 53.492 0.764 7.84 4.71 9.49
3/24/2021 11:30:00 AM 11.95 53.51 0.766 7.85 2.06 9.46
3/24/2021 11:45:00 AM 11.97 53.546 0.764 7.86 9.11 9.53
3/24/2021 12:00:00 PM 11.99 53.582 0.759 7.87 6.76 9.7
3/24/2021 12:15:00 PM 12.01 53.618 0.76 7.88 7.22 9.82
3/24/2021 12:30:00 PM 12.02 53.636 0.761 7.88 4.28 9.86
3/24/2021 12:45:00 PM 12.03 53.654 0.764 7.89 5.72 9.92
3/24/2021 1:00:00 PM 12.04 53.672 0.763 7.9 4.82 9.99
3/24/2021 1:15:00 PM 12.05 53.69 0.76 7.9 5.14 10.08
3/24/2021 1:30:00 PM 12.05 53.69 0.756 7.91 6.2 10.08
3/24/2021 1:45:00 PM 12.06 53.708 0.754 7.91 7.54 10.13
3/24/2021 2:00:00 PM 12.02 53.636 0.743 7.92 12.22 10.24
3/24/2021 2:15:00 PM 12.03 53.654 0.742 7.93 14.06 10.32
3/24/2021 2:30:00 PM 12.03 53.654 0.737 7.93 12.93 10.38
3/24/2021 2:45:00 PM 12.03 53.654 0.736 7.94 12.41 10.43
3/24/2021 3:00:00 PM 12.01 53.618 0.729 7.95 12.63 10.5
3/24/2021 3:15:00 PM 11.98 53.564 0.717 7.95 29.93 10.51
3/24/2021 3:30:00 PM 12.01 53.618 0.72 7.95 18.15 10.53
3/24/2021 3:45:00 PM 11.93 53.474 0.691 7.95 24.97 10.58
3/24/2021 4:00:00 PM 11.86 53.348 0.669 7.96 32.49 10.61
3/24/2021 4:15:00 PM 11.91 53.438 0.67 7.96 25.71 10.66
3/24/2021 4:30:00 PM 12.01 53.618 0.693 7.95 18.11 10.63
3/24/2021 4:45:00 PM 12.02 53.636 0.696 7.96 14.41 10.64
3/24/2021 5:00:00 PM 12.05 53.69 0.701 7.96 14.1 10.66
3/24/2021 5:15:00 PM 12.08 53.744 0.71 7.95 13.5 10.61
3/24/2021 5:30:00 PM 12.08 53.744 0.709 7.95 14.74 10.57
3/24/2021 5:45:00 PM 12.1 53.78 0.71 7.94 35.98 10.41
3/24/2021 6:00:00 PM 12.11 53.798 0.703 7.93 15.07 10.32
3/24/2021 6:15:00 PM 12.12 53.816 0.697 7.92 18.3 10.25
3/24/2021 6:30:00 PM 12.13 53.834 0.685 7.91 20.66 10.12
3/24/2021 6:45:00 PM 12.15 53.87 0.674 7.9 26.03 10.06
3/24/2021 7:00:00 PM 12.17 53.906 0.665 7.89 21.76 9.97
3/24/2021 7:15:00 PM 12.18 53.924 0.657 7.88 20.08 9.91
3/24/2021 7:30:00 PM 12.19 53.942 0.649 7.87 25.05 9.83
3/24/2021 7:45:00 PM 12.21 53.978 0.647 7.86 20.22 9.74
3/24/2021 8:00:00 PM 12.22 53.996 0.645 7.85 21.75 9.67
3/24/2021 8:15:00 PM 12.23 54.014 0.644 7.84 18.52 9.6
3/24/2021 8:30:00 PM 12.24 54.032 0.643 7.82 20.96 9.52
3/24/2021 8:45:00 PM 12.25 54.05 0.641 7.81 22.2 9.44
3/24/2021 9:00:00 PM 12.25 54.05 0.639 7.8 15.91 9.38
3/24/2021 9:15:00 PM 12.26 54.068 0.638 7.79 22.57 9.32
3/24/2021 9:30:00 PM 12.26 54.068 0.639 7.78 22.17 9.22
3/24/2021 9:45:00 PM 12.26 54.068 0.635 7.77 14.69 9.18
3/24/2021 10:00:00 PM 12.26 54.068 0.64 7.76 12.94 9.14
3/24/2021 10:15:00 PM 12.26 54.068 0.638 7.75 20.49 9.11
3/24/2021 10:30:00 PM 12.26 54.068 0.635 7.74 15.95 9.07
3/24/2021 10:45:00 PM 12.25 54.05 0.634 7.74 12.68 9
3/24/2021 11:00:00 PM 12.25 54.05 0.633 7.73 14.76 8.96
3/24/2021 11:15:00 PM 12.25 54.05 0.633 7.72 13.57 8.97
3/24/2021 11:30:00 PM 12.24 54.032 0.631 7.72 14.78 8.99
3/24/2021 11:45:00 PM 12.24 54.032 0.63 7.71 15.48 8.96
3/25/2021 12:00:00 AM 12.24 54.032 0.63 7.71 15.22 8.94
3/25/2021 12:15:00 AM 12.25 54.05 0.632 7.71 16.08 8.95
3/25/2021 12:30:00 AM 12.25 54.05 0.631 7.71 17.39 8.97
3/25/2021 12:45:00 AM 12.25 54.05 0.631 7.7 15.55 8.97
3/25/2021 1:00:00 AM 12.26 54.068 0.615 7.71 28.57 8.95
3/25/2021 1:15:00 AM 12.27 54.086 0.638 7.71 21 9
3/25/2021 1:30:00 AM 12.27 54.086 0.641 7.71 20.26 9
3/25/2021 1:45:00 AM 12.27 54.086 0.644 7.71 22.78 8.98
3/25/2021 2:00:00 AM 12.28 54.104 0.649 7.71 22.74 9.02
3/25/2021 2:15:00 AM 12.28 54.104 0.65 7.71 25.56 9.05
3/25/2021 2:30:00 AM 12.29 54.122 0.651 7.71 22.17 9.08
3/25/2021 2:45:00 AM 12.29 54.122 0.651 7.71 22.11 9.07
3/25/2021 3:00:00 AM 12.29 54.122 0.649 7.71 20.67 9.1
3/25/2021 3:15:00 AM 12.3 54.14 0.649 7.71 27.21 9.1
3/25/2021 3:30:00 AM 12.3 54.14 0.648 7.71 21.83 9.11
3/25/2021 3:45:00 AM 12.3 54.14 0.646 7.7 20.3 9.11
3/25/2021 4:00:00 AM 12.29 54.122 0.647 7.7 21.05 9.12
3/25/2021 4:15:00 AM 12.29 54.122 0.651 7.7 38.5 9.14
3/25/2021 4:30:00 AM 12.27 54.086 0.655 7.7 27.54 9.15
3/25/2021 4:45:00 AM 12.26 54.068 0.659 7.69 20.07 9.17
3/25/2021 5:00:00 AM 12.24 54.032 0.664 7.7 16.74 9.17
3/25/2021 5:15:00 AM 12.22 53.996 0.67 7.7 16.35 9.19
3/25/2021 5:30:00 AM 12.19 53.942 0.677 7.7 21.79 9.19
3/25/2021 5:45:00 AM 12.17 53.906 0.685 7.7 17.12 9.2
3/25/2021 6:00:00 AM 12.15 53.87 0.689 7.7 22.3 9.21
3/25/2021 6:15:00 AM 12.13 53.834 0.693 7.7 22.86 9.2
3/25/2021 6:30:00 AM 12.11 53.798 0.698 7.71 23.35 9.2
3/25/2021 6:45:00 AM 12.09 53.762 0.701 7.71 15.41 9.21
3/25/2021 7:00:00 AM 12.08 53.744 0.704 7.71 13.38 9.21
3/25/2021 7:15:00 AM 12.06 53.708 0.705 7.71 16.15 9.19
3/25/2021 7:30:00 AM 12.05 53.69 0.705 7.71 16.67 9.2
3/25/2021 7:45:00 AM 12.04 53.672 0.706 7.71 10.8 9.18
3/25/2021 8:00:00 AM 12.04 53.672 0.702 7.71 10.21 9.22
3/25/2021 8:15:00 AM 12.05 53.69 0.697 7.71 12.62 9.25
3/25/2021 8:30:00 AM 12.06 53.708 0.693 7.7 9.6 9.27
3/25/2021 8:45:00 AM 12.07 53.726 0.69 7.71 10.91 9.34
3/25/2021 9:00:00 AM 12.1 53.78 0.684 7.7 9.08 9.36
3/25/2021 9:15:00 AM 12.12 53.816 0.682 7.71 9.6 9.43
3/25/2021 9:30:00 AM 12.15 53.87 0.675 7.71 11.69 9.49
3/25/2021 9:45:00 AM 12.16 53.888 0.672 7.71 10.06 9.49
3/25/2021 10:00:00 AM 12.19 53.942 0.667 7.72 10.26 9.58
3/25/2021 10:15:00 AM 12.22 53.996 0.664 7.72 9.23 9.63
3/25/2021 10:30:00 AM 12.27 54.086 0.66 7.73 12.99 9.79
3/25/2021 10:45:00 AM 12.31 54.158 0.657 7.74 9.55 9.92
3/25/2021 11:00:00 AM 12.33 54.194 0.654 7.75 10.7 9.96
3/25/2021 11:15:00 AM 12.38 54.284 0.656 7.76 9.89 10.1
3/25/2021 11:30:00 AM 12.45 54.41 0.653 7.78 10.51 10.31
3/25/2021 11:45:00 AM 12.51 54.518 0.653 7.78 9.51 10.5
3/25/2021 12:00:00 PM 12.56 54.608 0.651 7.8 7.93 10.63
3/25/2021 12:15:00 PM 12.61 54.698 0.652 7.82 13.06 10.76
3/25/2021 12:30:00 PM 12.66 54.788 0.653 7.83 9.07 10.92
3/25/2021 12:45:00 PM 12.71 54.878 0.653 7.86 7.63 10.99
3/25/2021 1:00:00 PM 12.77 54.986 0.656 7.87 7.92 11.19
3/25/2021 1:15:00 PM 12.83 55.094 0.656 7.89 8.32 11.37
3/25/2021 1:30:00 PM 12.88 55.184 0.658 7.9 8.74 11.49
3/25/2021 1:45:00 PM 12.95 55.31 0.658 7.92 6.72 11.64
3/25/2021 2:00:00 PM 13.02 55.436 0.658 7.94 8.03 11.75
3/25/2021 2:15:00 PM 13.07 55.526 0.661 7.96 7.85 11.89
3/25/2021 2:30:00 PM 13.13 55.634 0.663 7.97 7.68 11.95
3/25/2021 2:45:00 PM 13.21 55.778 0.661 7.99 7.86 12.08
3/25/2021 3:00:00 PM 13.3 55.94 0.663 8.01 7.11 12.24
3/25/2021 3:15:00 PM 13.35 56.03 0.664 8.03 8.17 12.34
3/25/2021 3:30:00 PM 13.45 56.21 0.664 8.04 9.82 12.4
3/25/2021 3:45:00 PM 13.5 56.3 0.665 8.06 7.66 12.49
3/25/2021 4:00:00 PM 13.55 56.39 0.666 8.06 7.77 12.44
3/25/2021 4:15:00 PM 13.6 56.48 0.663 8.07 11.29 12.44
3/25/2021 4:30:00 PM 13.65 56.57 0.659 8.08 7.35 12.46
3/25/2021 4:45:00 PM 13.67 56.606 0.66 8.08 16.17 12.4
3/25/2021 5:00:00 PM 13.7 56.66 0.659 8.09 9.4 12.39
3/25/2021 5:15:00 PM 13.74 56.732 0.658 8.09 9.54 12.39
3/25/2021 5:30:00 PM 13.76 56.768 0.654 8.1 8.08 12.31
3/25/2021 5:45:00 PM 13.78 56.804 0.654 8.1 6.76 12.17
3/25/2021 6:00:00 PM 13.78 56.804 0.648 8.09 8.93 12.04
3/25/2021 6:15:00 PM 13.78 56.804 0.646 8.08 14.77 11.87
3/25/2021 6:30:00 PM 13.77 56.786 0.643 8.07 8.96 11.66
3/25/2021 6:45:00 PM 13.77 56.786 0.64 8.05 10.15 11.46
3/25/2021 7:00:00 PM 13.76 56.768 0.636 8.04 9.98 11.24
3/25/2021 7:15:00 PM 13.75 56.75 0.634 8.02 7.24 11.02
3/25/2021 7:30:00 PM 13.73 56.714 0.63 8 10.39 10.8
3/25/2021 7:45:00 PM 13.71 56.678 0.629 7.98 8.42 10.61
3/25/2021 8:00:00 PM 13.69 56.642 0.625 7.95 8.57 10.42
3/25/2021 8:15:00 PM 13.67 56.606 0.622 7.93 8.38 10.21
3/25/2021 8:30:00 PM 13.65 56.57 0.618 7.91 7.85 10
3/25/2021 8:45:00 PM 13.63 56.534 0.615 7.88 9.5 9.83
3/25/2021 9:00:00 PM 13.6 56.48 0.613 7.86 8.23 9.67
3/25/2021 9:15:00 PM 13.58 56.444 0.611 7.84 8.45 9.49
3/25/2021 9:30:00 PM 13.56 56.408 0.608 7.82 8.57 9.36
3/25/2021 9:45:00 PM 13.54 56.372 0.605 7.8 9.12 9.25
3/25/2021 10:00:00 PM 13.52 56.336 0.603 7.78 10.17 9.11
3/25/2021 10:15:00 PM 13.5 56.3 0.6 7.76 8.56 9
3/25/2021 10:30:00 PM 13.48 56.264 0.597 7.74 9.38 8.88
3/25/2021 10:45:00 PM 13.45 56.21 0.594 7.72 9.36 8.75
3/25/2021 11:00:00 PM 13.43 56.174 0.594 7.71 9.05 8.71
3/25/2021 11:15:00 PM 13.41 56.138 0.592 7.7 9.58 8.62
3/25/2021 11:30:00 PM 13.39 56.102 0.589 7.69 10.25 8.56
3/25/2021 11:45:00 PM 13.37 56.066 0.588 7.67 10.83 8.49
3/26/2021 12:00:00 AM 13.34 56.012 0.587 7.66 8.81 8.42
3/26/2021 12:15:00 AM 13.32 55.976 0.586 7.65 8.78 8.39
3/26/2021 12:30:00 AM 13.31 55.958 0.583 7.64 9.51 8.34
3/26/2021 12:45:00 AM 13.29 55.922 0.583 7.64 9.03 8.31
3/26/2021 1:00:00 AM 13.28 55.904 0.583 7.63 10.21 8.3
3/26/2021 1:15:00 AM 13.27 55.886 0.582 7.62 8.65 8.26
3/26/2021 1:30:00 AM 13.25 55.85 0.582 7.62 8.95 8.25
3/26/2021 1:45:00 AM 13.24 55.832 0.582 7.62 8.28 8.22
3/26/2021 2:00:00 AM 13.24 55.832 0.582 7.61 7.89 8.22
3/26/2021 2:15:00 AM 13.23 55.814 0.582 7.61 15.32 8.23
3/26/2021 2:30:00 AM 13.23 55.814 0.583 7.61 10.26 8.22
3/26/2021 2:45:00 AM 13.23 55.814 0.584 7.61 8.37 8.2
3/26/2021 3:00:00 AM 13.23 55.814 0.584 7.61 19.24 8.2
3/26/2021 3:15:00 AM 13.23 55.814 0.583 7.61 13.68 8.22
3/26/2021 3:30:00 AM 13.23 55.814 0.587 7.61 7.68 8.18
3/26/2021 3:45:00 AM 13.23 55.814 0.588 7.61 8.77 8.22
3/26/2021 4:00:00 AM 13.23 55.814 0.587 7.61 8.45 8.2
3/26/2021 4:15:00 AM 13.23 55.814 0.589 7.61 11.6 8.19
3/26/2021 4:30:00 AM 13.23 55.814 0.589 7.61 8.21 8.21
3/26/2021 4:45:00 AM 13.22 55.796 0.589 7.61 7.58 8.17
3/26/2021 5:00:00 AM 13.22 55.796 0.592 7.61 8.81 8.21
3/26/2021 5:15:00 AM 13.22 55.796 0.592 7.61 7.93 8.21
3/26/2021 5:30:00 AM 13.21 55.778 0.594 7.61 7.82 8.22
3/26/2021 5:45:00 AM 13.19 55.742 0.596 7.61 6.61 8.18
3/26/2021 6:00:00 AM 13.18 55.724 0.597 7.61 8.14 8.2
3/26/2021 6:15:00 AM 13.17 55.706 0.598 7.61 8.41 8.23
3/26/2021 6:30:00 AM 13.16 55.688 0.602 7.61 8.95 8.22
3/26/2021 6:45:00 AM 13.16 55.688 0.602 7.62 7.15 8.19
3/26/2021 7:00:00 AM 13.17 55.706 0.604 7.62 8.23 8.18
3/26/2021 7:15:00 AM 13.17 55.706 0.605 7.62 6.92 8.18
3/26/2021 7:30:00 AM 13.17 55.706 0.608 7.62 12.14 8.23
3/26/2021 7:45:00 AM 13.18 55.724 0.611 7.62 8.1 8.25
3/26/2021 8:00:00 AM 13.19 55.742 0.612 7.63 5.92 8.3
3/26/2021 8:15:00 AM 13.21 55.778 0.615 7.63 8.37 8.31
3/26/2021 8:30:00 AM 13.24 55.832 0.615 7.64 7.59 8.34
3/26/2021 8:45:00 AM 13.26 55.868 0.618 7.64 5.44 8.49
3/26/2021 9:00:00 AM 13.32 55.976 0.619 7.66 5.23 8.68
3/26/2021 9:15:00 AM 13.39 56.102 0.62 7.67 7.23 8.9
3/26/2021 9:30:00 AM 13.44 56.192 0.623 7.69 5 9.02
3/26/2021 9:45:00 AM 13.51 56.318 0.626 7.7 14.09 9.19
3/26/2021 10:00:00 AM 13.65 56.57 0.625 7.72 4.63 9.43
3/26/2021 10:15:00 AM 13.77 56.786 0.627 7.75 5.09 9.72
3/26/2021 10:30:00 AM 13.93 57.074 0.63 7.78 4.69 10.04
3/26/2021 10:45:00 AM 14.11 57.398 0.63 7.82 5.38 10.45
3/26/2021 11:00:00 AM 14.28 57.704 0.632 7.84 4.61 10.74
3/26/2021 11:15:00 AM 14.47 58.046 0.633 7.89 5.94 11.06
3/26/2021 11:30:00 AM 14.67 58.406 0.634 7.92 4.73 11.46
3/26/2021 11:45:00 AM 14.87 58.766 0.637 7.96 4.18 11.88
3/26/2021 12:00:00 PM 15.05 59.09 0.637 7.99 4.27 12.19
3/26/2021 12:15:00 PM 15.26 59.468 0.64 8.03 5.14 12.56
3/26/2021 12:30:00 PM 15.46 59.828 0.64 8.07 3.75 12.85
3/26/2021 12:45:00 PM 15.66 60.188 0.641 8.11 4.15 13.21
3/26/2021 1:00:00 PM 15.83 60.494 0.644 8.15 5.42 13.42
3/26/2021 1:15:00 PM 16.02 60.836 0.645 8.19 4.24 13.69
3/26/2021 1:30:00 PM 16.2 61.16 0.646 8.23 3.84 13.81
3/26/2021 1:45:00 PM 16.38 61.484 0.646 8.26 3.47 14.06
3/26/2021 2:00:00 PM 16.53 61.754 0.646 8.3 4.26 14.17
3/26/2021 2:15:00 PM 16.68 62.024 0.648 8.33 3.63 14.3
3/26/2021 2:30:00 PM 16.8 62.24 0.647 8.35 3.63 14.36
3/26/2021 2:45:00 PM 16.93 62.474 0.649 8.38 3.19 14.63
3/26/2021 3:00:00 PM 17.05 62.69 0.647 8.41 3.16 14.64
3/26/2021 3:15:00 PM 17.16 62.888 0.648 8.43 3.23 14.69
3/26/2021 3:30:00 PM 17.24 63.032 0.649 8.45 3.03 14.67
3/26/2021 3:45:00 PM 17.31 63.158 0.65 8.46 3.24 14.61
3/26/2021 4:00:00 PM 17.37 63.266 0.654 8.48 3.29 14.69
3/26/2021 4:15:00 PM 17.42 63.356 0.654 8.49 3.04 14.52
3/26/2021 4:30:00 PM 17.43 63.374 0.655 8.5 3.12 14.4
3/26/2021 4:45:00 PM 17.42 63.356 0.657 8.51 8.81 14.22
3/26/2021 5:00:00 PM 17.4 63.32 0.654 8.51 4.42 13.97
3/26/2021 5:15:00 PM 17.36 63.248 0.656 8.51 3.22 13.79
3/26/2021 5:30:00 PM 17.31 63.158 0.658 8.5 2.93 13.55
3/26/2021 5:45:00 PM 17.27 63.086 0.659 8.5 4 13.33
3/26/2021 6:00:00 PM 17.21 62.978 0.658 8.49 3.55 13.12
3/26/2021 6:15:00 PM 17.16 62.888 0.658 8.48 3.92 12.83
3/26/2021 6:30:00 PM 17.1 62.78 0.66 8.47 3.77 12.6
3/26/2021 6:45:00 PM 17.02 62.636 0.662 8.46 3.03 12.4
3/26/2021 7:00:00 PM 16.94 62.492 0.661 8.44 2.9 12.1
3/26/2021 7:15:00 PM 16.86 62.348 0.664 8.42 3.75 11.83
3/26/2021 7:30:00 PM 16.76 62.168 0.665 8.4 4.14 11.52
3/26/2021 7:45:00 PM 16.67 62.006 0.666 8.38 3.1 11.26
3/26/2021 8:00:00 PM 16.55 61.79 0.668 8.35 2.87 10.94
3/26/2021 8:15:00 PM 16.44 61.592 0.671 8.32 3.34 10.65
3/26/2021 8:30:00 PM 16.32 61.376 0.672 8.29 2.29 10.33
3/26/2021 8:45:00 PM 16.21 61.178 0.675 8.26 2.82 10.09
3/26/2021 9:00:00 PM 16.09 60.962 0.675 8.22 3.69 9.86
3/26/2021 9:15:00 PM 15.98 60.764 0.678 8.19 2.72 9.6
3/26/2021 9:30:00 PM 15.86 60.548 0.68 8.15 3.15 9.4
3/26/2021 9:45:00 PM 15.76 60.368 0.682 8.12 2.99 9.2
3/26/2021 10:00:00 PM 15.65 60.17 0.682 8.09 5.21 9.01
3/26/2021 10:15:00 PM 15.54 59.972 0.684 8.06 2.54 8.83
3/26/2021 10:30:00 PM 15.44 59.792 0.687 8.03 2.77 8.74
3/26/2021 10:45:00 PM 15.34 59.612 0.688 8 3.24 8.56
3/26/2021 11:00:00 PM 15.24 59.432 0.689 7.97 2.32 8.48
3/26/2021 11:15:00 PM 15.14 59.252 0.69 7.95 3.13 8.38
3/26/2021 11:30:00 PM 15.04 59.072 0.694 7.92 3.84 8.28
3/26/2021 11:45:00 PM 14.95 58.91 0.695 7.9 3.5 8.18
3/27/2021 12:00:00 AM 14.86 58.748 0.696 7.88 3.43 8.12
3/27/2021 12:15:00 AM 14.77 58.586 0.696 7.86 2.91 8.07
3/27/2021 12:30:00 AM 14.69 58.442 0.697 7.85 2.72 8.01
3/27/2021 12:45:00 AM 14.61 58.298 0.698 7.83 3.01 7.99
3/27/2021 1:00:00 AM 14.54 58.172 0.7 7.82 3.23 7.92
3/27/2021 1:15:00 AM 14.47 58.046 0.7 7.81 2.37 7.9
3/27/2021 1:30:00 AM 14.4 57.92 0.703 7.8 2.57 7.86
3/27/2021 1:45:00 AM 14.34 57.812 0.702 7.79 2.78 7.87
3/27/2021 2:00:00 AM 14.28 57.704 0.702 7.78 2.4 7.86
3/27/2021 2:15:00 AM 14.21 57.578 0.703 7.78 3.19 7.89
3/27/2021 2:30:00 AM 14.16 57.488 0.707 7.77 3.43 7.85
3/27/2021 2:45:00 AM 14.1 57.38 0.705 7.77 3.91 7.87
3/27/2021 3:00:00 AM 14.05 57.29 0.708 7.77 3.06 7.89
3/27/2021 3:15:00 AM 14 57.2 0.708 7.76 4.27 7.86
3/27/2021 3:30:00 AM 13.96 57.128 0.711 7.76 3.07 7.88
3/27/2021 3:45:00 AM 13.91 57.038 0.709 7.76 2.85 7.86
3/27/2021 4:00:00 AM 13.86 56.948 0.712 7.76 5.44 7.91
3/27/2021 4:15:00 AM 13.81 56.858 0.711 7.76 2.79 7.87
3/27/2021 4:30:00 AM 13.77 56.786 0.714 7.76 2.62 7.91
3/27/2021 4:45:00 AM 13.72 56.696 0.715 7.76 3.9 7.92
3/27/2021 5:00:00 AM 13.67 56.606 0.716 7.75 3.15 7.93
3/27/2021 5:15:00 AM 13.63 56.534 0.717 7.75 2.79 7.92
3/27/2021 5:30:00 AM 13.58 56.444 0.716 7.76 6.4 7.93
3/27/2021 5:45:00 AM 13.53 56.354 0.718 7.75 2.96 7.9
3/27/2021 6:00:00 AM 13.49 56.282 0.718 7.75 2.94 7.97
3/27/2021 6:15:00 AM 13.44 56.192 0.72 7.75 5.41 7.97
3/27/2021 6:30:00 AM 13.39 56.102 0.721 7.75 4.78 7.98
3/27/2021 6:45:00 AM 13.35 56.03 0.719 7.75 3.04 7.97
3/27/2021 7:00:00 AM 13.3 55.94 0.72 7.75 2.53 8
3/27/2021 7:15:00 AM 13.25 55.85 0.72 7.75 2.68 8.03
3/27/2021 7:30:00 AM 13.21 55.778 0.722 7.75 3.11 8.08
3/27/2021 7:45:00 AM 13.17 55.706 0.725 7.75 4.45 8.15
3/27/2021 8:00:00 AM 13.13 55.634 0.723 7.76 3.75 8.23
3/27/2021 8:15:00 AM 13.12 55.616 0.725 7.76 2.81 8.35
3/27/2021 8:30:00 AM 13.11 55.598 0.725 7.76 2.7 8.5
3/27/2021 8:45:00 AM 13.12 55.616 0.725 7.78 2.75 8.73
3/27/2021 9:00:00 AM 13.13 55.634 0.727 7.79 2.67 8.94
3/27/2021 9:15:00 AM 13.15 55.67 0.723 7.81 2.35 9.19
3/27/2021 9:30:00 AM 13.17 55.706 0.726 7.83 2.32 9.42
3/27/2021 9:45:00 AM 13.22 55.796 0.725 7.85 2.44 9.73
3/27/2021 10:00:00 AM 13.29 55.922 0.727 7.87 2.56 10.11
3/27/2021 10:15:00 AM 13.38 56.084 0.724 7.9 2.15 10.49
3/27/2021 10:30:00 AM 13.51 56.318 0.728 7.95 2.73 10.93
3/27/2021 10:45:00 AM 13.66 56.588 0.726 7.99 2.76 11.38
3/27/2021 11:00:00 AM 13.85 56.93 0.727 8.03 3.39 11.72
3/27/2021 11:15:00 AM 14.04 57.272 0.724 8.06 2.71 12.2
3/27/2021 11:30:00 AM 14.23 57.614 0.727 8.09 2.51 12.62
3/27/2021 11:45:00 AM 14.43 57.974 0.722 8.12 2.95 13.04
3/27/2021 12:00:00 PM 14.62 58.316 0.723 8.16 2.32 13.44
3/27/2021 12:15:00 PM 14.79 58.622 0.723 8.19 1.95 13.79
3/27/2021 12:30:00 PM 14.99 58.982 0.726 8.24 2.39 14.12
3/27/2021 12:45:00 PM 15.19 59.342 0.721 8.26 2.87 14.38
3/27/2021 1:00:00 PM 15.36 59.648 0.721 8.3 2.82 14.65
3/27/2021 1:15:00 PM 15.54 59.972 0.721 8.34 2.22 14.88
3/27/2021 1:30:00 PM 15.69 60.242 0.72 8.36 2.54 15.05
3/27/2021 1:45:00 PM 15.83 60.494 0.719 8.39 2.8 15.17
3/27/2021 2:00:00 PM 15.96 60.728 0.72 8.42 4.86 15.31
3/27/2021 2:15:00 PM 16.08 60.944 0.718 8.44 2.22 15.42
3/27/2021 2:30:00 PM 16.2 61.16 0.718 8.47 2.76 15.64
3/27/2021 2:45:00 PM 16.31 61.358 0.716 8.49 12.67 15.76
3/27/2021 3:00:00 PM 16.39 61.502 0.712 8.51 2.84 15.89
3/27/2021 3:15:00 PM 16.5 61.7 0.71 8.54 2.05 15.78
3/27/2021 3:30:00 PM 16.57 61.826 0.71 8.56 2.59 15.89
3/27/2021 3:45:00 PM 16.63 61.934 0.709 8.57 2.89 15.97
3/27/2021 4:00:00 PM 16.68 62.024 0.711 8.59 2.22 15.86
3/27/2021 4:15:00 PM 16.73 62.114 0.711 8.6 2.28 15.74
3/27/2021 4:30:00 PM 16.74 62.132 0.71 8.62 2.44 15.6
3/27/2021 4:45:00 PM 16.75 62.15 0.709 8.62 2.09 15.42
3/27/2021 5:00:00 PM 16.77 62.186 0.709 8.62 3.01 15.19
3/27/2021 5:15:00 PM 16.78 62.204 0.707 8.62 2.77 14.99
3/27/2021 5:30:00 PM 16.79 62.222 0.71 8.63 2.42 14.76
3/27/2021 5:45:00 PM 16.76 62.168 0.71 8.62 1.99 14.54
3/27/2021 6:00:00 PM 16.74 62.132 0.711 8.62 3.42 14.24
3/27/2021 6:15:00 PM 16.71 62.078 0.71 8.61 2.55 13.94
3/27/2021 6:30:00 PM 16.66 61.988 0.71 8.59 5.45 13.54
3/27/2021 6:45:00 PM 16.61 61.898 0.712 8.58 2.19 13.18
3/27/2021 7:00:00 PM 16.54 61.772 0.714 8.56 3 12.8
3/27/2021 7:15:00 PM 16.48 61.664 0.714 8.54 2.25 12.41
3/27/2021 7:30:00 PM 16.42 61.556 0.715 8.51 4 12.02
3/27/2021 7:45:00 PM 16.34 61.412 0.714 8.48 2.86 11.64
3/27/2021 8:00:00 PM 16.26 61.268 0.716 8.46 3.38 11.31
3/27/2021 8:15:00 PM 16.17 61.106 0.717 8.43 3.86 10.96
3/27/2021 8:30:00 PM 16.08 60.944 0.716 8.39 4.81 10.63
3/27/2021 8:45:00 PM 15.98 60.764 0.718 8.36 3.88 10.33
3/27/2021 9:00:00 PM 15.89 60.602 0.72 8.33 3.24 10
3/27/2021 9:15:00 PM 15.79 60.422 0.718 8.29 2.86 9.77
3/27/2021 9:30:00 PM 15.69 60.242 0.722 8.26 3.45 9.55
3/27/2021 9:45:00 PM 15.59 60.062 0.72 8.22 3.13 9.33
3/27/2021 10:00:00 PM 15.49 59.882 0.724 8.18 2.89 9.13
3/27/2021 10:15:00 PM 15.4 59.72 0.726 8.15 2.85 8.97
3/27/2021 10:30:00 PM 15.3 59.54 0.724 8.11 3.16 8.81
3/27/2021 10:45:00 PM 15.21 59.378 0.725 8.08 2.38 8.66
3/27/2021 11:00:00 PM 15.12 59.216 0.727 8.05 2.22 8.53
3/27/2021 11:15:00 PM 15.04 59.072 0.729 8.02 2.64 8.41
3/27/2021 11:30:00 PM 14.96 58.928 0.729 7.99 2.83 8.3
3/27/2021 11:45:00 PM 14.87 58.766 0.727 7.96 4.02 8.22
3/28/2021 12:00:00 AM 14.78 58.604 0.726 7.94 4.25 8.14
3/28/2021 12:15:00 AM 14.7 58.46 0.727 7.91 3.21 8.07
3/28/2021 12:30:00 AM 14.63 58.334 0.728 7.9 5.57 8.02
3/28/2021 12:45:00 AM 14.55 58.19 0.729 7.87 3.14 7.96
3/28/2021 1:00:00 AM 14.48 58.064 0.728 7.86 2.72 7.92
3/28/2021 1:15:00 AM 14.43 57.974 0.727 7.85 3.06 7.9
3/28/2021 1:30:00 AM 14.37 57.866 0.727 7.84 2.75 7.86
3/28/2021 1:45:00 AM 14.32 57.776 0.73 7.82 4.44 7.86
3/28/2021 2:00:00 AM 14.26 57.668 0.726 7.81 2.79 7.83
3/28/2021 2:15:00 AM 14.22 57.596 0.727 7.8 2.67 7.82
3/28/2021 2:30:00 AM 14.17 57.506 0.726 7.79 2.81 7.81
3/28/2021 2:45:00 AM 14.13 57.434 0.727 7.79 2.96 7.78
3/28/2021 3:00:00 AM 14.08 57.344 0.726 7.79 3.68 7.79
3/28/2021 3:15:00 AM 14.04 57.272 0.727 7.78 3.61 7.8
3/28/2021 3:30:00 AM 14.01 57.218 0.727 7.78 3.61 7.79
3/28/2021 3:45:00 AM 13.98 57.164 0.726 7.78 3.53 7.8
3/28/2021 4:00:00 AM 13.95 57.11 0.725 7.78 3.84 7.8
3/28/2021 4:15:00 AM 13.93 57.074 0.731 7.78 5.18 7.83
3/28/2021 4:30:00 AM 13.91 57.038 0.729 7.78 4.16 7.81
3/28/2021 4:45:00 AM 13.89 57.002 0.728 7.77 3.1 7.84
3/28/2021 5:00:00 AM 13.87 56.966 0.73 7.78 3.35 7.82
3/28/2021 5:15:00 AM 13.86 56.948 0.729 7.77 4.3 7.84
3/28/2021 5:30:00 AM 13.85 56.93 0.731 7.77 2.83 7.82
3/28/2021 5:45:00 AM 13.84 56.912 0.733 7.77 4.57 7.84
3/28/2021 6:00:00 AM 13.83 56.894 0.733 7.77 2.98 7.82
3/28/2021 6:15:00 AM 13.82 56.876 0.733 7.77 2.68 7.84
3/28/2021 6:30:00 AM 13.8 56.84 0.736 7.77 2.82 7.84
3/28/2021 6:45:00 AM 13.79 56.822 0.736 7.77 2.86 7.84
3/28/2021 7:00:00 AM 13.78 56.804 0.736 7.77 2.59 7.84
3/28/2021 7:15:00 AM 13.78 56.804 0.737 7.77 4.26 7.85
3/28/2021 7:30:00 AM 13.76 56.768 0.738 7.77 2.71 7.86
3/28/2021 7:45:00 AM 13.76 56.768 0.736 7.77 3.39 7.88
3/28/2021 8:00:00 AM 13.74 56.732 0.735 7.77 2.78 7.92
3/28/2021 8:15:00 AM 13.74 56.732 0.737 7.78 3.39 7.93
3/28/2021 8:30:00 AM 13.73 56.714 0.736 7.78 2.85 7.98
3/28/2021 8:45:00 AM 13.73 56.714 0.737 7.79 3.13 8.04
3/28/2021 9:00:00 AM 13.72 56.696 0.736 7.79 3.19 8.1
3/28/2021 9:15:00 AM 13.73 56.714 0.735 7.79 2.63 8.2
3/28/2021 9:30:00 AM 13.73 56.714 0.738 7.8 3.01 8.28
3/28/2021 9:45:00 AM 13.73 56.714 0.737 7.81 4.88 8.38
3/28/2021 10:00:00 AM 13.73 56.714 0.738 7.81 2.69 8.41
3/28/2021 10:15:00 AM 13.72 56.696 0.738 7.81 3.37 8.42
3/28/2021 10:30:00 AM 13.72 56.696 0.74 7.81 2.78 8.43
3/28/2021 10:45:00 AM 13.71 56.678 0.74 7.82 3.16 8.53
3/28/2021 11:00:00 AM 13.72 56.696 0.738 7.83 2.7 8.68
3/28/2021 11:15:00 AM 13.71 56.678 0.74 7.84 3.05 8.78
3/28/2021 11:30:00 AM 13.7 56.66 0.74 7.84 2.65 8.81
3/28/2021 11:45:00 AM 13.69 56.642 0.739 7.84 4.62 8.83
3/28/2021 12:00:00 PM 13.68 56.624 0.739 7.84 2.87 8.91
3/28/2021 12:15:00 PM 13.68 56.624 0.74 7.85 2.9 9.09
3/28/2021 12:30:00 PM 13.67 56.606 0.736 7.86 3.51 9.22
3/28/2021 12:45:00 PM 13.65 56.57 0.736 7.87 3.27 9.28
3/28/2021 1:00:00 PM 13.64 56.552 0.737 7.87 3.22 9.39
3/28/2021 1:15:00 PM 13.62 56.516 0.734 7.88 7.79 9.76
3/28/2021 1:30:00 PM 13.61 56.498 0.734 7.89 2.92 9.64
3/28/2021 1:45:00 PM 13.61 56.498 0.735 7.9 3.15 9.77
3/28/2021 2:00:00 PM 13.63 56.534 0.733 7.92 3.21 9.97
3/28/2021 2:15:00 PM 13.65 56.57 0.734 7.93 3.83 10.08
3/28/2021 2:30:00 PM 13.67 56.606 0.734 7.95 5.72 10.18
3/28/2021 2:45:00 PM 13.7 56.66 0.734 7.96 3.16 10.33
3/28/2021 3:00:00 PM 13.74 56.732 0.735 7.97 3.65 10.54
3/28/2021 3:15:00 PM 13.77 56.786 0.734 7.99 2.91 10.65
3/28/2021 3:30:00 PM 13.81 56.858 0.734 8 3.01 10.74
3/28/2021 3:45:00 PM 13.86 56.948 0.735 8.02 3.51 10.92
3/28/2021 4:00:00 PM 13.94 57.092 0.737 8.04 2.77 11.22
3/28/2021 4:15:00 PM 13.99 57.182 0.736 8.07 3.2 11.43
3/28/2021 4:30:00 PM 14.05 57.29 0.736 8.09 3.76 11.58
3/28/2021 4:45:00 PM 14.1 57.38 0.736 8.11 3.96 11.72
3/28/2021 5:00:00 PM 14.12 57.416 0.732 8.12 4.4 11.67
3/28/2021 5:15:00 PM 14.12 57.416 0.732 8.11 4.26 11.53
3/28/2021 5:30:00 PM 14.13 57.434 0.729 8.11 3.17 11.39
3/28/2021 5:45:00 PM 14.14 57.452 0.727 8.12 5.06 11.3
3/28/2021 6:00:00 PM 14.12 57.416 0.722 8.13 5.36 11.16
3/28/2021 6:15:00 PM 14.11 57.398 0.719 8.13 7.62 11.1
3/28/2021 6:30:00 PM 14.11 57.398 0.722 8.12 5.24 11
3/28/2021 6:45:00 PM 14.11 57.398 0.722 8.12 4.65 10.84
3/28/2021 7:00:00 PM 14.1 57.38 0.721 8.11 4.53 10.68
3/28/2021 7:15:00 PM 14.09 57.362 0.72 8.1 5.02 10.53
3/28/2021 7:30:00 PM 14.07 57.326 0.718 8.1 5.37 10.38
3/28/2021 7:45:00 PM 14.04 57.272 0.716 8.09 7.6 10.22
3/28/2021 8:00:00 PM 14.01 57.218 0.714 8.07 4.89 10.01
3/28/2021 8:15:00 PM 13.98 57.164 0.711 8.05 6.35 9.9
3/28/2021 8:30:00 PM 13.95 57.11 0.71 8.04 9.71 9.77
3/28/2021 8:45:00 PM 13.91 57.038 0.707 8.02 6.22 9.62
3/28/2021 9:00:00 PM 13.85 56.93 0.706 8.01 10.48 9.54
3/28/2021 9:15:00 PM 13.8 56.84 0.705 8 15.1 9.42
3/28/2021 9:30:00 PM 13.75 56.75 0.703 7.99 11.34 9.31
3/28/2021 9:45:00 PM 13.69 56.642 0.701 7.96 19.13 9.16
3/28/2021 10:00:00 PM 13.61 56.498 0.696 7.94 10.8 9.06
3/28/2021 10:15:00 PM 13.52 56.336 0.693 7.91 14.59 8.95
3/28/2021 10:30:00 PM 13.44 56.192 0.692 7.89 15.73 8.87
3/28/2021 10:45:00 PM 13.36 56.048 0.693 7.87 17.39 8.78
3/28/2021 11:00:00 PM 13.27 55.886 0.695 7.86 12.39 8.74
3/28/2021 11:15:00 PM 13.19 55.742 0.694 7.86 13.98 8.69
3/28/2021 11:30:00 PM 13.11 55.598 0.694 7.84 12.91 8.65
3/28/2021 11:45:00 PM 13.05 55.49 0.694 7.83 13.53 8.6
3/29/2021 12:00:00 AM 12.97 55.346 0.69 7.82 11.3 8.6
3/29/2021 12:15:00 AM 12.88 55.184 0.688 7.81 10.89 8.56
3/29/2021 12:30:00 AM 12.79 55.022 0.691 7.81 9.48 8.59
3/29/2021 12:45:00 AM 12.7 54.86 0.685 7.8 9.65 8.57
3/29/2021 1:00:00 AM 12.63 54.734 0.683 7.8 7.88 8.58
3/29/2021 1:15:00 AM 12.58 54.644 0.682 7.8 7.91 8.56
3/29/2021 1:30:00 AM 12.49 54.482 0.681 7.79 9.27 8.57
3/29/2021 1:45:00 AM 12.41 54.338 0.678 7.78 7.57 8.6
3/29/2021 2:00:00 AM 12.32 54.176 0.676 7.79 9.05 8.61
3/29/2021 2:15:00 AM 12.27 54.086 0.677 7.78 6.74 8.62
3/29/2021 2:30:00 AM 12.21 53.978 0.677 7.79 7.74 8.66
3/29/2021 2:45:00 AM 12.13 53.834 0.674 7.77 9.17 8.67
3/29/2021 3:00:00 AM 12.06 53.708 0.674 7.78 24.73 8.69
3/29/2021 3:15:00 AM 11.99 53.582 0.675 7.77 8.32 8.69
3/29/2021 3:30:00 AM 11.93 53.474 0.673 7.77 8.57 8.71
3/29/2021 3:45:00 AM 11.88 53.384 0.672 7.78 8.64 8.72
3/29/2021 4:00:00 AM 11.82 53.276 0.672 7.77 7.17 8.73
3/29/2021 4:15:00 AM 11.76 53.168 0.672 7.77 9.02 8.75
3/29/2021 4:30:00 AM 11.71 53.078 0.671 7.77 8.05 8.76
3/29/2021 4:45:00 AM 11.67 53.006 0.673 7.77 8.73 8.78
3/29/2021 5:00:00 AM 11.61 52.898 0.675 7.76 10.44 8.82
3/29/2021 5:15:00 AM 11.56 52.808 0.673 7.76 8.19 8.84
3/29/2021 5:30:00 AM 11.5 52.7 0.675 7.77 8.22 8.87
3/29/2021 5:45:00 AM 11.45 52.61 0.676 7.77 8.27 8.88
3/29/2021 6:00:00 AM 11.4 52.52 0.676 7.77 9.51 8.89
3/29/2021 6:15:00 AM 11.34 52.412 0.678 7.77 8.49 8.94
3/29/2021 6:30:00 AM 11.3 52.34 0.681 7.77 9.79 8.97
3/29/2021 6:45:00 AM 11.26 52.268 0.68 7.77 8.49 9
3/29/2021 7:00:00 AM 11.21 52.178 0.684 7.78 7.57 9.01
3/29/2021 7:15:00 AM 11.17 52.106 0.687 7.78 6.94 9.02
3/29/2021 7:30:00 AM 11.13 52.034 0.689 7.78 8.87 9.12
3/29/2021 7:45:00 AM 11.1 51.98 0.688 7.78 8.04 9.17
3/29/2021 8:00:00 AM 11.06 51.908 0.691 7.79 7.97 9.25
3/29/2021 8:15:00 AM 11.03 51.854 0.692 7.79 7.39 9.34
3/29/2021 8:30:00 AM 10.99 51.782 0.692 7.8 7.03 9.43
3/29/2021 8:45:00 AM 10.97 51.746 0.693 7.8 7.45 9.5
3/29/2021 9:00:00 AM 10.94 51.692 0.693 7.81 7.04 9.63
3/29/2021 9:15:00 AM 10.92 51.656 0.691 7.82 7.21 9.82
3/29/2021 9:30:00 AM 10.9 51.62 0.688 7.83 6.21 10.02
3/29/2021 9:45:00 AM 10.91 51.638 0.685 7.85 6.52 10.23
3/29/2021 10:00:00 AM 10.91 51.638 0.68 7.86 6.17 10.42
3/29/2021 10:15:00 AM 10.91 51.638 0.678 7.88 6.39 10.65
3/29/2021 10:30:00 AM 10.94 51.692 0.675 7.9 6.19 10.93
3/29/2021 10:45:00 AM 10.95 51.71 0.673 7.91 9.4 11.14
3/29/2021 11:00:00 AM 11.08 51.944 0.67 7.93 5.57 11.46
3/29/2021 11:15:00 AM 11.2 52.16 0.668 7.96 5.61 11.83
3/29/2021 11:30:00 AM 11.23 52.214 0.665 7.99 5.51 12.13
3/29/2021 11:45:00 AM 11.36 52.448 0.668 8.01 5.66 12.39
3/29/2021 12:00:00 PM 11.55 52.79 0.665 8.05 6.13 12.94
3/29/2021 12:15:00 PM 11.69 53.042 0.662 8.09 5.1 13.3
3/29/2021 12:30:00 PM 11.84 53.312 0.662 8.12 5.01 13.63
3/29/2021 12:45:00 PM 11.95 53.51 0.661 8.15 4.78 13.96
3/29/2021 1:00:00 PM 12.1 53.78 0.661 8.19 4.66 14.28
3/29/2021 1:15:00 PM 12.25 54.05 0.659 8.23 5.12 14.59
3/29/2021 1:30:00 PM 12.38 54.284 0.66 8.26 4.74 14.85
3/29/2021 1:45:00 PM 12.52 54.536 0.66 8.29 5.17 15.05
3/29/2021 2:00:00 PM 12.63 54.734 0.655 8.33 4.31 15.29
3/29/2021 2:15:00 PM 12.73 54.914 0.656 8.36 3.7 15.47
3/29/2021 2:30:00 PM 12.84 55.112 0.653 8.39 3.9 15.63
3/29/2021 2:45:00 PM 12.95 55.31 0.655 8.41 5.48 15.73
3/29/2021 3:00:00 PM 13.05 55.49 0.649 8.44 3.93 15.83
3/29/2021 3:15:00 PM 13.12 55.616 0.644 8.46 3.72 15.86
3/29/2021 3:30:00 PM 13.19 55.742 0.647 8.48 3.79 15.83
3/29/2021 3:45:00 PM 13.24 55.832 0.645 8.5 3.31 15.88
3/29/2021 4:00:00 PM 13.28 55.904 0.639 8.52 4.4 15.92
3/29/2021 4:15:00 PM 13.32 55.976 0.639 8.53 3.11 15.96
3/29/2021 4:30:00 PM 13.32 55.976 0.639 8.54 3.15 15.82
3/29/2021 4:45:00 PM 13.31 55.958 0.639 8.55 3.43 15.69
3/29/2021 5:00:00 PM 13.29 55.922 0.639 8.55 3.04 15.53
3/29/2021 5:15:00 PM 13.26 55.868 0.64 8.55 3.11 15.33
3/29/2021 5:30:00 PM 13.22 55.796 0.639 8.56 2.87 15.2
3/29/2021 5:45:00 PM 13.18 55.724 0.634 8.57 3 14.97
3/29/2021 6:00:00 PM 13.13 55.634 0.633 8.55 2.92 14.72
3/29/2021 6:15:00 PM 13.09 55.562 0.631 8.54 3.18 14.53
3/29/2021 6:30:00 PM 13.06 55.508 0.629 8.53 5.26 14.26
3/29/2021 6:45:00 PM 13.02 55.436 0.63 8.52 3.94 14.05
3/29/2021 7:00:00 PM 12.97 55.346 0.629 8.51 3.25 13.81
3/29/2021 7:15:00 PM 12.89 55.202 0.63 8.5 2.81 13.55
3/29/2021 7:30:00 PM 12.81 55.058 0.624 8.48 3.94 13.26
3/29/2021 7:45:00 PM 12.71 54.878 0.619 8.46 3.79 12.97
3/29/2021 8:00:00 PM 12.61 54.698 0.62 8.43 4.19 12.68
3/29/2021 8:15:00 PM 12.51 54.518 0.621 8.41 3.36 12.42
3/29/2021 8:30:00 PM 12.41 54.338 0.623 8.38 3.92 12.12
3/29/2021 8:45:00 PM 12.29 54.122 0.621 8.35 3.87 11.82
3/29/2021 9:00:00 PM 12.19 53.942 0.62 8.31 6.48 11.54
3/29/2021 9:15:00 PM 12.07 53.726 0.627 8.28 3.93 11.33
3/29/2021 9:30:00 PM 11.96 53.528 0.629 8.25 4.79 11.08
3/29/2021 9:45:00 PM 11.84 53.312 0.631 8.21 4.47 10.88
3/29/2021 10:00:00 PM 11.73 53.114 0.63 8.17 4.05 10.69
3/29/2021 10:15:00 PM 11.62 52.916 0.631 8.15 4.42 10.53
3/29/2021 10:30:00 PM 11.5 52.7 0.631 8.11 4.81 10.39
3/29/2021 10:45:00 PM 11.39 52.502 0.634 8.08 3.84 10.24
3/29/2021 11:00:00 PM 11.28 52.304 0.632 8.05 4.84 10.12
3/29/2021 11:15:00 PM 11.18 52.124 0.634 8.02 4.51 9.96
3/29/2021 11:30:00 PM 11.07 51.926 0.635 8 3.92 9.91
3/29/2021 11:45:00 PM 10.98 51.764 0.637 7.97 4.14 9.8
3/30/2021 12:00:00 AM 10.88 51.584 0.637 7.94 3.83 9.72
3/30/2021 12:15:00 AM 10.79 51.422 0.636 7.92 4.28 9.63
3/30/2021 12:30:00 AM 10.71 51.278 0.64 7.9 4.07 9.59
3/30/2021 12:45:00 AM 10.62 51.116 0.64 7.88 5.19 9.51
3/30/2021 1:00:00 AM 10.55 50.99 0.641 7.87 4.15 9.49
3/30/2021 1:15:00 AM 10.47 50.846 0.64 7.86 4.78 9.42
3/30/2021 1:30:00 AM 10.39 50.702 0.642 7.84 3.87 9.41
3/30/2021 1:45:00 AM 10.32 50.576 0.644 7.83 3.82 9.42
3/30/2021 2:00:00 AM 10.25 50.45 0.646 7.82 4.4 9.37
3/30/2021 2:15:00 AM 10.18 50.324 0.644 7.81 4.96 9.37
3/30/2021 2:30:00 AM 10.12 50.216 0.647 7.8 3.85 9.38
3/30/2021 2:45:00 AM 10.06 50.108 0.646 7.8 4.3 9.41
3/30/2021 3:00:00 AM 10 50 0.647 7.79 5.14 9.38
3/30/2021 3:15:00 AM 9.94 49.892 0.649 7.79 4.55 9.39
3/30/2021 3:30:00 AM 9.88 49.784 0.648 7.79 4.31 9.42
3/30/2021 3:45:00 AM 9.83 49.694 0.65 7.78 4.95 9.45
3/30/2021 4:00:00 AM 9.78 49.604 0.649 7.78 4.72 9.46
3/30/2021 4:15:00 AM 9.72 49.496 0.651 7.78 5.2 9.43
3/30/2021 4:30:00 AM 9.68 49.424 0.652 7.78 5.13 9.45
3/30/2021 4:45:00 AM 9.62 49.316 0.652 7.78 4.81 9.48
3/30/2021 5:00:00 AM 9.57 49.226 0.651 7.77 4.28 9.48
3/30/2021 5:15:00 AM 9.52 49.136 0.654 7.77 4.53 9.51
3/30/2021 5:30:00 AM 9.48 49.064 0.651 7.78 5.06 9.5
3/30/2021 5:45:00 AM 9.43 48.974 0.653 7.77 4.72 9.54
3/30/2021 6:00:00 AM 9.38 48.884 0.653 7.77 5.04 9.53
3/30/2021 6:15:00 AM 9.34 48.812 0.653 7.77 4.28 9.56
3/30/2021 6:30:00 AM 9.3 48.74 0.652 7.77 5.4 9.57
3/30/2021 6:45:00 AM 9.25 48.65 0.652 7.76 5.06 9.57
3/30/2021 7:00:00 AM 9.22 48.596 0.654 7.77 4.3 9.59
3/30/2021 7:15:00 AM 9.18 48.524 0.655 7.77 3.91 9.62
3/30/2021 7:30:00 AM 9.14 48.452 0.653 7.77 4.62 9.68
3/30/2021 7:45:00 AM 9.11 48.398 0.654 7.77 4.59 9.73
3/30/2021 8:00:00 AM 9.09 48.362 0.654 7.77 4.08 9.8
3/30/2021 8:15:00 AM 9.07 48.326 0.655 7.77 3.89 9.89
3/30/2021 8:30:00 AM 9.07 48.326 0.654 7.78 4.67 10.02
3/30/2021 8:45:00 AM 9.08 48.344 0.653 7.78 4.29 10.12
3/30/2021 9:00:00 AM 9.11 48.398 0.653 7.8 3.67 10.3
3/30/2021 9:15:00 AM 9.14 48.452 0.652 7.81 3.48 10.52
3/30/2021 9:30:00 AM 9.2 48.56 0.653 7.83 3.73 10.69
3/30/2021 9:45:00 AM 9.27 48.686 0.655 7.84 3.4 10.97
3/30/2021 10:00:00 AM 9.39 48.902 0.655 7.87 5.06 11.31
3/30/2021 10:15:00 AM 9.55 49.19 0.654 7.9 3.92 11.72
3/30/2021 10:30:00 AM 9.73 49.514 0.653 7.94 3.1 12.17
3/30/2021 10:45:00 AM 9.94 49.892 0.651 7.98 3.06 12.56
3/30/2021 11:00:00 AM 10.16 50.288 0.652 8.02 2.97 12.97
3/30/2021 11:15:00 AM 10.38 50.684 0.651 8.05 2.89 13.36
3/30/2021 11:30:00 AM 10.61 51.098 0.649 8.09 2.85 13.74
3/30/2021 11:45:00 AM 10.84 51.512 0.648 8.13 2.98 14.12
3/30/2021 12:00:00 PM 11.06 51.908 0.648 8.16 3.81 14.47
3/30/2021 12:15:00 PM 11.29 52.322 0.648 8.2 2.97 14.8
3/30/2021 12:30:00 PM 11.51 52.718 0.649 8.23 2.81 15.14
3/30/2021 12:45:00 PM 11.75 53.15 0.647 8.27 3.92 15.49
3/30/2021 1:00:00 PM 11.96 53.528 0.646 8.3 3.4 15.65
3/30/2021 1:15:00 PM 12.17 53.906 0.645 8.33 2.68 15.87
3/30/2021 1:30:00 PM 12.37 54.266 0.646 8.37 2.7 15.97
3/30/2021 1:45:00 PM 12.57 54.626 0.645 8.4 2.43 16.08
3/30/2021 2:00:00 PM 12.75 54.95 0.645 8.42 2.67 16.26
3/30/2021 2:15:00 PM 12.92 55.256 0.644 8.45 3.87 16.42
3/30/2021 2:30:00 PM 13.08 55.544 0.642 8.48 2.29 16.55
3/30/2021 2:45:00 PM 13.24 55.832 0.642 8.5 2.43 16.69
3/30/2021 3:00:00 PM 13.41 56.138 0.641 8.53 2.44 16.73
3/30/2021 3:15:00 PM 13.54 56.372 0.641 8.55 2.51 16.74
3/30/2021 3:30:00 PM 13.65 56.57 0.639 8.57 2.75 16.86
3/30/2021 3:45:00 PM 13.75 56.75 0.637 8.58 2.35 16.77
3/30/2021 4:00:00 PM 13.83 56.894 0.636 8.61 2.21 16.71
3/30/2021 4:15:00 PM 13.89 57.002 0.639 8.62 2.86 16.64
3/30/2021 4:30:00 PM 13.94 57.092 0.639 8.63 2.33 16.53
3/30/2021 4:45:00 PM 13.96 57.128 0.64 8.63 2.69 16.43
3/30/2021 5:00:00 PM 13.98 57.164 0.639 8.64 2.72 16.27
3/30/2021 5:15:00 PM 13.99 57.182 0.637 8.64 2.39 15.99
3/30/2021 5:30:00 PM 13.98 57.164 0.639 8.64 2.57 15.73
3/30/2021 5:45:00 PM 13.97 57.146 0.641 8.64 3.02 15.53
3/30/2021 6:00:00 PM 13.97 57.146 0.642 8.64 2.2 15.24
3/30/2021 6:15:00 PM 13.97 57.146 0.641 8.64 2.26 15.05
3/30/2021 6:30:00 PM 13.95 57.11 0.644 8.63 2.61 14.79
3/30/2021 6:45:00 PM 13.92 57.056 0.643 8.63 3.05 14.54
3/30/2021 7:00:00 PM 13.88 56.984 0.642 8.62 2.43 14.27
3/30/2021 7:15:00 PM 13.82 56.876 0.642 8.6 2.37 13.89
3/30/2021 7:30:00 PM 13.76 56.768 0.642 8.59 3.07 13.61
3/30/2021 7:45:00 PM 13.69 56.642 0.644 8.57 2.39 13.31
3/30/2021 8:00:00 PM 13.6 56.48 0.642 8.55 2.76 12.95
3/30/2021 8:15:00 PM 13.51 56.318 0.642 8.52 3.74 12.63
3/30/2021 8:30:00 PM 13.42 56.156 0.648 8.49 2.68 12.27
3/30/2021 8:45:00 PM 13.33 55.994 0.649 8.47 2.76 11.97
3/30/2021 9:00:00 PM 13.23 55.814 0.649 8.43 3.01 11.67
3/30/2021 9:15:00 PM 13.13 55.634 0.65 8.4 2.86 11.36
3/30/2021 9:30:00 PM 13.03 55.454 0.656 8.37 2.95 11.11
3/30/2021 9:45:00 PM 12.93 55.274 0.655 8.33 3.52 10.87
3/30/2021 10:00:00 PM 12.83 55.094 0.655 8.3 2.79 10.67
3/30/2021 10:15:00 PM 12.73 54.914 0.656 8.27 3.19 10.41
3/30/2021 10:30:00 PM 12.64 54.752 0.658 8.24 2.55 10.25
3/30/2021 10:45:00 PM 12.55 54.59 0.661 8.2 2.72 10.07
3/30/2021 11:00:00 PM 12.46 54.428 0.66 8.17 3.37 9.92
3/30/2021 11:15:00 PM 12.38 54.284 0.665 8.14 2.39 9.77
3/30/2021 11:30:00 PM 12.3 54.14 0.665 8.11 2.8 9.64
3/30/2021 11:45:00 PM 12.22 53.996 0.666 8.07 2.45 9.53
3/31/2021 12:00:00 AM 12.15 53.87 0.667 8.04 2.93 9.42
3/31/2021 12:15:00 AM 12.07 53.726 0.668 8.02 2.54 9.33
3/31/2021 12:30:00 AM 12.01 53.618 0.669 7.99 3.29 9.24
3/31/2021 12:45:00 AM 11.93 53.474 0.672 7.97 3.01 9.11
3/31/2021 1:00:00 AM 11.87 53.366 0.675 7.95 2.84 9.09
3/31/2021 1:15:00 AM 11.81 53.258 0.671 7.93 2.31 9.02
3/31/2021 1:30:00 AM 11.75 53.15 0.673 7.91 2.69 8.99
3/31/2021 1:45:00 AM 11.7 53.06 0.673 7.89 3.23 8.93
3/31/2021 2:00:00 AM 11.65 52.97 0.674 7.87 3.49 8.9
3/31/2021 2:15:00 AM 11.6 52.88 0.682 7.86 2.85 8.87
3/31/2021 2:30:00 AM 11.56 52.808 0.676 7.85 3.47 8.87
3/31/2021 2:45:00 AM 11.52 52.736 0.678 7.84 2.73 8.86
3/31/2021 3:00:00 AM 11.48 52.664 0.679 7.83 3.21 8.82
3/31/2021 3:15:00 AM 11.44 52.592 0.683 7.83 2.41 8.78
3/31/2021 3:30:00 AM 11.41 52.538 0.681 7.82 4.66 8.79
3/31/2021 3:45:00 AM 11.37 52.466 0.683 7.82 2.64 8.8
3/31/2021 4:00:00 AM 11.35 52.43 0.685 7.81 3.02 8.82
3/31/2021 4:15:00 AM 11.33 52.394 0.687 7.81 2.98 8.8
3/31/2021 4:30:00 AM 11.3 52.34 0.687 7.81 2.81 8.82
3/31/2021 4:45:00 AM 11.29 52.322 0.689 7.81 3.05 8.8
3/31/2021 5:00:00 AM 11.28 52.304 0.691 7.81 2.51 8.8
3/31/2021 5:15:00 AM 11.27 52.286 0.692 7.8 2.61 8.79
3/31/2021 5:30:00 AM 11.27 52.286 0.696 7.8 3.13 8.81
3/31/2021 5:45:00 AM 11.27 52.286 0.698 7.8 2.49 8.8
3/31/2021 6:00:00 AM 11.27 52.286 0.696 7.8 2.75 8.79
3/31/2021 6:15:00 AM 11.27 52.286 0.703 7.8 3.47 8.79
3/31/2021 6:30:00 AM 11.28 52.304 0.698 7.8 3.45 8.78
3/31/2021 6:45:00 AM 11.29 52.322 0.698 7.8 2.49 8.78
3/31/2021 7:00:00 AM 11.29 52.322 0.701 7.8 3.2 8.79
3/31/2021 7:15:00 AM 11.31 52.358 0.705 7.81 3.3 8.8
3/31/2021 7:30:00 AM 11.35 52.43 0.706 7.8 2.35 8.85
3/31/2021 7:45:00 AM 11.4 52.52 0.705 7.81 2.43 8.93
3/31/2021 8:00:00 AM 11.45 52.61 0.705 7.81 2.92 9.05
3/31/2021 8:15:00 AM 11.49 52.682 0.707 7.81 2.16 9.07
3/31/2021 8:30:00 AM 11.54 52.772 0.711 7.82 2.29 9.21
3/31/2021 8:45:00 AM 11.58 52.844 0.708 7.83 2.69 9.35
3/31/2021 9:00:00 AM 11.63 52.934 0.711 7.84 2.73 9.45
3/31/2021 9:15:00 AM 11.68 53.024 0.709 7.85 1.71 9.6
3/31/2021 9:30:00 AM 11.74 53.132 0.714 7.86 2.85 9.74
3/31/2021 9:45:00 AM 11.79 53.222 0.711 7.88 1.94 9.93
3/31/2021 10:00:00 AM 11.84 53.312 0.713 7.89 2.73 10.05
3/31/2021 10:15:00 AM 11.92 53.456 0.713 7.9 1.75 10.29
3/31/2021 10:30:00 AM 12.01 53.618 0.714 7.92 2.04 10.6
3/31/2021 10:45:00 AM 12.1 53.78 0.715 7.95 1.73 10.94
3/31/2021 11:00:00 AM 12.19 53.942 0.713 7.98 2.26 11.27
3/31/2021 11:15:00 AM 12.29 54.122 0.715 8.01 2.15 11.61
3/31/2021 11:30:00 AM 12.38 54.284 0.716 8.04 2.72 11.88
3/31/2021 11:45:00 AM 12.46 54.428 0.715 8.06 1.74 12.15
3/31/2021 12:00:00 PM 12.55 54.59 0.714 8.09 1.78 12.45
3/31/2021 12:15:00 PM 12.62 54.716 0.714 8.11 2.8 12.66
3/31/2021 12:30:00 PM 12.69 54.842 0.714 8.13 1.68 12.84
3/31/2021 12:45:00 PM 12.75 54.95 0.716 8.15 1.71 12.95
3/31/2021 1:00:00 PM 12.84 55.112 0.714 8.18 1.71 13.24
3/31/2021 1:15:00 PM 12.93 55.274 0.715 8.21 1.64 13.59
3/31/2021 1:30:00 PM 13.02 55.436 0.715 8.24 1.69 13.89
3/31/2021 1:45:00 PM 13.06 55.508 0.716 8.26 1.77 13.92
3/31/2021 2:00:00 PM 13.11 55.598 0.713 8.28 1.86 13.84
3/31/2021 2:15:00 PM 13.16 55.688 0.713 8.29 1.75 13.98
3/31/2021 2:30:00 PM 13.22 55.796 0.714 8.31 1.8 14.05
3/31/2021 2:45:00 PM 13.27 55.886 0.715 8.32 1.87 14.08
3/31/2021 3:00:00 PM 13.3 55.94 0.716 8.34 1.92 14.03
3/31/2021 3:15:00 PM 13.32 55.976 0.716 8.35 1.67 13.9
3/31/2021 3:30:00 PM 13.34 56.012 0.716 8.35 1.81 13.77
3/31/2021 3:45:00 PM 13.36 56.048 0.715 8.35 2.06 13.62
3/31/2021 4:00:00 PM 13.37 56.066 0.715 8.36 2.15 13.5
3/31/2021 4:15:00 PM 13.38 56.084 0.715 8.36 2.26 13.31
3/31/2021 4:30:00 PM 13.4 56.12 0.715 8.36 2.29 13.18
3/31/2021 4:45:00 PM 13.41 56.138 0.716 8.36 2.03 13.09
3/31/2021 5:00:00 PM 13.42 56.156 0.713 8.36 2.26 12.97
3/31/2021 5:15:00 PM 13.43 56.174 0.713 8.36 1.93 12.77
3/31/2021 5:30:00 PM 13.44 56.192 0.713 8.35 3.23 12.5
3/31/2021 5:45:00 PM 13.44 56.192 0.712 8.35 1.91 12.26
3/31/2021 6:00:00 PM 13.44 56.192 0.715 8.34 2.66 12.06
3/31/2021 6:15:00 PM 13.44 56.192 0.714 8.33 2.49 11.81
3/31/2021 6:30:00 PM 13.43 56.174 0.714 8.32 2.57 11.61
3/31/2021 6:45:00 PM 13.43 56.174 0.714 8.3 2.19 11.43
3/31/2021 7:00:00 PM 13.42 56.156 0.714 8.29 2.25 11.21
3/31/2021 7:15:00 PM 13.4 56.12 0.716 8.27 2.21 10.98
3/31/2021 7:30:00 PM 13.39 56.102 0.716 8.24 2.23 10.75
3/31/2021 7:45:00 PM 13.37 56.066 0.716 8.22 2.81 10.54
3/31/2021 8:00:00 PM 13.35 56.03 0.716 8.2 2.2 10.35
3/31/2021 8:15:00 PM 13.33 55.994 0.718 8.17 2.64 10.18
3/31/2021 8:30:00 PM 13.3 55.94 0.716 8.15 2.36 9.98
3/31/2021 8:45:00 PM 13.28 55.904 0.723 8.12 2.79 9.83
3/31/2021 9:00:00 PM 13.26 55.868 0.719 8.1 2.68 9.66
3/31/2021 9:15:00 PM 13.25 55.85 0.721 8.07 2.99 9.47
3/31/2021 9:30:00 PM 13.23 55.814 0.721 8.05 2.38 9.37
3/31/2021 9:45:00 PM 13.21 55.778 0.722 8.02 2.64 9.22
3/31/2021 10:00:00 PM 13.19 55.742 0.719 8 2.44 9.13
3/31/2021 10:15:00 PM 13.17 55.706 0.719 7.98 2.56 9.05
3/31/2021 10:30:00 PM 13.15 55.67 0.72 7.96 2.23 8.93
3/31/2021 10:45:00 PM 13.13 55.634 0.721 7.94 2.53 8.84
3/31/2021 11:00:00 PM 13.11 55.598 0.72 7.92 2.11 8.77
3/31/2021 11:15:00 PM 13.09 55.562 0.721 7.91 2.16 8.69
3/31/2021 11:30:00 PM 13.07 55.526 0.719 7.89 2.67 8.65
3/31/2021 11:45:00 PM 13.06 55.508 0.717 7.88 2.59 8.61
4/1/2021 12:00:00 AM 13.04 55.472 0.72 7.87 2.62 8.56
4/1/2021 12:15:00 AM 13.02 55.436 0.722 7.86 3.94 8.52
4/1/2021 12:30:00 AM 13 55.4 0.72 7.85 3.28 8.47
4/1/2021 12:45:00 AM 12.97 55.346 0.719 7.84 3.65 8.44
4/1/2021 1:00:00 AM 12.94 55.292 0.719 7.84 2.64 8.42
4/1/2021 1:15:00 AM 12.89 55.202 0.72 7.83 2.28 8.44
4/1/2021 1:30:00 AM 12.83 55.094 0.717 7.82 2.79 8.41
4/1/2021 1:45:00 AM 12.79 55.022 0.72 7.82 3 8.43
4/1/2021 2:00:00 AM 12.74 54.932 0.721 7.82 2.39 8.39
4/1/2021 2:15:00 AM 12.69 54.842 0.72 7.81 3.41 8.39
4/1/2021 2:30:00 AM 12.64 54.752 0.721 7.81 3.81 8.4
4/1/2021 2:45:00 AM 12.58 54.644 0.722 7.81 3.64 8.39
4/1/2021 3:00:00 AM 12.53 54.554 0.722 7.81 2.6 8.42
4/1/2021 3:15:00 AM 12.48 54.464 0.722 7.8 2.76 8.42
4/1/2021 3:30:00 AM 12.42 54.356 0.721 7.8 3.22 8.42
4/1/2021 3:45:00 AM 12.36 54.248 0.722 7.8 4.15 8.45
4/1/2021 4:00:00 AM 12.32 54.176 0.722 7.8 3.53 8.45
4/1/2021 4:15:00 AM 12.26 54.068 0.722 7.8 2.8 8.46
4/1/2021 4:30:00 AM 12.2 53.96 0.723 7.8 3.23 8.49
4/1/2021 4:45:00 AM 12.15 53.87 0.724 7.8 3.14 8.49
4/1/2021 5:00:00 AM 12.09 53.762 0.723 7.8 4.37 8.5
4/1/2021 5:15:00 AM 12.04 53.672 0.722 7.8 2.76 8.53
4/1/2021 5:30:00 AM 11.98 53.564 0.723 7.8 3.36 8.54
4/1/2021 5:45:00 AM 11.92 53.456 0.723 7.79 3 8.58
4/1/2021 6:00:00 AM 11.88 53.384 0.723 7.8 4.75 8.58
4/1/2021 6:15:00 AM 11.82 53.276 0.722 7.8 4.93 8.59
4/1/2021 6:30:00 AM 11.78 53.204 0.721 7.8 3.33 8.61
4/1/2021 6:45:00 AM 11.72 53.096 0.723 7.8 3.28 8.62
4/1/2021 7:00:00 AM 11.68 53.024 0.721 7.8 3.52 8.63
4/1/2021 7:15:00 AM 11.62 52.916 0.722 7.8 2.9 8.64
4/1/2021 7:30:00 AM 11.57 52.826 0.725 7.8 4.18 8.7
4/1/2021 7:45:00 AM 11.52 52.736 0.726 7.8 2.78 8.72
4/1/2021 8:00:00 AM 11.48 52.664 0.724 7.8 3.33 8.78
4/1/2021 8:15:00 AM 11.44 52.592 0.723 7.81 2.78 8.88
4/1/2021 8:30:00 AM 11.41 52.538 0.725 7.82 3 9.06
4/1/2021 8:45:00 AM 11.26 52.268 0.751 7.32 2.06 9.39
4/1/2021 9:00:00 AM 11.24 52.232 0.751 7.8 -16.38 9.32
4/1/2021 9:15:00 AM 11.23 52.214 0.751 8.05 1.77 9.49
4/1/2021 9:30:00 AM 11.2 52.16 0.751 8.19 1.49 9.65
4/1/2021 9:45:00 AM 11.15 52.07 0.751 8.25 2.23 9.75
4/1/2021 10:00:00 AM 11.14 52.052 0.75 8.3 1.49 9.93
4/1/2021 10:15:00 AM 11.17 52.106 0.75 8.35 8.81 10.34
4/1/2021 10:30:00 AM 11.2 52.16 0.749 8.38 1.58 10.83
4/1/2021 10:45:00 AM 11.22 52.196 0.749 8.42 1.35 11.15
4/1/2021 11:00:00 AM 11.25 52.25 0.749 8.44 3.58 11.38
4/1/2021 11:15:00 AM 11.3 52.34 0.749 8.47 1.22 11.72
4/1/2021 11:30:00 AM 11.37 52.466 0.748 8.5 28.61 12.11
4/1/2021 11:45:00 AM 11.54 52.772 0.748 8.52 -33.3 12.48
4/1/2021 12:00:00 PM 11.59 52.862 0.748 8.54 2.24 12.81
4/1/2021 12:15:00 PM 11.59 52.862 0.749 8.57 1.35 13
4/1/2021 12:30:00 PM 11.69 53.042 0.749 8.59 1.19 13.28
4/1/2021 12:45:00 PM 11.74 53.132 0.749 8.62 1.52 13.63
4/1/2021 1:00:00 PM 11.81 53.258 0.749 8.65 1.02 13.85
4/1/2021 1:15:00 PM 11.95 53.51 0.75 8.68 1.17 14.18
4/1/2021 1:30:00 PM 11.97 53.546 0.749 8.7 1.1 14.4
4/1/2021 1:45:00 PM 11.99 53.582 0.75 8.72 1.1 14.5
4/1/2021 2:00:00 PM 12 53.6 0.751 8.74 1.05 14.57
4/1/2021 2:15:00 PM 12.03 53.654 0.749 8.76 1.37 14.72
4/1/2021 2:30:00 PM 12.16 53.888 0.747 8.79 0.87 14.95
4/1/2021 2:45:00 PM 12.12 53.816 0.744 8.81 1.01 15.1
4/1/2021 3:00:00 PM 12.18 53.924 0.743 8.83 0.74 15.11
4/1/2021 3:15:00 PM 12.16 53.888 0.742 8.85 3.71 15.16
4/1/2021 3:30:00 PM 12.16 53.888 0.739 8.87 1.09 15.17
4/1/2021 3:45:00 PM 12.18 53.924 0.738 8.89 0.68 15.19
4/1/2021 4:00:00 PM 12.19 53.942 0.736 8.91 0.94 15.31
4/1/2021 4:15:00 PM 12.17 53.906 0.735 8.92 1.72 15.24
4/1/2021 4:30:00 PM 12.16 53.888 0.734 8.93 0.52 15.11
4/1/2021 4:45:00 PM 12.14 53.852 0.734 8.93 0.58 14.98
4/1/2021 5:00:00 PM 12.11 53.798 0.734 8.94 0.85 14.77
4/1/2021 5:15:00 PM 12.06 53.708 0.732 8.93 0.57 14.49
4/1/2021 5:30:00 PM 12.04 53.672 0.731 8.94 0.77 14.3
4/1/2021 5:45:00 PM 12.01 53.618 0.729 8.94 0.99 14.29
4/1/2021 6:00:00 PM 11.94 53.492 0.729 8.94 1.08 14.09
4/1/2021 6:15:00 PM 11.9 53.42 0.728 8.94 1.06 13.8
4/1/2021 6:30:00 PM 11.83 53.294 0.728 8.93 1.25 13.61
4/1/2021 6:45:00 PM 11.77 53.186 0.728 8.91 1.91 13.31
4/1/2021 7:00:00 PM 11.7 53.06 0.727 8.9 1.35 13.02
4/1/2021 7:15:00 PM 11.61 52.898 0.728 8.88 1.9 12.77
4/1/2021 7:30:00 PM 11.53 52.754 0.728 8.86 1.14 12.47
4/1/2021 7:45:00 PM 11.42 52.556 0.728 8.84 1.09 12.24
4/1/2021 8:00:00 PM 11.28 52.304 0.729 8.82 1.47 11.99
4/1/2021 8:15:00 PM 11.17 52.106 0.729 8.79 1.03 11.74
4/1/2021 8:30:00 PM 11.07 51.926 0.73 8.77 1.97 11.52
4/1/2021 8:45:00 PM 10.95 51.71 0.731 8.74 1.11 11.31
4/1/2021 9:00:00 PM 10.83 51.494 0.731 8.71 1.46 11.12
4/1/2021 9:15:00 PM 10.71 51.278 0.732 8.69 1.83 10.93
4/1/2021 9:30:00 PM 10.6 51.08 0.733 8.66 1.68 10.75
4/1/2021 9:45:00 PM 10.49 50.882 0.734 8.63 2.41 10.6
4/1/2021 10:00:00 PM 10.37 50.666 0.734 8.59 2.11 10.47
4/1/2021 10:15:00 PM 10.26 50.468 0.735 8.57 1.45 10.31
4/1/2021 10:30:00 PM 10.14 50.252 0.735 8.54 2.81 10.21
4/1/2021 10:45:00 PM 10.04 50.072 0.735 8.51 2.7 10.11
4/1/2021 11:00:00 PM 9.94 49.892 0.736 8.49 2.31 10.01
4/1/2021 11:15:00 PM 9.83 49.694 0.735 8.46 2.32 9.92
4/1/2021 11:30:00 PM 9.74 49.532 0.736 8.44 2.21 9.86
4/1/2021 11:45:00 PM 9.65 49.37 0.735 8.42 2.63 9.78
4/2/2021 12:00:00 AM 9.54 49.172 0.735 8.4 2.18 9.73
4/2/2021 12:15:00 AM 9.46 49.028 0.734 8.38 2.19 9.68
4/2/2021 12:30:00 AM 9.38 48.884 0.734 8.36 1.86 9.64
4/2/2021 12:45:00 AM 9.29 48.722 0.733 8.35 2.65 9.61
4/2/2021 1:00:00 AM 9.21 48.578 0.732 8.33 2.83 9.58
4/2/2021 1:15:00 AM 9.14 48.452 0.732 8.32 3.15 9.57
4/2/2021 1:30:00 AM 9.06 48.308 0.731 8.31 2.36 9.57
4/2/2021 1:45:00 AM 8.98 48.164 0.73 8.3 2.19 9.56
4/2/2021 2:00:00 AM 8.92 48.056 0.73 8.28 2.7 9.54
4/2/2021 2:15:00 AM 8.87 47.966 0.729 8.28 2.68 9.56
4/2/2021 2:30:00 AM 8.81 47.858 0.73 8.27 2.25 9.56
4/2/2021 2:45:00 AM 8.76 47.768 0.729 8.26 3.05 9.57
4/2/2021 3:00:00 AM 8.7 47.66 0.73 8.26 2.13 9.57
4/2/2021 3:15:00 AM 8.62 47.516 0.73 8.25 2.88 9.57
4/2/2021 3:30:00 AM 8.56 47.408 0.73 8.25 1.94 9.6
4/2/2021 3:45:00 AM 8.49 47.282 0.731 8.25 2.67 9.63
4/2/2021 4:00:00 AM 8.43 47.174 0.732 8.24 3.34 9.64
4/2/2021 4:15:00 AM 8.36 47.048 0.733 8.23 1.74 9.65
4/2/2021 4:30:00 AM 8.29 46.922 0.734 8.24 1.85 9.67
4/2/2021 4:45:00 AM 8.25 46.85 0.736 8.24 2.11 9.69
4/2/2021 5:00:00 AM 8.19 46.742 0.737 8.24 3.08 9.71
4/2/2021 5:15:00 AM 8.12 46.616 0.738 8.24 2.01 9.73
4/2/2021 5:30:00 AM 8.06 46.508 0.739 8.24 1.85 9.76
4/2/2021 5:45:00 AM 7.99 46.382 0.741 8.23 1.93 9.77
4/2/2021 6:00:00 AM 7.93 46.274 0.742 8.24 1.95 9.8
4/2/2021 6:15:00 AM 7.89 46.202 0.744 8.24 1.72 9.82
4/2/2021 6:30:00 AM 7.83 46.094 0.745 8.23 2.16 9.83
4/2/2021 6:45:00 AM 7.77 45.986 0.746 8.23 2.5 9.85
4/2/2021 7:00:00 AM 7.72 45.896 0.747 8.24 1.44 9.88
4/2/2021 7:15:00 AM 7.67 45.806 0.749 8.24 2.18 9.93
4/2/2021 7:30:00 AM 7.63 45.734 0.75 8.24 1.43 10
4/2/2021 7:45:00 AM 7.58 45.644 0.75 8.24 1.44 10.08
4/2/2021 8:00:00 AM 7.54 45.572 0.751 8.25 1.76 10.19
4/2/2021 8:15:00 AM 7.52 45.536 0.752 8.25 1.17 10.29
4/2/2021 8:30:00 AM 7.5 45.5 0.753 8.26 1.36 10.48
4/2/2021 8:45:00 AM 7.45 45.41 0.754 8.27 1.09 10.66
4/2/2021 9:00:00 AM 7.43 45.374 0.755 8.28 1.38 10.82
4/2/2021 9:15:00 AM 7.42 45.356 0.755 8.29 1.17 11.04
4/2/2021 9:30:00 AM 7.44 45.392 0.755 8.3 0.96 11.32
4/2/2021 9:45:00 AM 7.46 45.428 0.756 8.33 0.87 11.64
4/2/2021 10:00:00 AM 7.49 45.482 0.756 8.35 1.03 11.93
4/2/2021 10:15:00 AM 7.56 45.608 0.756 8.37 1.22 12.27
4/2/2021 10:30:00 AM 7.65 45.77 0.756 8.39 0.82 12.61
4/2/2021 10:45:00 AM 7.81 46.058 0.756 8.42 0.88 12.94
4/2/2021 11:00:00 AM 8.01 46.418 0.756 8.44 0.87 13.28
4/2/2021 11:15:00 AM 8.14 46.652 0.756 8.47 0.8 13.66
4/2/2021 11:30:00 AM 8.27 46.886 0.755 8.5 1.08 13.97
4/2/2021 11:45:00 AM 8.46 47.228 0.755 8.53 0.87 14.26
4/2/2021 12:00:00 PM 8.64 47.552 0.754 8.55 1.07 14.59
4/2/2021 12:15:00 PM 8.8 47.84 0.754 8.58 0.84 14.86
4/2/2021 12:30:00 PM 8.97 48.146 0.753 8.6 0.53 15.12
4/2/2021 12:45:00 PM 9.13 48.434 0.753 8.63 0.87 15.32
4/2/2021 1:00:00 PM 9.28 48.704 0.752 8.65 0.75 15.49
4/2/2021 1:15:00 PM 9.45 49.01 0.751 8.67 0.58 15.69
4/2/2021 1:30:00 PM 9.6 49.28 0.75 8.7 0.75 15.88
4/2/2021 1:45:00 PM 9.74 49.532 0.75 8.72 0.67 16.01
4/2/2021 2:00:00 PM 9.88 49.784 0.748 8.74 0.89 16.1
4/2/2021 2:15:00 PM 10.03 50.054 0.747 8.77 0.9 16.16
4/2/2021 2:30:00 PM 10.11 50.198 0.745 8.78 0.88 16.3
4/2/2021 2:45:00 PM 10.25 50.45 0.744 8.81 0.64 16.34
4/2/2021 3:00:00 PM 10.35 50.63 0.743 8.83 0.88 16.45
4/2/2021 3:15:00 PM 10.41 50.738 0.741 8.85 0.46 16.52
4/2/2021 3:30:00 PM 10.46 50.828 0.74 8.87 0.84 16.55
4/2/2021 3:45:00 PM 10.49 50.882 0.74 8.88 1.19 16.53
4/2/2021 4:00:00 PM 10.53 50.954 0.738 8.9 0.57 16.48
4/2/2021 4:15:00 PM 10.54 50.972 0.738 8.91 1.37 16.46
4/2/2021 4:30:00 PM 10.53 50.954 0.737 8.93 0.68 16.36
4/2/2021 4:45:00 PM 10.52 50.936 0.737 8.94 0.27 16.29
4/2/2021 5:00:00 PM 10.48 50.864 0.735 8.95 0.49 16.13
4/2/2021 5:15:00 PM 10.43 50.774 0.735 8.96 0.68 15.96
4/2/2021 5:30:00 PM 10.37 50.666 0.735 8.96 0.83 15.76
4/2/2021 5:45:00 PM 10.31 50.558 0.735 8.97 0.81 15.61
4/2/2021 6:00:00 PM 10.29 50.522 0.735 8.97 0.59 15.39
4/2/2021 6:15:00 PM 10.24 50.432 0.734 8.97 0.81 15.15
4/2/2021 6:30:00 PM 10.21 50.378 0.734 8.97 0.62 14.95
4/2/2021 6:45:00 PM 10.17 50.306 0.734 8.97 0.97 14.74
4/2/2021 7:00:00 PM 10.13 50.234 0.734 8.96 1.33 14.56
4/2/2021 7:15:00 PM 10.08 50.144 0.734 8.96 0.78 14.33
4/2/2021 7:30:00 PM 10 50 0.734 8.95 0.8 14.11
4/2/2021 7:45:00 PM 9.92 49.856 0.735 8.94 1.68 13.83
4/2/2021 8:00:00 PM 9.83 49.694 0.736 8.93 2.3 13.59
4/2/2021 8:15:00 PM 9.74 49.532 0.736 8.91 1.03 13.33
4/2/2021 8:30:00 PM 9.64 49.352 0.737 8.9 0.63 13.08
4/2/2021 8:45:00 PM 9.53 49.154 0.738 8.87 0.45 12.86
4/2/2021 9:00:00 PM 9.42 48.956 0.739 8.86 1.8 12.6
4/2/2021 9:15:00 PM 9.31 48.758 0.74 8.83 1.5 12.36
4/2/2021 9:30:00 PM 9.19 48.542 0.741 8.81 0.67 12.14
4/2/2021 9:45:00 PM 9.07 48.326 0.742 8.78 1.1 11.91
4/2/2021 10:00:00 PM 8.96 48.128 0.743 8.76 0.76 11.72
4/2/2021 10:15:00 PM 8.84 47.912 0.743 8.73 1.33 11.56
4/2/2021 10:30:00 PM 8.73 47.714 0.744 8.71 0.74 11.43
4/2/2021 10:45:00 PM 8.62 47.516 0.745 8.68 1.47 11.3
4/2/2021 11:00:00 PM 8.51 47.318 0.745 8.65 0.67 11.17
4/2/2021 11:15:00 PM 8.4 47.12 0.746 8.63 1.48 11.05
4/2/2021 11:30:00 PM 8.29 46.922 0.746 8.6 0.72 10.94
4/2/2021 11:45:00 PM 8.18 46.724 0.747 8.57 0.74 10.85
4/3/2021 12:00:00 AM 8.08 46.544 0.747 8.54 1.45 10.75
4/3/2021 12:15:00 AM 7.97 46.346 0.747 8.52 0.71 10.68
4/3/2021 12:30:00 AM 7.88 46.184 0.747 8.49 0.47 10.6
4/3/2021 12:45:00 AM 7.78 46.004 0.747 8.47 0.84 10.52
4/3/2021 1:00:00 AM 7.69 45.842 0.747 8.44 1.2 10.47
4/3/2021 1:15:00 AM 7.6 45.68 0.747 8.42 1.11 10.43
4/3/2021 1:30:00 AM 7.51 45.518 0.747 8.4 1.56 10.38
4/3/2021 1:45:00 AM 7.43 45.374 0.746 8.38 0.88 10.35
4/3/2021 2:00:00 AM 7.35 45.23 0.746 8.36 1.47 10.32
4/3/2021 2:15:00 AM 7.27 45.086 0.746 8.35 1.66 10.3
4/3/2021 2:30:00 AM 7.2 44.96 0.746 8.33 1.59 10.3
4/3/2021 2:45:00 AM 7.13 44.834 0.745 8.31 0.87 10.27
4/3/2021 3:00:00 AM 7.06 44.708 0.745 8.3 1.65 10.26
4/3/2021 3:15:00 AM 6.99 44.582 0.745 8.29 1.28 10.28
4/3/2021 3:30:00 AM 6.92 44.456 0.745 8.28 1.26 10.29
4/3/2021 3:45:00 AM 6.85 44.33 0.744 8.27 1.15 10.3
4/3/2021 4:00:00 AM 6.8 44.24 0.744 8.27 0.76 10.31
4/3/2021 4:15:00 AM 6.73 44.114 0.744 8.26 1.3 10.32
4/3/2021 4:30:00 AM 6.67 44.006 0.744 8.26 1.8 10.34
4/3/2021 4:45:00 AM 6.62 43.916 0.744 8.26 1.39 10.36
4/3/2021 5:00:00 AM 6.56 43.808 0.744 8.25 1.17 10.37
4/3/2021 5:15:00 AM 6.51 43.718 0.745 8.25 1.67 10.39
4/3/2021 5:30:00 AM 6.46 43.628 0.745 8.24 0.81 10.41
4/3/2021 5:45:00 AM 6.41 43.538 0.745 8.24 1.5 10.43
4/3/2021 6:00:00 AM 6.36 43.448 0.746 8.24 0.88 10.44
4/3/2021 6:15:00 AM 6.31 43.358 0.746 8.24 0.86 10.46
4/3/2021 6:30:00 AM 6.27 43.286 0.747 8.24 1.19 10.49
4/3/2021 6:45:00 AM 6.23 43.214 0.747 8.24 1.89 10.51
4/3/2021 7:00:00 AM 6.19 43.142 0.748 8.24 1.43 10.53
4/3/2021 7:15:00 AM 6.15 43.07 0.748 8.24 0.95 10.58
4/3/2021 7:30:00 AM 6.12 43.016 0.749 8.24 0.89 10.66
4/3/2021 7:45:00 AM 6.1 42.98 0.749 8.24 0.99 10.75
4/3/2021 8:00:00 AM 6.07 42.926 0.75 8.25 1.05 10.83
4/3/2021 8:15:00 AM 6.06 42.908 0.751 8.25 0.67 10.96
4/3/2021 8:30:00 AM 6.07 42.926 0.751 8.26 0.62 11.09
4/3/2021 8:45:00 AM 6.08 42.944 0.752 8.27 0.69 11.23
4/3/2021 9:00:00 AM 6.1 42.98 0.752 8.28 0.92 11.43
4/3/2021 9:15:00 AM 6.12 43.016 0.752 8.29 0.96 11.65
4/3/2021 9:30:00 AM 6.16 43.088 0.753 8.3 0.49 11.85
4/3/2021 9:45:00 AM 6.22 43.196 0.753 8.32 0.59 12.09
4/3/2021 10:00:00 AM 6.33 43.394 0.753 8.34 0.5 12.41
4/3/2021 10:15:00 AM 6.5 43.7 0.753 8.37 0.5 12.8
4/3/2021 10:30:00 AM 6.68 44.024 0.752 8.39 0.42 13.18
4/3/2021 10:45:00 AM 6.89 44.402 0.752 8.42 0.44 13.56
4/3/2021 11:00:00 AM 7.11 44.798 0.752 8.44 0.67 13.89
4/3/2021 11:15:00 AM 7.33 45.194 0.752 8.47 0.46 14.19
4/3/2021 11:30:00 AM 7.56 45.608 0.752 8.5 0.22 14.52
4/3/2021 11:45:00 AM 7.8 46.04 0.752 8.53 0.32 14.85
4/3/2021 12:00:00 PM 8.02 46.436 0.752 8.55 0.46 15.11
4/3/2021 12:15:00 PM 8.23 46.814 0.751 8.58 1.89 15.37
4/3/2021 12:30:00 PM 8.47 47.246 0.751 8.61 0.73 15.58
4/3/2021 12:45:00 PM 8.68 47.624 0.751 8.63 0.31 15.78
4/3/2021 1:00:00 PM 8.91 48.038 0.75 8.66 0.47 15.95
4/3/2021 1:15:00 PM 9.12 48.416 0.75 8.68 0.36 16.08
4/3/2021 1:30:00 PM 9.32 48.776 0.75 8.7 0.44 16.23
4/3/2021 1:45:00 PM 9.53 49.154 0.75 8.73 0.94 16.35
4/3/2021 2:00:00 PM 9.72 49.496 0.749 8.75 0.22 16.47
4/3/2021 2:15:00 PM 9.86 49.748 0.748 8.77 0.83 16.44
4/3/2021 2:30:00 PM 9.95 49.91 0.748 8.79 0.17 16.57
4/3/2021 2:45:00 PM 10.14 50.252 0.747 8.82 0.17 16.64
4/3/2021 3:00:00 PM 10.3 50.54 0.748 8.84 0.37 16.72
4/3/2021 3:15:00 PM 10.41 50.738 0.747 8.86 0.42 16.75
4/3/2021 3:30:00 PM 10.51 50.918 0.747 8.88 0.13 16.76
4/3/2021 3:45:00 PM 10.6 51.08 0.746 8.89 0.29 16.84
4/3/2021 4:00:00 PM 10.6 51.08 0.746 8.91 0.72 16.8
4/3/2021 4:15:00 PM 10.67 51.206 0.745 8.92 0.87 16.71
4/3/2021 4:30:00 PM 10.68 51.224 0.745 8.94 0.99 16.67
4/3/2021 4:45:00 PM 10.72 51.296 0.744 8.96 0.32 16.57
4/3/2021 5:00:00 PM 10.73 51.314 0.743 8.97 0.27 16.55
4/3/2021 5:15:00 PM 10.8 51.44 0.743 8.98 0.22 16.42
4/3/2021 5:30:00 PM 10.81 51.458 0.742 8.99 0.24 16.32
4/3/2021 5:45:00 PM 10.8 51.44 0.742 8.99 0.52 16.13
4/3/2021 6:00:00 PM 10.78 51.404 0.742 9 0.94 15.88
4/3/2021 6:15:00 PM 10.75 51.35 0.742 9 1.11 15.63
4/3/2021 6:30:00 PM 10.74 51.332 0.742 9 0.23 15.35
4/3/2021 6:45:00 PM 10.74 51.332 0.742 9 0.46 15.19
4/3/2021 7:00:00 PM 10.72 51.296 0.743 9 0.36 14.98
4/3/2021 7:15:00 PM 10.67 51.206 0.743 8.99 0.5 14.71
4/3/2021 7:30:00 PM 10.61 51.098 0.744 8.98 0.24 14.41
4/3/2021 7:45:00 PM 10.54 50.972 0.745 8.97 0.49 14.08
4/3/2021 8:00:00 PM 10.47 50.846 0.746 8.96 0.5 13.83
4/3/2021 8:15:00 PM 10.4 50.72 0.747 8.95 1.05 13.57
4/3/2021 8:30:00 PM 10.31 50.558 0.747 8.93 0.5 13.31
4/3/2021 8:45:00 PM 10.23 50.414 0.748 8.92 0.69 13.04
4/3/2021 9:00:00 PM 10.15 50.27 0.75 8.9 1.16 12.77
4/3/2021 9:15:00 PM 10.06 50.108 0.751 8.88 1.67 12.54
4/3/2021 9:30:00 PM 9.98 49.964 0.752 8.85 0.56 12.28
4/3/2021 9:45:00 PM 9.9 49.82 0.754 8.83 0.42 12.04
4/3/2021 10:00:00 PM 9.81 49.658 0.755 8.81 0.39 11.81
4/3/2021 10:15:00 PM 9.71 49.478 0.756 8.78 0.43 11.6
4/3/2021 10:30:00 PM 9.61 49.298 0.757 8.75 0.54 11.43
4/3/2021 10:45:00 PM 9.53 49.154 0.758 8.73 0.49 11.25
4/3/2021 11:00:00 PM 9.45 49.01 0.759 8.7 0.61 11.09
4/3/2021 11:15:00 PM 9.38 48.884 0.76 8.67 0.38 10.95
4/3/2021 11:30:00 PM 9.31 48.758 0.76 8.65 0.65 10.81
4/3/2021 11:45:00 PM 9.23 48.614 0.761 8.62 0.74 10.68
4/4/2021 12:00:00 AM 9.16 48.488 0.761 8.59 0.42 10.55
4/4/2021 12:15:00 AM 9.1 48.38 0.762 8.56 1.37 10.45
4/4/2021 12:30:00 AM 9.04 48.272 0.762 8.53 0.9 10.34
4/4/2021 12:45:00 AM 8.99 48.182 0.762 8.5 0.36 10.23
4/4/2021 1:00:00 AM 8.94 48.092 0.763 8.47 1.62 10.15
4/4/2021 1:15:00 AM 8.89 48.002 0.763 8.45 0.74 10.06
4/4/2021 1:30:00 AM 8.85 47.93 0.762 8.42 0.18 9.98
4/4/2021 1:45:00 AM 8.81 47.858 0.762 8.39 1.77 9.91
4/4/2021 2:00:00 AM 8.77 47.786 0.761 8.37 0.61 9.85
4/4/2021 2:15:00 AM 8.74 47.732 0.761 8.35 0.21 9.8
4/4/2021 2:30:00 AM 8.7 47.66 0.76 8.33 0.79 9.75
4/4/2021 2:45:00 AM 8.68 47.624 0.76 8.31 0.77 9.71
4/4/2021 3:00:00 AM 8.65 47.57 0.759 8.3 0.8 9.68
4/4/2021 3:15:00 AM 8.62 47.516 0.758 8.28 0.21 9.64
4/4/2021 3:30:00 AM 8.6 47.48 0.757 8.27 1.23 9.63
4/4/2021 3:45:00 AM 8.58 47.444 0.757 8.25 0.93 9.61
4/4/2021 4:00:00 AM 8.57 47.426 0.756 8.24 0.17 9.58
4/4/2021 4:15:00 AM 8.56 47.408 0.755 8.23 0.31 9.58
4/4/2021 4:30:00 AM 8.54 47.372 0.755 8.22 0.44 9.56
4/4/2021 4:45:00 AM 8.52 47.336 0.754 8.22 0.81 9.56
4/4/2021 5:00:00 AM 8.51 47.318 0.753 8.21 0.88 9.55
4/4/2021 5:15:00 AM 8.5 47.3 0.753 8.21 0.72 9.55
4/4/2021 5:30:00 AM 8.49 47.282 0.752 8.2 1.14 9.53
4/4/2021 5:45:00 AM 8.49 47.282 0.752 8.2 1.07 9.54
4/4/2021 6:00:00 AM 8.49 47.282 0.752 8.2 0.61 9.53
4/4/2021 6:15:00 AM 8.49 47.282 0.751 8.19 0.7 9.52
4/4/2021 6:30:00 AM 8.49 47.282 0.751 8.19 0.55 9.52
4/4/2021 6:45:00 AM 8.48 47.264 0.751 8.19 0.86 9.52
4/4/2021 7:00:00 AM 8.48 47.264 0.751 8.19 0.86 9.52
4/4/2021 7:15:00 AM 8.48 47.264 0.751 8.19 0.12 9.55
4/4/2021 7:30:00 AM 8.5 47.3 0.75 8.19 0.52 9.58
4/4/2021 7:45:00 AM 8.51 47.318 0.75 8.19 0.75 9.66
4/4/2021 8:00:00 AM 8.53 47.354 0.75 8.19 0.12 9.76
4/4/2021 8:15:00 AM 8.56 47.408 0.75 8.2 0.44 9.9
4/4/2021 8:30:00 AM 8.59 47.462 0.75 8.21 0.3 10.01
4/4/2021 8:45:00 AM 8.63 47.534 0.75 8.22 0.99 10.14
4/4/2021 9:00:00 AM 8.67 47.606 0.75 8.23 0.88 10.33
4/4/2021 9:15:00 AM 8.72 47.696 0.75 8.24 0.18 10.61
4/4/2021 9:30:00 AM 8.75 47.75 0.75 8.26 0.27 10.86
4/4/2021 9:45:00 AM 8.81 47.858 0.75 8.28 0.1 11.11
4/4/2021 10:00:00 AM 8.93 48.074 0.75 8.3 0.12 11.49
4/4/2021 10:15:00 AM 9.07 48.326 0.749 8.33 0.06 11.91
4/4/2021 10:30:00 AM 9.21 48.578 0.749 8.36 0.29 12.28
4/4/2021 10:45:00 AM 9.41 48.938 0.749 8.39 0.27 12.67
4/4/2021 11:00:00 AM 9.64 49.352 0.748 8.42 0.07 13.1
4/4/2021 11:15:00 AM 9.86 49.748 0.748 8.45 0.22 13.49
4/4/2021 11:30:00 AM 10.07 50.126 0.748 8.49 0.31 13.87
4/4/2021 11:45:00 AM 10.3 50.54 0.748 8.52 0.36 14.27
4/4/2021 12:00:00 PM 10.53 50.954 0.747 8.55 0.52 14.62
4/4/2021 12:15:00 PM 10.75 51.35 0.747 8.58 0.22 14.94
4/4/2021 12:30:00 PM 11 51.8 0.747 8.61 2.91 15.16
4/4/2021 12:45:00 PM 11.22 52.196 0.747 8.64 1.13 15.44
4/4/2021 1:00:00 PM 11.45 52.61 0.746 8.67 0.05 15.6
4/4/2021 1:15:00 PM 11.66 52.988 0.745 8.7 0.17 15.83
4/4/2021 1:30:00 PM 11.88 53.384 0.745 8.73 0.75 16.05
4/4/2021 1:45:00 PM 12.1 53.78 0.744 8.75 0.09 16.19
4/4/2021 2:00:00 PM 12.3 54.14 0.743 8.77 0.21 16.29
4/4/2021 2:15:00 PM 12.47 54.446 0.742 8.79 0.53 16.45
4/4/2021 2:30:00 PM 12.64 54.752 0.74 8.82 0.78 16.44
4/4/2021 2:45:00 PM 12.82 55.076 0.739 8.84 0.14 16.51
4/4/2021 3:00:00 PM 12.97 55.346 0.738 8.86 0.74 16.54
4/4/2021 3:15:00 PM 13.11 55.598 0.736 8.88 0.3 16.69
4/4/2021 3:30:00 PM 13.27 55.886 0.735 8.91 1.35 16.8
4/4/2021 3:45:00 PM 13.39 56.102 0.733 8.92 0.28 16.86
4/4/2021 4:00:00 PM 13.51 56.318 0.732 8.94 0.22 16.86
4/4/2021 4:15:00 PM 13.57 56.426 0.73 8.96 0.6 16.84
4/4/2021 4:30:00 PM 13.64 56.552 0.729 8.98 0.45 16.74
4/4/2021 4:45:00 PM 13.66 56.588 0.727 9 0.68 16.55
4/4/2021 5:00:00 PM 13.7 56.66 0.726 9.01 0.38 16.33
4/4/2021 5:15:00 PM 13.71 56.678 0.725 9.02 0.97 16.19
4/4/2021 5:30:00 PM 13.72 56.696 0.724 9.02 0.21 15.91
4/4/2021 5:45:00 PM 13.72 56.696 0.723 9.03 0.83 15.69
4/4/2021 6:00:00 PM 13.71 56.678 0.722 9.03 1.83 15.35
4/4/2021 6:15:00 PM 13.71 56.678 0.721 9.03 1.15 15.12
4/4/2021 6:30:00 PM 13.71 56.678 0.721 9.03 0.06 14.88
4/4/2021 6:45:00 PM 13.7 56.66 0.72 9.03 0.51 14.58
4/4/2021 7:00:00 PM 13.68 56.624 0.719 9.03 0.38 14.37
4/4/2021 7:15:00 PM 13.65 56.57 0.719 9.02 0.49 14.05
4/4/2021 7:30:00 PM 13.6 56.48 0.719 9.01 0.73 13.78
4/4/2021 7:45:00 PM 13.54 56.372 0.719 9 0.48 13.42
4/4/2021 8:00:00 PM 13.47 56.246 0.72 8.99 0.7 13.09
4/4/2021 8:15:00 PM 13.39 56.102 0.72 8.97 0.5 12.75
4/4/2021 8:30:00 PM 13.3 55.94 0.72 8.95 1.53 12.43
4/4/2021 8:45:00 PM 13.21 55.778 0.721 8.93 1.32 12.12
4/4/2021 9:00:00 PM 13.12 55.616 0.722 8.91 0.99 11.8
4/4/2021 9:15:00 PM 13.02 55.436 0.723 8.88 0.31 11.49
4/4/2021 9:30:00 PM 12.91 55.238 0.72 8.86 0.74 11.15
4/4/2021 9:45:00 PM 12.81 55.058 0.725 8.83 1.43 10.95
4/4/2021 10:00:00 PM 12.71 54.878 0.726 8.8 3.12 10.71
4/4/2021 10:15:00 PM 12.61 54.698 0.727 8.77 1.2 10.49
4/4/2021 10:30:00 PM 12.51 54.518 0.728 8.75 1.3 10.28
4/4/2021 10:45:00 PM 12.41 54.338 0.729 8.72 0.84 10.09
4/4/2021 11:00:00 PM 12.3 54.14 0.73 8.69 1.12 9.91
4/4/2021 11:15:00 PM 12.2 53.96 0.731 8.65 1.26 9.73
4/4/2021 11:30:00 PM 12.1 53.78 0.732 8.62 0.85 9.59
4/4/2021 11:45:00 PM 12 53.6 0.732 8.59 1.42 9.44
4/5/2021 12:00:00 AM 11.9 53.42 0.733 8.56 0.39 9.31
4/5/2021 12:15:00 AM 11.8 53.24 0.733 8.52 1.31 9.18
4/5/2021 12:30:00 AM 11.7 53.06 0.733 8.49 1.62 9.08
4/5/2021 12:45:00 AM 11.61 52.898 0.733 8.46 0.73 8.97
4/5/2021 1:00:00 AM 11.51 52.718 0.733 8.43 1.19 8.88
4/5/2021 1:15:00 AM 11.42 52.556 0.733 8.4 1.28 8.8
4/5/2021 1:30:00 AM 11.33 52.394 0.732 8.37 0.91 8.75
4/5/2021 1:45:00 AM 11.25 52.25 0.732 8.34 0.68 8.69
4/5/2021 2:00:00 AM 11.17 52.106 0.731 8.32 0.96 8.64
4/5/2021 2:15:00 AM 11.09 51.962 0.73 8.29 1.6 8.58
4/5/2021 2:30:00 AM 11.02 51.836 0.729 8.28 1 8.56
4/5/2021 2:45:00 AM 10.94 51.692 0.728 8.26 0.92 8.53
4/5/2021 3:00:00 AM 10.87 51.566 0.728 8.24 1.21 8.52
4/5/2021 3:15:00 AM 10.8 51.44 0.727 8.23 1.15 8.51
4/5/2021 3:30:00 AM 10.74 51.332 0.726 8.21 0.54 8.5
4/5/2021 3:45:00 AM 10.67 51.206 0.725 8.2 1.34 8.5
4/5/2021 4:00:00 AM 10.6 51.08 0.724 8.19 1.7 8.5
4/5/2021 4:15:00 AM 10.54 50.972 0.723 8.19 0.78 8.5
4/5/2021 4:30:00 AM 10.48 50.864 0.722 8.18 0.72 8.51
4/5/2021 4:45:00 AM 10.42 50.756 0.722 8.18 1.34 8.53
4/5/2021 5:00:00 AM 10.36 50.648 0.721 8.17 1.08 8.55
4/5/2021 5:15:00 AM 10.31 50.558 0.72 8.16 1.56 8.57
4/5/2021 5:30:00 AM 10.26 50.468 0.72 8.16 1.07 8.56
4/5/2021 5:45:00 AM 10.21 50.378 0.719 8.16 1.49 8.59
4/5/2021 6:00:00 AM 10.15 50.27 0.718 8.16 1.39 8.6
4/5/2021 6:15:00 AM 10.1 50.18 0.718 8.16 0.69 8.62
4/5/2021 6:30:00 AM 10.05 50.09 0.717 8.15 1.08 8.63
4/5/2021 6:45:00 AM 10.01 50.018 0.717 8.14 0.69 8.65
4/5/2021 7:00:00 AM 9.97 49.946 0.716 8.14 0.83 8.66
4/5/2021 7:15:00 AM 9.93 49.874 0.716 8.15 0.38 8.73
4/5/2021 7:30:00 AM 9.9 49.82 0.715 8.15 0.48 8.81
4/5/2021 7:45:00 AM 9.87 49.766 0.715 8.15 0.92 8.91
4/5/2021 8:00:00 AM 9.86 49.748 0.714 8.16 0.42 9
4/5/2021 8:15:00 AM 9.87 49.766 0.714 8.17 0.74 9.11
4/5/2021 8:30:00 AM 9.88 49.784 0.714 8.18 0.15 9.26
4/5/2021 8:45:00 AM 9.9 49.82 0.713 8.19 0.73 9.43
4/5/2021 9:00:00 AM 9.94 49.892 0.713 8.2 0.58 9.67
4/5/2021 9:15:00 AM 9.98 49.964 0.713 8.22 0.5 9.88
4/5/2021 9:30:00 AM 10.02 50.036 0.713 8.24 0.32 10.06
4/5/2021 9:45:00 AM 10.11 50.198 0.712 8.25 0.13 10.4
4/5/2021 10:00:00 AM 10.22 50.396 0.712 8.27 0.73 10.74
4/5/2021 10:15:00 AM 10.4 50.72 0.712 8.31 2.14 11.2
4/5/2021 10:30:00 AM 10.6 51.08 0.711 8.34 1.38 11.65
4/5/2021 10:45:00 AM 10.83 51.494 0.711 8.36 1.9 12.05
4/5/2021 11:00:00 AM 11.06 51.908 0.711 8.4 -0.15 12.36
4/5/2021 11:15:00 AM 11.28 52.304 0.71 8.43 0.22 12.73
4/5/2021 11:30:00 AM 11.51 52.718 0.71 8.47 0.05 13.22
4/5/2021 11:45:00 AM 11.76 53.168 0.71 8.5 -0.04 13.55
4/5/2021 12:00:00 PM 11.97 53.546 0.71 8.53 0.08 13.94
4/5/2021 12:15:00 PM 12.2 53.96 0.71 8.56 0.63 14.29
4/5/2021 12:30:00 PM 12.44 54.392 0.709 8.59 0.33 14.57
4/5/2021 12:45:00 PM 12.67 54.806 0.709 8.62 1.04 14.8
4/5/2021 1:00:00 PM 12.88 55.184 0.708 8.65 0.53 15
4/5/2021 1:15:00 PM 13.07 55.526 0.708 8.67 0.39 15.14
4/5/2021 1:30:00 PM 13.29 55.922 0.708 8.7 1.2 15.27
4/5/2021 1:45:00 PM 13.5 56.3 0.707 8.72 0.13 15.56
4/5/2021 2:00:00 PM 13.7 56.66 0.706 8.74 1.15 15.7
4/5/2021 2:15:00 PM 13.86 56.948 0.705 8.76 1.61 15.74
4/5/2021 2:30:00 PM 14.01 57.218 0.705 8.79 0.57 15.82
4/5/2021 2:45:00 PM 14.2 57.56 0.704 8.81 0.59 15.9
4/5/2021 3:00:00 PM 14.35 57.83 0.703 8.83 0.42 15.92
4/5/2021 3:15:00 PM 14.49 58.082 0.702 8.85 0.2 16.06
4/5/2021 3:30:00 PM 14.59 58.262 0.701 8.87 0.35 16.16
4/5/2021 3:45:00 PM 14.68 58.424 0.7 8.89 0.8 16.16
4/5/2021 4:00:00 PM 14.74 58.532 0.699 8.9 0.78 15.99
4/5/2021 4:15:00 PM 14.79 58.622 0.697 8.92 1.51 15.99
4/5/2021 4:30:00 PM 14.84 58.712 0.697 8.94 0.28 15.87
4/5/2021 4:45:00 PM 14.89 58.802 0.697 8.95 1.14 15.82
4/5/2021 5:00:00 PM 14.91 58.838 0.696 8.96 0.48 15.56
4/5/2021 5:15:00 PM 14.89 58.802 0.695 8.97 0.62 15.38
4/5/2021 5:30:00 PM 14.88 58.784 0.695 8.97 1.57 15.14
4/5/2021 5:45:00 PM 14.87 58.766 0.695 8.98 1.51 14.89
4/5/2021 6:00:00 PM 14.89 58.802 0.695 8.98 10.2 14.64
4/5/2021 6:15:00 PM 14.88 58.784 0.691 8.99 0.67 14.43
4/5/2021 6:30:00 PM 14.88 58.784 0.695 8.99 0.44 14.17
4/5/2021 6:45:00 PM 14.89 58.802 0.694 8.99 0.76 13.92
4/5/2021 7:00:00 PM 14.89 58.802 0.695 8.98 1.01 13.71
4/5/2021 7:15:00 PM 14.86 58.748 0.695 8.98 3.4 13.41
4/5/2021 7:30:00 PM 14.81 58.658 0.696 8.97 0.97 13.11
4/5/2021 7:45:00 PM 14.74 58.532 0.696 8.95 1.45 12.8
4/5/2021 8:00:00 PM 14.68 58.424 0.697 8.94 0.68 12.49
4/5/2021 8:15:00 PM 14.61 58.298 0.697 8.93 0.92 12.16
4/5/2021 8:30:00 PM 14.55 58.19 0.698 8.91 1.38 11.85
4/5/2021 8:45:00 PM 14.47 58.046 0.699 8.89 0.92 11.58
4/5/2021 9:00:00 PM 14.4 57.92 0.7 8.87 1.11 11.28
4/5/2021 9:15:00 PM 14.32 57.776 0.702 8.85 0.97 10.98
4/5/2021 9:30:00 PM 14.23 57.614 0.703 8.82 1.6 10.69
4/5/2021 9:45:00 PM 14.15 57.47 0.703 8.8 1.13 10.43
4/5/2021 10:00:00 PM 14.06 57.308 0.705 8.77 1.33 10.18
4/5/2021 10:15:00 PM 13.98 57.164 0.705 8.74 0.97 9.96
4/5/2021 10:30:00 PM 13.89 57.002 0.707 8.72 1.64 9.73
4/5/2021 10:45:00 PM 13.81 56.858 0.71 8.68 1.51 9.52
4/5/2021 11:00:00 PM 13.72 56.696 0.711 8.65 1.05 9.34
4/5/2021 11:15:00 PM 13.63 56.534 0.712 8.62 0.66 9.16
4/5/2021 11:30:00 PM 13.55 56.39 0.714 8.59 0.74 9
4/5/2021 11:45:00 PM 13.47 56.246 0.715 8.56 0.88 8.84
4/6/2021 12:00:00 AM 13.39 56.102 0.715 8.51 0.75 8.7
4/6/2021 12:15:00 AM 13.33 55.994 0.716 8.48 1.52 8.58
4/6/2021 12:30:00 AM 13.27 55.886 0.717 8.44 1.01 8.48
4/6/2021 12:45:00 AM 13.2 55.76 0.718 8.41 3.07 8.39
4/6/2021 1:00:00 AM 13.15 55.67 0.718 8.38 0.77 8.29
4/6/2021 1:15:00 AM 13.09 55.562 0.718 8.35 1.8 8.19
4/6/2021 1:30:00 AM 13.03 55.454 0.718 8.32 1.37 8.11
4/6/2021 1:45:00 AM 12.98 55.364 0.718 8.3 1.62 8.05
4/6/2021 2:00:00 AM 12.94 55.292 0.718 8.27 0.75 7.98
4/6/2021 2:15:00 AM 12.9 55.22 0.718 8.25 0.89 7.92
4/6/2021 2:30:00 AM 12.86 55.148 0.718 8.22 1.53 7.87
4/6/2021 2:45:00 AM 12.83 55.094 0.717 8.21 4.34 7.83
4/6/2021 3:00:00 AM 12.8 55.04 0.717 8.19 0.42 7.78
4/6/2021 3:15:00 AM 12.76 54.968 0.716 8.18 1.1 7.77
4/6/2021 3:30:00 AM 12.72 54.896 0.715 8.16 0.92 7.76
4/6/2021 3:45:00 AM 12.68 54.824 0.715 8.15 0.54 7.74
4/6/2021 4:00:00 AM 12.63 54.734 0.714 8.14 1.47 7.73
4/6/2021 4:15:00 AM 12.57 54.626 0.713 8.14 0.83 7.73
4/6/2021 4:30:00 AM 12.51 54.518 0.712 8.13 0.56 7.72
4/6/2021 4:45:00 AM 12.46 54.428 0.711 8.12 2.29 7.73
4/6/2021 5:00:00 AM 12.41 54.338 0.71 8.12 1.05 7.74
4/6/2021 5:15:00 AM 12.36 54.248 0.71 8.11 0.93 7.74
4/6/2021 5:30:00 AM 12.3 54.14 0.708 8.11 1.22 7.75
4/6/2021 5:45:00 AM 12.26 54.068 0.707 8.1 0.9 7.76
4/6/2021 6:00:00 AM 12.2 53.96 0.706 8.1 1.49 7.78
4/6/2021 6:15:00 AM 12.16 53.888 0.705 8.11 0.79 7.79
4/6/2021 6:30:00 AM 12.1 53.78 0.704 8.1 2.79 7.8
4/6/2021 6:45:00 AM 12.05 53.69 0.703 8.09 1.2 7.82
4/6/2021 7:00:00 AM 12 53.6 0.702 8.1 0.82 7.85
4/6/2021 7:15:00 AM 11.95 53.51 0.7 8.1 0.95 7.9
4/6/2021 7:30:00 AM 11.91 53.438 0.699 8.1 1.06 7.99
4/6/2021 7:45:00 AM 11.87 53.366 0.699 8.11 0.63 8.08
4/6/2021 8:00:00 AM 11.84 53.312 0.698 8.11 1.22 8.19
4/6/2021 8:15:00 AM 11.81 53.258 0.697 8.12 44.52 8.28
4/6/2021 8:30:00 AM 11.8 53.24 0.696 8.13 1.59 8.43
4/6/2021 8:45:00 AM 11.81 53.258 0.696 8.14 0.69 8.61
4/6/2021 9:00:00 AM 11.83 53.294 0.695 8.15 0.69 8.81
4/6/2021 9:15:00 AM 11.86 53.348 0.695 8.17 1.73 9.02
4/6/2021 9:30:00 AM 11.92 53.456 0.695 8.18 0.74 9.25
4/6/2021 9:45:00 AM 12.03 53.654 0.694 8.21 1.3 9.61
4/6/2021 10:00:00 AM 12.15 53.87 0.694 8.24 0.87 10.06
4/6/2021 10:15:00 AM 12.26 54.068 0.693 8.26 1.01 10.42
4/6/2021 10:30:00 AM 12.35 54.23 0.693 8.29 1.01 10.74
4/6/2021 10:45:00 AM 12.5 54.5 0.693 8.31 0.3 11.02
4/6/2021 11:00:00 AM 12.63 54.734 0.693 8.35 1.06 11.36
4/6/2021 11:15:00 AM 12.69 54.842 0.693 8.37 0.49 11.62
4/6/2021 11:30:00 AM 12.82 55.076 0.694 8.4 0.64 11.86
4/6/2021 11:45:00 AM 13.12 55.616 0.694 8.43 0.7 12.28
4/6/2021 12:00:00 PM 13.38 56.084 0.693 8.46 0.33 12.67
4/6/2021 12:15:00 PM 13.63 56.534 0.693 8.49 0.58 13.05
4/6/2021 12:30:00 PM 13.84 56.912 0.694 8.52 0.86 13.33
4/6/2021 12:45:00 PM 14.06 57.308 0.694 8.54 0.68 13.58
4/6/2021 1:00:00 PM 14.25 57.65 0.694 8.57 0.77 13.76
4/6/2021 1:15:00 PM 14.46 58.028 0.694 8.6 0.46 14.01
4/6/2021 1:30:00 PM 14.65 58.37 0.693 8.61 1.59 14.21
4/6/2021 1:45:00 PM 14.82 58.676 0.693 8.64 0.83 14.23
4/6/2021 2:00:00 PM 15.02 59.036 0.693 8.66 0.57 14.38
4/6/2021 2:15:00 PM 15.2 59.36 0.693 8.69 1.94 14.37
4/6/2021 2:30:00 PM 15.36 59.648 0.693 8.71 0.6 14.49
4/6/2021 2:45:00 PM 15.52 59.936 0.693 8.73 1.28 14.66
4/6/2021 3:00:00 PM 15.67 60.206 0.692 8.75 0.52 14.75
4/6/2021 3:15:00 PM 15.81 60.458 0.692 8.77 1.4 14.85
4/6/2021 3:30:00 PM 15.94 60.692 0.692 8.79 1.21 14.87
4/6/2021 3:45:00 PM 16.03 60.854 0.691 8.81 0.54 14.82
4/6/2021 4:00:00 PM 16.11 60.998 0.691 8.83 0.19 14.72
4/6/2021 4:15:00 PM 16.18 61.124 0.69 8.84 0.67 14.67
4/6/2021 4:30:00 PM 16.22 61.196 0.69 8.86 0.94 14.56
4/6/2021 4:45:00 PM 16.24 61.232 0.69 8.87 0.37 14.46
4/6/2021 5:00:00 PM 16.25 61.25 0.689 8.88 0.39 14.33
4/6/2021 5:15:00 PM 16.25 61.25 0.689 8.89 0.25 14.13
4/6/2021 5:30:00 PM 16.25 61.25 0.689 8.89 2.79 13.87
4/6/2021 5:45:00 PM 16.23 61.214 0.689 8.9 1.11 13.65
4/6/2021 6:00:00 PM 16.23 61.214 0.688 8.9 1.71 13.4
4/6/2021 6:15:00 PM 16.23 61.214 0.688 8.9 0.49 13.19
4/6/2021 6:30:00 PM 16.23 61.214 0.688 8.9 0.45 12.93
4/6/2021 6:45:00 PM 16.22 61.196 0.688 8.9 0.94 12.69
4/6/2021 7:00:00 PM 16.2 61.16 0.688 8.9 0.91 12.48
4/6/2021 7:15:00 PM 16.16 61.088 0.688 8.9 0.39 12.23
4/6/2021 7:30:00 PM 16.1 60.98 0.688 8.89 0.49 11.98
4/6/2021 7:45:00 PM 16.04 60.872 0.689 8.88 0.58 11.72
4/6/2021 8:00:00 PM 15.96 60.728 0.689 8.87 0.36 11.46
4/6/2021 8:15:00 PM 15.87 60.566 0.69 8.85 0.29 11.17
4/6/2021 8:30:00 PM 15.78 60.404 0.691 8.84 0.69 10.89
4/6/2021 8:45:00 PM 15.68 60.224 0.692 8.82 0.56 10.65
4/6/2021 9:00:00 PM 15.58 60.044 0.693 8.8 0.75 10.4
4/6/2021 9:15:00 PM 15.47 59.846 0.695 8.78 0.77 10.15
4/6/2021 9:30:00 PM 15.36 59.648 0.696 8.76 0.61 9.91
4/6/2021 9:45:00 PM 15.25 59.45 0.697 8.73 0.92 9.67
4/6/2021 10:00:00 PM 15.14 59.252 0.699 8.7 1.06 9.48
4/6/2021 10:15:00 PM 15.03 59.054 0.7 8.67 2.03 9.24
4/6/2021 10:30:00 PM 14.92 58.856 0.702 8.65 1.04 9.05
4/6/2021 10:45:00 PM 14.81 58.658 0.704 8.62 1.63 8.89
4/6/2021 11:00:00 PM 14.7 58.46 0.705 8.59 2 8.74
4/6/2021 11:15:00 PM 14.61 58.298 0.703 8.56 1.81 8.59
4/6/2021 11:30:00 PM 14.51 58.118 0.704 8.52 0.88 8.4
4/6/2021 11:45:00 PM 14.41 57.938 0.705 8.49 1.18 8.3
4/7/2021 12:00:00 AM 14.31 57.758 0.706 8.46 1.17 8.19
4/7/2021 12:15:00 AM 14.22 57.596 0.706 8.42 0.84 8.09
4/7/2021 12:30:00 AM 14.13 57.434 0.707 8.39 1.13 7.98
4/7/2021 12:45:00 AM 14.04 57.272 0.708 8.36 1.34 7.89
4/7/2021 1:00:00 AM 13.95 57.11 0.707 8.33 0.98 7.83
4/7/2021 1:15:00 AM 13.87 56.966 0.707 8.3 1.27 7.74
4/7/2021 1:30:00 AM 13.8 56.84 0.707 8.27 0.86 7.69
4/7/2021 1:45:00 AM 13.75 56.75 0.707 8.25 1.59 7.62
4/7/2021 2:00:00 AM 13.69 56.642 0.706 8.23 1.52 7.58
4/7/2021 2:15:00 AM 13.64 56.552 0.706 8.21 0.71 7.53
4/7/2021 2:30:00 AM 13.58 56.444 0.706 8.19 1.54 7.5
4/7/2021 2:45:00 AM 13.51 56.318 0.706 8.17 1.06 7.46
4/7/2021 3:00:00 AM 13.45 56.21 0.706 8.15 1.38 7.42
4/7/2021 3:15:00 AM 13.39 56.102 0.706 8.14 0.89 7.37
4/7/2021 3:30:00 AM 13.35 56.03 0.706 8.13 0.49 7.32
4/7/2021 3:45:00 AM 13.33 55.994 0.706 8.11 1.58 7.22
4/7/2021 4:00:00 AM 13.29 55.922 0.706 8.1 1.19 7.15
4/7/2021 4:15:00 AM 13.26 55.868 0.706 8.09 1.15 7.05
4/7/2021 4:30:00 AM 13.23 55.814 0.707 8.07 1.01 6.94
4/7/2021 4:45:00 AM 13.18 55.724 0.708 8.06 2.65 6.83
4/7/2021 5:00:00 AM 13.15 55.67 0.709 8.05 1.65 6.73
4/7/2021 5:15:00 AM 13.1 55.58 0.71 8.04 2.74 6.67
4/7/2021 5:30:00 AM 13.06 55.508 0.711 8.03 2.58 6.6
4/7/2021 5:45:00 AM 13.02 55.436 0.712 8.02 2.96 6.53
4/7/2021 6:00:00 AM 12.99 55.382 0.712 8.01 2.88 6.51
4/7/2021 6:15:00 AM 12.94 55.292 0.712 8.01 2.48 6.48
4/7/2021 6:30:00 AM 12.91 55.238 0.712 8 3.64 6.5
4/7/2021 6:45:00 AM 12.88 55.184 0.712 8 4.21 6.48
4/7/2021 7:00:00 AM 12.86 55.148 0.712 8 3.97 6.53
4/7/2021 7:15:00 AM 12.85 55.13 0.712 8 2.05 6.61
4/7/2021 7:30:00 AM 12.86 55.148 0.712 8 2.67 6.69
4/7/2021 7:45:00 AM 12.85 55.13 0.712 8.01 2.45 6.83
4/7/2021 8:00:00 AM 12.87 55.166 0.712 8.02 1.71 6.96
4/7/2021 8:15:00 AM 12.9 55.22 0.712 8.03 2.02 7.18
4/7/2021 8:30:00 AM 12.91 55.238 0.712 8.04 1.7 7.4
4/7/2021 8:45:00 AM 12.93 55.274 0.713 8.05 1.8 7.56
4/7/2021 9:00:00 AM 12.98 55.364 0.713 8.06 1.89 7.74
4/7/2021 9:15:00 AM 13.06 55.508 0.714 8.07 1.58 8.01
4/7/2021 9:30:00 AM 13.13 55.634 0.714 8.09 1.39 8.36
4/7/2021 9:45:00 AM 13.18 55.724 0.715 8.1 1.5 8.59
4/7/2021 10:00:00 AM 13.24 55.832 0.717 8.12 3.14 8.78
4/7/2021 10:15:00 AM 13.3 55.94 0.718 8.13 0.92 8.99
4/7/2021 10:30:00 AM 13.38 56.084 0.719 8.15 0.92 9.2
4/7/2021 10:45:00 AM 13.48 56.264 0.72 8.17 0.76 9.5
4/7/2021 11:00:00 AM 13.62 56.516 0.722 8.2 0.59 9.84
4/7/2021 11:15:00 AM 13.72 56.696 0.723 8.23 0.78 10.18
4/7/2021 11:30:00 AM 13.77 56.786 0.725 8.25 1.33 10.33
4/7/2021 11:45:00 AM 13.81 56.858 0.726 8.26 0.89 10.41
4/7/2021 12:00:00 PM 13.85 56.93 0.728 8.28 1.69 10.52
4/7/2021 12:15:00 PM 13.9 57.02 0.729 8.29 0.79 10.63
4/7/2021 12:30:00 PM 13.95 57.11 0.727 8.32 1.42 10.82
4/7/2021 12:45:00 PM 14.02 57.236 0.728 8.34 1.89 10.86
4/7/2021 1:00:00 PM 14.22 57.596 0.728 8.36 1.22 11.14
4/7/2021 1:15:00 PM 14.43 57.974 0.729 8.39 1.12 11.54
4/7/2021 1:30:00 PM 14.56 58.208 0.729 8.42 2.1 11.81
4/7/2021 1:45:00 PM 14.78 58.604 0.73 8.45 0.72 12.08
4/7/2021 2:00:00 PM 14.91 58.838 0.731 8.47 1.18 12.28
4/7/2021 2:15:00 PM 14.99 58.982 0.731 8.5 1.07 12.4
4/7/2021 2:30:00 PM 15.17 59.306 0.732 8.52 1.29 12.51
4/7/2021 2:45:00 PM 15.38 59.684 0.732 8.54 1.2 12.69
4/7/2021 3:00:00 PM 15.55 59.99 0.732 8.56 0.59 12.79
4/7/2021 3:15:00 PM 15.69 60.242 0.732 8.58 1.13 12.89
4/7/2021 3:30:00 PM 15.82 60.476 0.731 8.59 0.93 12.88
4/7/2021 3:45:00 PM 15.93 60.674 0.731 8.61 1.14 12.88
4/7/2021 4:00:00 PM 16.03 60.854 0.731 8.62 0.75 12.88
4/7/2021 4:15:00 PM 16.09 60.962 0.731 8.64 0.82 12.85
4/7/2021 4:30:00 PM 16.1 60.98 0.73 8.65 1.58 12.75
4/7/2021 4:45:00 PM 16.15 61.07 0.73 8.66 0.48 12.66
4/7/2021 5:00:00 PM 16.18 61.124 0.73 8.67 4.01 12.59
4/7/2021 5:15:00 PM 16.18 61.124 0.729 8.68 1.28 12.48
4/7/2021 5:30:00 PM 16.17 61.106 0.73 8.69 1.68 12.3
4/7/2021 5:45:00 PM 16.16 61.088 0.73 8.7 0.61 12.13
4/7/2021 6:00:00 PM 16.14 61.052 0.73 8.7 2.98 11.91
4/7/2021 6:15:00 PM 16.13 61.034 0.729 8.7 0.64 11.76
4/7/2021 6:30:00 PM 16.12 61.016 0.729 8.7 1.73 11.61
4/7/2021 6:45:00 PM 16.11 60.998 0.729 8.7 0.53 11.46
4/7/2021 7:00:00 PM 16.1 60.98 0.729 8.7 0.41 11.24
4/7/2021 7:15:00 PM 16.07 60.926 0.729 8.7 1.16 11.1
4/7/2021 7:30:00 PM 16.04 60.872 0.729 8.7 0.88 10.9
4/7/2021 7:45:00 PM 15.99 60.782 0.729 8.7 0.79 10.7
4/7/2021 8:00:00 PM 15.94 60.692 0.589 8.69 0.98 10.52
4/7/2021 8:15:00 PM 15.91 60.638 0.732 8.68 2.06 10.31
4/7/2021 8:30:00 PM 15.86 60.548 0.732 8.67 2.49 10.13
4/7/2021 8:45:00 PM 15.81 60.458 0.732 8.67 2.14 9.94
4/7/2021 9:00:00 PM 15.75 60.35 0.733 8.65 1.01 9.74
4/7/2021 9:15:00 PM 15.67 60.206 0.733 8.64 0.8 9.55
4/7/2021 9:30:00 PM 15.61 60.098 0.732 8.62 1.58 9.35
4/7/2021 9:45:00 PM 15.56 60.008 0.734 8.6 2.52 9.16
4/7/2021 10:00:00 PM 15.5 59.9 0.734 8.58 0.81 8.99
4/7/2021 10:15:00 PM 15.44 59.792 0.736 8.56 1.11 8.81
4/7/2021 10:30:00 PM 15.36 59.648 0.737 8.54 0.6 8.67
4/7/2021 10:45:00 PM 15.29 59.522 0.738 8.51 1.81 8.49
4/7/2021 11:00:00 PM 15.22 59.396 0.739 8.48 1.04 8.36
4/7/2021 11:15:00 PM 15.13 59.234 0.74 8.46 1.35 8.21
4/7/2021 11:30:00 PM 15.05 59.09 0.741 8.43 0.99 8.09
4/7/2021 11:45:00 PM 14.97 58.946 0.742 8.4 0.95 7.97
4/8/2021 12:00:00 AM 14.9 58.82 0.743 8.37 2.75 7.87
4/8/2021 12:15:00 AM 14.82 58.676 0.744 8.34 2.57 7.76
4/8/2021 12:30:00 AM 14.73 58.514 0.744 8.32 0.68 7.69
4/8/2021 12:45:00 AM 14.64 58.352 0.745 8.29 1.03 7.6
4/8/2021 1:00:00 AM 14.54 58.172 0.745 8.27 1.31 7.53
4/8/2021 1:15:00 AM 14.46 58.028 0.746 8.24 0.64 7.46
4/8/2021 1:30:00 AM 14.37 57.866 0.746 8.22 1.26 7.41
4/8/2021 1:45:00 AM 14.29 57.722 0.746 8.2 1.29 7.38
4/8/2021 2:00:00 AM 14.21 57.578 0.746 8.18 0.5 7.32
4/8/2021 2:15:00 AM 14.13 57.434 0.746 8.17 1.39 7.3
4/8/2021 2:30:00 AM 14.04 57.272 0.746 8.15 0.83 7.27
4/8/2021 2:45:00 AM 13.97 57.146 0.745 8.14 0.43 7.26
4/8/2021 3:00:00 AM 13.89 57.002 0.746 8.13 1.79 7.26
4/8/2021 3:15:00 AM 13.82 56.876 0.742 8.12 0.45 7.25
4/8/2021 3:30:00 AM 13.74 56.732 0.654 8.11 1.93 7.24
4/8/2021 3:45:00 AM 13.67 56.606 0.745 8.11 0.95 7.26
4/8/2021 4:00:00 AM 13.6 56.48 0.744 8.1 0.64 7.27
4/8/2021 4:15:00 AM 13.52 56.336 0.743 8.1 1.61 7.28
4/8/2021 4:30:00 AM 13.46 56.228 0.743 8.09 0.56 7.31
4/8/2021 4:45:00 AM 13.39 56.102 0.745 8.09 1.58 7.32
4/8/2021 5:00:00 AM 13.33 55.994 0.744 8.09 1.18 7.35
4/8/2021 5:15:00 AM 13.26 55.868 0.743 8.09 0.64 7.35
4/8/2021 5:30:00 AM 13.19 55.742 0.743 8.09 1.15 7.39
4/8/2021 5:45:00 AM 13.13 55.634 0.742 8.09 0.77 7.4
4/8/2021 6:00:00 AM 13.07 55.526 0.742 8.09 1.02 7.43
4/8/2021 6:15:00 AM 13.01 55.418 0.741 8.08 0.19 7.44
4/8/2021 6:30:00 AM 12.95 55.31 0.741 8.08 0.58 7.47
4/8/2021 6:45:00 AM 12.89 55.202 0.74 8.08 0.91 7.5
4/8/2021 7:00:00 AM 12.84 55.112 0.739 8.09 0.43 7.53
4/8/2021 7:15:00 AM 12.81 55.058 0.739 8.08 0.46 7.57
4/8/2021 7:30:00 AM 12.78 55.004 0.739 8.09 0.35 7.61
4/8/2021 7:45:00 AM 12.75 54.95 0.739 8.09 0.66 7.7
4/8/2021 8:00:00 AM 12.72 54.896 0.739 8.1 12.54 7.81
4/8/2021 8:15:00 AM 12.69 54.842 0.739 8.1 1.31 7.88
4/8/2021 8:30:00 AM 12.68 54.824 0.739 8.11 1.88 7.99
4/8/2021 8:45:00 AM 12.69 54.842 0.738 8.12 1.71 8.14
4/8/2021 9:00:00 AM 12.71 54.878 0.738 8.13 0.24 8.31
4/8/2021 9:15:00 AM 12.73 54.914 0.738 8.14 0.34 8.46
4/8/2021 9:30:00 AM 12.76 54.968 0.738 8.15 1.81 8.61
4/8/2021 9:45:00 AM 12.83 55.094 0.738 8.17 0.05 8.81
4/8/2021 10:00:00 AM 12.94 55.292 0.737 8.18 0.34 9.06
4/8/2021 10:15:00 AM 13.1 55.58 0.736 8.2 0.2 9.38
4/8/2021 10:30:00 AM 13.29 55.922 0.738 8.22 0.25 9.7
4/8/2021 10:45:00 AM 13.52 56.336 0.737 8.24 0.29 10
4/8/2021 11:00:00 AM 13.76 56.768 0.737 8.27 0.54 10.28
4/8/2021 11:15:00 AM 13.99 57.182 0.738 8.29 0.2 10.55
4/8/2021 11:30:00 AM 14.22 57.596 0.738 8.31 1.31 10.8
4/8/2021 11:45:00 AM 14.47 58.046 0.739 8.34 0.38 11.04
4/8/2021 12:00:00 PM 14.68 58.424 0.739 8.36 0.33 11.28
4/8/2021 12:15:00 PM 14.91 58.838 0.738 8.38 0.49 11.47
4/8/2021 12:30:00 PM 15.15 59.27 0.739 8.39 0.18 11.68
4/8/2021 12:45:00 PM 15.39 59.702 0.739 8.41 0.66 11.82
4/8/2021 1:00:00 PM 15.62 60.116 0.739 8.43 0.38 12.02
4/8/2021 1:15:00 PM 15.84 60.512 0.739 8.44 0.39 12.15
4/8/2021 1:30:00 PM 16.06 60.908 0.74 8.46 0.78 12.24
4/8/2021 1:45:00 PM 16.26 61.268 0.741 8.47 0.15 12.35
4/8/2021 2:00:00 PM 16.46 61.628 0.741 8.49 0.52 12.44
4/8/2021 2:15:00 PM 16.63 61.934 0.742 8.5 0.54 12.5
4/8/2021 2:30:00 PM 16.79 62.222 0.742 8.52 1.18 12.5
4/8/2021 2:45:00 PM 16.96 62.528 0.742 8.54 1.21 12.55
4/8/2021 3:00:00 PM 17.1 62.78 0.743 8.55 0.68 12.61
4/8/2021 3:15:00 PM 17.23 63.014 0.743 8.57 0.74 12.64
4/8/2021 3:30:00 PM 17.34 63.212 0.743 8.58 0.49 12.62
4/8/2021 3:45:00 PM 17.43 63.374 0.744 8.6 1.2 12.55
4/8/2021 4:00:00 PM 17.49 63.482 0.743 8.62 0.58 12.56
4/8/2021 4:15:00 PM 17.55 63.59 0.744 8.63 0.69 12.46
4/8/2021 4:30:00 PM 17.59 63.662 0.744 8.64 2.94 12.38
4/8/2021 4:45:00 PM 17.61 63.698 0.744 8.65 0.6 12.3
4/8/2021 5:00:00 PM 17.62 63.716 0.744 8.67 0.46 12.15
4/8/2021 5:15:00 PM 17.59 63.662 0.744 8.68 0.24 11.99
4/8/2021 5:30:00 PM 17.56 63.608 0.743 8.68 0.55 11.81
4/8/2021 5:45:00 PM 17.52 63.536 0.743 8.69 0.81 11.62
4/8/2021 6:00:00 PM 17.48 63.464 0.743 8.69 0.86 11.42
4/8/2021 6:15:00 PM 17.46 63.428 0.74 8.7 3.01 11.23
4/8/2021 6:30:00 PM 17.43 63.374 0.738 8.7 1.69 11.07
4/8/2021 6:45:00 PM 17.38 63.284 0.739 8.7 1.35 10.86
4/8/2021 7:00:00 PM 17.34 63.212 0.739 8.7 0.58 10.68
4/8/2021 7:15:00 PM 17.29 63.122 0.739 8.7 0.76 10.49
4/8/2021 7:30:00 PM 17.23 63.014 0.739 8.69 1.62 10.29
4/8/2021 7:45:00 PM 17.15 62.87 0.739 8.68 1.85 10.1
4/8/2021 8:00:00 PM 17.06 62.708 0.739 8.67 0.96 9.89
4/8/2021 8:15:00 PM 16.96 62.528 0.74 8.66 0.56 9.7
4/8/2021 8:30:00 PM 16.86 62.348 0.74 8.65 0.96 9.53
4/8/2021 8:45:00 PM 16.76 62.168 0.74 8.63 0.94 9.33
4/8/2021 9:00:00 PM 16.64 61.952 0.741 8.61 0.5 9.16
4/8/2021 9:15:00 PM 16.53 61.754 0.741 8.6 0.65 8.98
4/8/2021 9:30:00 PM 16.41 61.538 0.741 8.58 0.19 8.79
4/8/2021 9:45:00 PM 16.3 61.34 0.742 8.55 0.75 8.62
4/8/2021 10:00:00 PM 16.18 61.124 0.742 8.53 0.79 8.45
4/8/2021 10:15:00 PM 16.07 60.926 0.744 8.5 0.61 8.29
4/8/2021 10:30:00 PM 15.95 60.71 0.744 8.48 0.42 8.18
4/8/2021 10:45:00 PM 15.83 60.494 0.745 8.45 0.31 8.05
4/8/2021 11:00:00 PM 15.71 60.278 0.744 8.43 0.5 7.95
4/8/2021 11:15:00 PM 15.6 60.08 0.746 8.4 0.69 7.84
4/8/2021 11:30:00 PM 15.51 59.918 0.745 8.38 0.37 7.75
4/8/2021 11:45:00 PM 15.41 59.738 0.745 8.35 1.22 7.68
4/9/2021 12:00:00 AM 15.3 59.54 0.744 8.33 0.6 7.58
4/9/2021 12:15:00 AM 15.19 59.342 0.746 8.31 0.03 7.51
4/9/2021 12:30:00 AM 15.09 59.162 0.747 8.29 0.55 7.46
4/9/2021 12:45:00 AM 14.99 58.982 0.747 8.27 0.85 7.37
4/9/2021 1:00:00 AM 14.9 58.82 0.747 8.25 1.27 7.36
4/9/2021 1:15:00 AM 14.82 58.676 0.748 8.23 0.6 7.3
4/9/2021 1:30:00 AM 14.72 58.496 0.747 8.21 0.28 7.28
4/9/2021 1:45:00 AM 14.64 58.352 0.749 8.19 1.28 7.21
4/9/2021 2:00:00 AM 14.56 58.208 0.748 8.18 0.56 7.19
4/9/2021 2:15:00 AM 14.48 58.064 0.746 8.17 1.13 7.18
4/9/2021 2:30:00 AM 14.41 57.938 0.746 8.15 0.63 7.17
4/9/2021 2:45:00 AM 14.34 57.812 0.747 8.14 0.63 7.13
4/9/2021 3:00:00 AM 14.28 57.704 0.735 8.13 0.48 7.13
4/9/2021 3:15:00 AM 14.22 57.596 0.745 8.12 -0.03 7.14
4/9/2021 3:30:00 AM 14.18 57.524 0.744 8.12 1.72 7.13
4/9/2021 3:45:00 AM 14.13 57.434 0.743 8.11 1.41 7.11
4/9/2021 4:00:00 AM 14.09 57.362 0.742 8.1 0.71 7.11
4/9/2021 4:15:00 AM 14.06 57.308 0.74 8.1 1.58 7.12
4/9/2021 4:30:00 AM 14.02 57.236 0.731 8.1 3.64 7.12
4/9/2021 4:45:00 AM 13.99 57.182 0.744 8.09 0.42 7.14
4/9/2021 5:00:00 AM 13.95 57.11 0.743 8.09 0.9 7.13
4/9/2021 5:15:00 AM 13.93 57.074 0.741 8.09 1.17 7.15
4/9/2021 5:30:00 AM 13.9 57.02 0.739 8.09 0.67 7.17
4/9/2021 5:45:00 AM 13.87 56.966 0.742 8.09 2.39 7.16
4/9/2021 6:00:00 AM 13.85 56.93 0.733 8.08 0.38 7.19
4/9/2021 6:15:00 AM 13.83 56.894 0.74 8.08 0.82 7.2
4/9/2021 6:30:00 AM 13.81 56.858 0.741 8.08 0.62 7.18
4/9/2021 6:45:00 AM 13.8 56.84 0.732 8.08 0.68 7.24
4/9/2021 7:00:00 AM 13.78 56.804 0.732 8.08 0.12 7.25
4/9/2021 7:15:00 AM 13.77 56.786 0.732 8.08 0.84 7.25
4/9/2021 7:30:00 AM 13.77 56.786 0.732 8.08 0.33 7.28
4/9/2021 7:45:00 AM 13.78 56.804 0.732 8.08 -0.15 7.35
4/9/2021 8:00:00 AM 13.8 56.84 0.732 8.08 0.66 7.46
4/9/2021 8:15:00 AM 13.81 56.858 0.732 8.09 0.26 7.6
4/9/2021 8:30:00 AM 13.84 56.912 0.732 8.1 0.07 7.75
4/9/2021 8:45:00 AM 13.85 56.93 0.734 8.11 0.61 7.84
4/9/2021 9:00:00 AM 13.85 56.93 0.733 8.11 0.81 7.86
4/9/2021 9:15:00 AM 13.85 56.93 0.734 8.11 0.23 7.86
4/9/2021 9:30:00 AM 13.86 56.948 0.738 8.11 0.21 7.91
4/9/2021 9:45:00 AM 13.87 56.966 0.738 8.11 -0.01 7.95
4/9/2021 10:00:00 AM 13.9 57.02 0.738 8.12 -0.04 8.06
4/9/2021 10:15:00 AM 13.91 57.038 0.738 8.13 0.03 8.13
4/9/2021 10:30:00 AM 13.91 57.038 0.731 8.13 -0.15 8.17
4/9/2021 10:45:00 AM 13.93 57.074 0.721 8.13 0.13 8.19
4/9/2021 11:00:00 AM 13.96 57.128 0.733 8.14 0.33 8.27
4/9/2021 11:15:00 AM 14 57.2 0.732 8.14 0.24 8.42
4/9/2021 11:30:00 AM 14.03 57.254 0.731 8.15 2.09 8.55
4/9/2021 11:45:00 AM 14.07 57.326 0.734 8.17 0.12 8.71
4/9/2021 12:00:00 PM 14.12 57.416 0.707 8.17 0.23 8.81
4/9/2021 12:15:00 PM 14.19 57.542 0.752 8.19 0 9.05
4/9/2021 12:30:00 PM 14.27 57.686 0.751 8.21 -0.06 9.24
4/9/2021 12:45:00 PM 14.31 57.758 0.751 8.22 12.6 9.44
4/9/2021 1:00:00 PM 14.35 57.83 0.754 8.24 0.57 9.52
4/9/2021 1:15:00 PM 14.4 57.92 0.755 8.25 0.02 9.62
4/9/2021 1:30:00 PM 14.44 57.992 0.752 8.26 0.57 9.7
4/9/2021 1:45:00 PM 14.52 58.136 0.753 8.27 0.45 9.88
4/9/2021 2:00:00 PM 14.59 58.262 0.751 8.29 0.22 10.06
4/9/2021 2:15:00 PM 14.6 58.28 0.759 8.3 0.19 10.1
4/9/2021 2:30:00 PM 14.61 58.298 0.756 8.31 0.15 10.09
4/9/2021 2:45:00 PM 14.63 58.334 0.757 8.32 0.07 10.09
4/9/2021 3:00:00 PM 14.64 58.352 0.762 8.33 0.29 10.11
4/9/2021 3:15:00 PM 14.65 58.37 0.761 8.33 0.44 10.08
4/9/2021 3:30:00 PM 14.67 58.406 0.762 8.33 0.38 10.06
4/9/2021 3:45:00 PM 14.68 58.424 0.763 8.34 1.94 10.07
4/9/2021 4:00:00 PM 14.68 58.424 0.763 8.35 0.86 10.07
4/9/2021 4:15:00 PM 14.68 58.424 0.763 8.35 0.59 10.07
4/9/2021 4:30:00 PM 14.66 58.388 0.765 8.35 0.24 9.98
4/9/2021 4:45:00 PM 14.64 58.352 0.765 8.35 1.92 9.9
4/9/2021 5:00:00 PM 14.62 58.316 0.764 8.35 0.11 9.81
4/9/2021 5:15:00 PM 14.6 58.28 0.764 8.35 0.27 9.71
4/9/2021 5:30:00 PM 14.58 58.244 0.766 8.35 0.1 9.64
4/9/2021 5:45:00 PM 14.56 58.208 0.766 8.35 0.28 9.57
4/9/2021 6:00:00 PM 14.54 58.172 0.766 8.35 0 9.51
4/9/2021 6:15:00 PM 14.51 58.118 0.775 8.34 0.63 9.39
4/9/2021 6:30:00 PM 14.48 58.064 0.776 8.34 2.27 9.26
4/9/2021 6:45:00 PM 14.45 58.01 0.777 8.33 0.25 9.18
4/9/2021 7:00:00 PM 14.43 57.974 0.777 8.33 0.17 9.07
4/9/2021 7:15:00 PM 14.41 57.938 0.778 8.32 0.66 9
4/9/2021 7:30:00 PM 14.38 57.884 0.778 8.32 0.17 8.95
4/9/2021 7:45:00 PM 14.35 57.83 0.777 8.31 0.32 8.83
4/9/2021 8:00:00 PM 14.32 57.776 0.777 8.3 0.67 8.71
4/9/2021 8:15:00 PM 14.29 57.722 0.777 8.29 0.39 8.58
4/9/2021 8:30:00 PM 14.25 57.65 0.778 8.28 0.34 8.51
4/9/2021 8:45:00 PM 14.22 57.596 0.778 8.28 2.13 8.46
4/9/2021 9:00:00 PM 14.19 57.542 0.778 8.27 0.1 8.39
4/9/2021 9:15:00 PM 14.16 57.488 0.779 8.26 0.49 8.29
4/9/2021 9:30:00 PM 14.13 57.434 0.779 8.25 0.4 8.23
4/9/2021 9:45:00 PM 14.1 57.38 0.779 8.24 2.46 8.15
4/9/2021 10:00:00 PM 14.06 57.308 0.779 8.23 0.58 8.07
4/9/2021 10:15:00 PM 14.03 57.254 0.777 8.22 0.07 8.04
4/9/2021 10:30:00 PM 14 57.2 0.778 8.21 0.4 7.96
4/9/2021 10:45:00 PM 13.97 57.146 0.765 8.2 0.95 7.94
4/9/2021 11:00:00 PM 13.93 57.074 0.778 8.19 -0.04 7.87
4/9/2021 11:15:00 PM 13.89 57.002 0.778 8.18 0.53 7.85
4/9/2021 11:30:00 PM 13.86 56.948 0.778 8.18 1.87 7.81
4/9/2021 11:45:00 PM 13.83 56.894 0.778 8.17 0.47 7.75
4/10/2021 12:00:00 AM 13.8 56.84 0.778 8.16 0.5 7.74
4/10/2021 12:15:00 AM 13.77 56.786 0.776 8.15 0.29 7.71
4/10/2021 12:30:00 AM 13.74 56.732 0.776 8.15 0.78 7.66
4/10/2021 12:45:00 AM 13.71 56.678 0.776 8.14 0.39 7.66
4/10/2021 1:00:00 AM 13.69 56.642 0.776 8.14 0.4 7.65
4/10/2021 1:15:00 AM 13.66 56.588 0.776 8.14 0.14 7.64
4/10/2021 1:30:00 AM 13.64 56.552 0.776 8.13 0.42 7.63
4/10/2021 1:45:00 AM 13.61 56.498 0.776 8.13 0.62 7.66
4/10/2021 2:00:00 AM 13.59 56.462 0.776 8.12 0.52 7.61
4/10/2021 2:15:00 AM 13.57 56.426 0.776 8.12 0.04 7.62
4/10/2021 2:30:00 AM 13.54 56.372 0.775 8.12 1.03 7.65
4/10/2021 2:45:00 AM 13.52 56.336 0.776 8.12 0.16 7.61
4/10/2021 3:00:00 AM 13.5 56.3 0.775 8.11 0.67 7.57
4/10/2021 3:15:00 AM 13.48 56.264 0.775 8.11 -0.08 7.62
4/10/2021 3:30:00 AM 13.46 56.228 0.774 8.11 0.87 7.65
4/10/2021 3:45:00 AM 13.45 56.21 0.773 8.11 0.53 7.63
4/10/2021 4:00:00 AM 13.43 56.174 0.773 8.11 0.97 7.63
4/10/2021 4:15:00 AM 13.41 56.138 0.775 8.11 0.94 7.65
4/10/2021 4:30:00 AM 13.39 56.102 0.775 8.11 0.12 7.67
4/10/2021 4:45:00 AM 13.38 56.084 0.774 8.1 0.4 7.69
4/10/2021 5:00:00 AM 13.36 56.048 0.773 8.1 0.63 7.63
4/10/2021 5:15:00 AM 13.34 56.012 0.773 8.1 1.29 7.7
4/10/2021 5:30:00 AM 13.32 55.976 0.772 8.1 1.25 7.69
4/10/2021 5:45:00 AM 13.3 55.94 0.771 8.1 0.67 7.68
4/10/2021 6:00:00 AM 13.29 55.922 0.771 8.1 0.68 7.74
4/10/2021 6:15:00 AM 13.27 55.886 0.77 8.1 0.77 7.7
4/10/2021 6:30:00 AM 13.25 55.85 0.77 8.1 0.64 7.75
4/10/2021 6:45:00 AM 13.23 55.814 0.769 8.1 2.24 7.74
4/10/2021 7:00:00 AM 13.22 55.796 0.766 8.1 0.33 7.74
4/10/2021 7:15:00 AM 13.21 55.778 0.766 8.1 1.13 7.78
4/10/2021 7:30:00 AM 13.21 55.778 0.767 8.11 -0.21 7.81
4/10/2021 7:45:00 AM 13.21 55.778 0.764 8.11 0.19 7.93
4/10/2021 8:00:00 AM 13.21 55.778 0.767 8.11 0.62 7.95
4/10/2021 8:15:00 AM 13.21 55.778 0.763 8.12 0.18 8.04
4/10/2021 8:30:00 AM 13.22 55.796 0.764 8.12 0.13 8.14
4/10/2021 8:45:00 AM 13.24 55.832 0.764 8.13 0.08 8.2
4/10/2021 9:00:00 AM 13.26 55.868 0.763 8.13 1 8.34
4/10/2021 9:15:00 AM 13.28 55.904 0.762 8.14 0.21 8.44
4/10/2021 9:30:00 AM 13.31 55.958 0.761 8.15 0.4 8.56
4/10/2021 9:45:00 AM 13.36 56.048 0.761 8.16 0.04 8.73
4/10/2021 10:00:00 AM 13.43 56.174 0.76 8.17 0.14 8.88
4/10/2021 10:15:00 AM 13.48 56.264 0.76 8.19 1.93 9.08
4/10/2021 10:30:00 AM 13.52 56.336 0.76 8.2 0.52 9.32
4/10/2021 10:45:00 AM 13.56 56.408 0.759 8.21 0.25 9.43
4/10/2021 11:00:00 AM 13.62 56.516 0.759 8.22 2.83 9.56
4/10/2021 11:15:00 AM 13.66 56.588 0.759 8.23 0.51 9.66
4/10/2021 11:30:00 AM 13.68 56.624 0.759 8.24 0.13 9.69
4/10/2021 11:45:00 AM 13.73 56.714 0.752 8.25 0.07 9.75
4/10/2021 12:00:00 PM 13.8 56.84 0.751 8.26 -0.04 9.84
4/10/2021 12:15:00 PM 13.86 56.948 0.751 8.27 0.38 9.98
4/10/2021 12:30:00 PM 13.92 57.056 0.751 8.28 1.09 10.13
4/10/2021 12:45:00 PM 13.96 57.128 0.75 8.3 0.86 10.2
4/10/2021 1:00:00 PM 14 57.2 0.751 8.31 0.43 10.36
4/10/2021 1:15:00 PM 14.03 57.254 0.751 8.32 0.07 10.37
4/10/2021 1:30:00 PM 14.1 57.38 0.751 8.32 2.63 10.33
4/10/2021 1:45:00 PM 14.28 57.704 0.75 8.34 2.98 10.6
4/10/2021 2:00:00 PM 14.43 57.974 0.75 8.35 0.7 10.77
4/10/2021 2:15:00 PM 14.61 58.298 0.75 8.37 0.24 10.98
4/10/2021 2:30:00 PM 14.74 58.532 0.75 8.39 0.66 11.15
4/10/2021 2:45:00 PM 14.87 58.766 0.749 8.4 0.79 11.22
4/10/2021 3:00:00 PM 14.96 58.928 0.749 8.42 0.2 11.3
4/10/2021 3:15:00 PM 15.12 59.216 0.749 8.43 6.94 11.43
4/10/2021 3:30:00 PM 15.23 59.414 0.749 8.44 0.88 11.59
4/10/2021 3:45:00 PM 15.29 59.522 0.749 8.45 0.2 11.54
4/10/2021 4:00:00 PM 15.43 59.774 0.749 8.46 1.01 11.64
4/10/2021 4:15:00 PM 15.46 59.828 0.749 8.47 0.68 11.56
4/10/2021 4:30:00 PM 15.54 59.972 0.749 8.47 0.55 11.5
4/10/2021 4:45:00 PM 15.6 60.08 0.748 8.48 0.36 11.49
4/10/2021 5:00:00 PM 15.62 60.116 0.749 8.48 0.08 11.46
4/10/2021 5:15:00 PM 15.62 60.116 0.749 8.49 2.43 11.37
4/10/2021 5:30:00 PM 15.61 60.098 0.749 8.48 0.74 11.2
4/10/2021 5:45:00 PM 15.6 60.08 0.749 8.48 0.35 11.04
4/10/2021 6:00:00 PM 15.58 60.044 0.749 8.48 0.88 10.89
4/10/2021 6:15:00 PM 15.55 59.99 0.75 8.47 0.27 10.76
4/10/2021 6:30:00 PM 15.51 59.918 0.75 8.47 0.74 10.64
4/10/2021 6:45:00 PM 15.47 59.846 0.75 8.46 0.47 10.5
4/10/2021 7:00:00 PM 15.42 59.756 0.751 8.45 0.33 10.3
4/10/2021 7:15:00 PM 15.38 59.684 0.751 8.44 0.34 10.1
4/10/2021 7:30:00 PM 15.33 59.594 0.751 8.43 0.71 9.91
4/10/2021 7:45:00 PM 15.28 59.504 0.751 8.42 0.14 9.7
4/10/2021 8:00:00 PM 15.23 59.414 0.751 8.4 0.67 9.55
4/10/2021 8:15:00 PM 15.19 59.342 0.752 8.39 0.09 9.37
4/10/2021 8:30:00 PM 15.15 59.27 0.742 8.38 0.91 9.21
4/10/2021 8:45:00 PM 15.11 59.198 0.752 8.36 0.15 9.06
4/10/2021 9:00:00 PM 15.06 59.108 0.752 8.35 0.43 8.92
4/10/2021 9:15:00 PM 15.02 59.036 0.75 8.34 0.26 8.8
4/10/2021 9:30:00 PM 14.97 58.946 0.75 8.32 0.06 8.65
4/10/2021 9:45:00 PM 14.92 58.856 0.75 8.31 0.15 8.57
4/10/2021 10:00:00 PM 14.87 58.766 0.75 8.3 1.07 8.39
4/10/2021 10:15:00 PM 14.81 58.658 0.749 8.28 1.04 8.33
4/10/2021 10:30:00 PM 14.74 58.532 0.749 8.27 1.1 8.21
4/10/2021 10:45:00 PM 14.68 58.424 0.748 8.25 0.12 8.14
4/10/2021 11:00:00 PM 14.62 58.316 0.748 8.24 0.23 8.04
4/10/2021 11:15:00 PM 14.57 58.226 0.748 8.23 0.41 7.96
4/10/2021 11:30:00 PM 14.51 58.118 0.748 8.22 0.2 7.9
4/10/2021 11:45:00 PM 14.45 58.01 0.747 8.2 0.23 7.82
4/11/2021 12:00:00 AM 14.39 57.902 0.747 8.19 0.63 7.75
4/11/2021 12:15:00 AM 14.33 57.794 0.747 8.18 0.5 7.69
4/11/2021 12:30:00 AM 14.28 57.704 0.747 8.17 1.36 7.66
4/11/2021 12:45:00 AM 14.23 57.614 0.747 8.16 0.77 7.63
4/11/2021 1:00:00 AM 14.19 57.542 0.747 8.15 2.3 7.59
4/11/2021 1:15:00 AM 14.14 57.452 0.747 8.15 1.32 7.57
4/11/2021 1:30:00 AM 14.1 57.38 0.748 8.14 0.73 7.55
4/11/2021 1:45:00 AM 14.05 57.29 0.748 8.13 0.78 7.51
4/11/2021 2:00:00 AM 14.01 57.218 0.748 8.13 0.32 7.53
4/11/2021 2:15:00 AM 13.98 57.164 0.748 8.12 1.2 7.49
4/11/2021 2:30:00 AM 13.94 57.092 0.748 8.11 0.7 7.43
4/11/2021 2:45:00 AM 13.92 57.056 0.748 8.11 0.32 7.46
4/11/2021 3:00:00 AM 13.89 57.002 0.747 8.11 0.79 7.47
4/11/2021 3:15:00 AM 13.87 56.966 0.747 8.1 1.94 7.46
4/11/2021 3:30:00 AM 13.84 56.912 0.746 8.1 0.98 7.45
4/11/2021 3:45:00 AM 13.82 56.876 0.745 8.1 0.6 7.5
4/11/2021 4:00:00 AM 13.8 56.84 0.744 8.09 0.5 7.46
4/11/2021 4:15:00 AM 13.79 56.822 0.743 8.09 1.67 7.45
4/11/2021 4:30:00 AM 13.78 56.804 0.741 8.09 0.91 7.42
4/11/2021 4:45:00 AM 13.77 56.786 0.739 8.09 1.65 7.45
4/11/2021 5:00:00 AM 13.76 56.768 0.739 8.09 0.31 7.43
4/11/2021 5:15:00 AM 13.75 56.75 0.737 8.09 1.43 7.46
4/11/2021 5:30:00 AM 13.74 56.732 0.736 8.08 0.89 7.4
4/11/2021 5:45:00 AM 13.74 56.732 0.734 8.08 1.26 7.46
4/11/2021 6:00:00 AM 13.74 56.732 0.732 8.08 0.95 7.45
4/11/2021 6:15:00 AM 13.75 56.75 0.729 8.08 1.16 7.46
4/11/2021 6:30:00 AM 13.75 56.75 0.726 8.08 2.34 7.49
4/11/2021 6:45:00 AM 13.75 56.75 0.724 8.08 2.63 7.45
4/11/2021 7:00:00 AM 13.76 56.768 0.721 8.08 2.5 7.46
4/11/2021 7:15:00 AM 13.77 56.786 0.718 8.08 3.83 7.48
4/11/2021 7:30:00 AM 13.74 56.732 0.703 8.08 21.02 7.57
4/11/2021 7:45:00 AM 13.54 56.372 0.669 8.09 36.23 7.69
4/11/2021 8:00:00 AM 13.61 56.498 0.669 8.07 15.74 7.7
4/11/2021 8:15:00 AM 13.68 56.624 0.67 8.07 13.41 7.6
4/11/2021 8:30:00 AM 13.77 56.786 0.682 8.06 8.48 7.55
4/11/2021 8:45:00 AM 13.84 56.912 0.69 8.06 5.42 7.54
4/11/2021 9:00:00 AM 13.87 56.966 0.69 8.06 5.55 7.6
4/11/2021 9:15:00 AM 13.9 57.02 0.697 8.05 3.95 7.55
4/11/2021 9:30:00 AM 13.94 57.092 0.694 8.05 4.43 7.56
4/11/2021 9:45:00 AM 13.97 57.146 0.695 8.05 4.79 7.58
4/11/2021 10:00:00 AM 13.99 57.182 0.696 8.06 4.29 7.61
4/11/2021 10:15:00 AM 14.03 57.254 0.694 8.06 3.31 7.62
4/11/2021 10:30:00 AM 14.05 57.29 0.692 8.06 4.34 7.74
4/11/2021 10:45:00 AM 14.06 57.308 0.688 8.07 8.71 7.75
4/11/2021 11:00:00 AM 14.04 57.272 0.682 8.07 6.03 7.84
4/11/2021 11:15:00 AM 14.04 57.272 0.677 8.07 6.56 8
4/11/2021 11:30:00 AM 14.08 57.344 0.675 8.07 9.95 8.01
4/11/2021 11:45:00 AM 14.15 57.47 0.676 8.07 3109 8.11
4/11/2021 12:00:00 PM 14.22 57.596 0.678 8.08 10.42 8.25
4/11/2021 12:15:00 PM 14.3 57.74 0.675 8.08 9.44 8.2
4/11/2021 12:30:00 PM 14.38 57.884 0.673 8.09 8.44 8.24
4/11/2021 12:45:00 PM 14.54 58.172 0.671 8.1 5.07 8.29
4/11/2021 1:00:00 PM 14.66 58.388 0.667 8.11 7.59 8.61
4/11/2021 1:15:00 PM 14.71 58.478 0.664 8.12 6.48 8.65
4/11/2021 1:30:00 PM 14.79 58.622 0.629 8.13 6.77 8.75
4/11/2021 1:45:00 PM 14.93 58.874 0.65 8.14 7.09 8.87
4/11/2021 2:00:00 PM 15.15 59.27 0.653 8.16 5.87 9.16
4/11/2021 2:15:00 PM 15.36 59.648 0.652 8.17 6.86 9.42
4/11/2021 2:30:00 PM 15.44 59.792 0.656 8.19 11.04 9.51
4/11/2021 2:45:00 PM 15.47 59.846 0.653 8.2 5.63 9.56
4/11/2021 3:00:00 PM 15.75 60.35 0.653 8.21 3.5 9.77
4/11/2021 3:15:00 PM 15.76 60.368 0.651 8.22 5.65 9.85
4/11/2021 3:30:00 PM 15.72 60.296 0.65 8.23 3.64 9.77
4/11/2021 3:45:00 PM 15.77 60.386 0.65 8.23 6.45 9.69
4/11/2021 4:00:00 PM 15.88 60.584 0.653 8.23 3.31 9.7
4/11/2021 4:15:00 PM 16.01 60.818 0.652 8.25 4.29 9.83
4/11/2021 4:30:00 PM 15.99 60.782 0.651 8.25 3.22 9.82
4/11/2021 4:45:00 PM 16.07 60.926 0.649 8.25 4.55 9.65
4/11/2021 5:00:00 PM 16.09 60.962 0.648 8.25 4.37 9.62
4/11/2021 5:15:00 PM 16.1 60.98 0.646 8.24 5.76 9.54
4/11/2021 5:30:00 PM 16.11 60.998 0.644 8.23 9.71 9.36
4/11/2021 5:45:00 PM 16.07 60.926 0.638 8.23 9.88 9.2
4/11/2021 6:00:00 PM 16.06 60.908 0.643 8.22 7.96 9.05
4/11/2021 6:15:00 PM 16.05 60.89 0.634 8.21 7.08 8.93
4/11/2021 6:30:00 PM 16.04 60.872 0.638 8.2 5.39 8.78
4/11/2021 6:45:00 PM 16.04 60.872 0.641 8.18 8.34 8.62
4/11/2021 7:00:00 PM 16.05 60.89 0.64 8.17 8.26 8.51
4/11/2021 7:15:00 PM 16.03 60.854 0.642 8.16 5.48 8.38
4/11/2021 7:30:00 PM 16.01 60.818 0.637 8.15 8.05 8.23
4/11/2021 7:45:00 PM 15.99 60.782 0.639 8.14 8.08 8.1
4/11/2021 8:00:00 PM 15.97 60.746 0.643 8.13 9.22 8.07
4/11/2021 8:15:00 PM 15.96 60.728 0.652 8.12 7.86 7.95
4/11/2021 8:30:00 PM 15.94 60.692 0.651 8.12 6.96 7.82
4/11/2021 8:45:00 PM 15.93 60.674 0.651 8.11 5.79 7.78
4/11/2021 9:00:00 PM 15.9 60.62 0.65 8.1 5.43 7.71
4/11/2021 9:15:00 PM 15.87 60.566 0.649 8.09 6.42 7.66
4/11/2021 9:30:00 PM 15.83 60.494 0.644 8.08 5.92 7.59
4/11/2021 9:45:00 PM 15.78 60.404 0.608 8.07 4.97 7.54
4/11/2021 10:00:00 PM 15.74 60.332 0.597 8.07 5.52 7.52
4/11/2021 10:15:00 PM 15.69 60.242 0.595 8.06 6.75 7.36
4/11/2021 10:30:00 PM 15.63 60.134 0.592 8.05 6.56 7.34
4/11/2021 10:45:00 PM 15.38 59.684 0.568 8.07 53.01 7.56
4/11/2021 11:00:00 PM 15.06 59.108 0.576 8.07 99.99 7.6
4/11/2021 11:15:00 PM 14.92 58.856 0.558 8.04 64.74 7.56
4/11/2021 11:30:00 PM 14.8 58.64 0.541 8.03 61.19 7.57
4/11/2021 11:45:00 PM 14.71 58.478 0.543 8.01 59.92 7.58
4/12/2021 12:00:00 AM 14.84 58.712 0.54 7.99 53.83 7.5
4/12/2021 12:15:00 AM 14.87 58.766 0.506 7.98 38.45 7.46
4/12/2021 12:30:00 AM 14.92 58.856 0.518 7.98 29.2 7.48
4/12/2021 12:45:00 AM 14.82 58.676 0.516 7.99 35.74 7.54
4/12/2021 1:00:00 AM 14.82 58.676 0.523 7.99 39.48 7.57
4/12/2021 1:15:00 AM 14.72 58.496 0.533 7.99 41.32 7.61
4/12/2021 1:30:00 AM 14.52 58.136 0.517 8 71.76 7.69
4/12/2021 1:45:00 AM 14.33 57.794 0.497 7.99 114.2 7.74
4/12/2021 2:00:00 AM 14.17 57.506 0.502 7.99 144.8 7.86
4/12/2021 2:15:00 AM 14.11 57.398 0.483 7.98 174 7.86
4/12/2021 2:30:00 AM 14.08 57.344 0.47 7.98 182.3 7.88
4/12/2021 2:45:00 AM 14.07 57.326 0.465 7.97 190.6 7.89
4/12/2021 3:00:00 AM 14.08 57.344 0.464 7.96 161.1 7.83
4/12/2021 3:15:00 AM 14.08 57.344 0.472 7.96 152.9 6.72
4/12/2021 3:30:00 AM 14.08 57.344 0.481 7.96 106.2 7.92
4/12/2021 3:45:00 AM 14.1 57.38 0.489 7.95 102.1 7.87
4/12/2021 4:00:00 AM 14.09 57.362 0.496 7.95 94.54 7.95
4/12/2021 4:15:00 AM 14.1 57.38 0.5 7.95 63.65 7.93
4/12/2021 4:30:00 AM 14.1 57.38 0.502 7.95 76.46 7.91
4/12/2021 4:45:00 AM 14.11 57.398 0.5 7.95 78.84 7.96
4/12/2021 5:00:00 AM 14.12 57.416 0.496 7.95 61.88 7.91
4/12/2021 5:15:00 AM 14.12 57.416 0.493 7.94 61.35 7.88
4/12/2021 5:30:00 AM 14.1 57.38 0.485 7.93 55.86 7.88
4/12/2021 5:45:00 AM 14.09 57.362 0.48 7.93 68.72 7.8
4/12/2021 6:00:00 AM 14.07 57.326 0.472 7.92 56.17 7.84
4/12/2021 6:15:00 AM 14.03 57.254 0.466 7.92 48.44 7.81
4/12/2021 6:30:00 AM 13.99 57.182 0.458 7.91 44.44 7.8
4/12/2021 6:45:00 AM 13.95 57.11 0.451 7.9 52.43 7.78
4/12/2021 7:00:00 AM 13.91 57.038 0.461 7.9 44.62 7.75
4/12/2021 7:15:00 AM 13.87 56.966 0.458 7.89 49.82 7.78
4/12/2021 7:30:00 AM 13.83 56.894 0.468 7.89 44.33 7.77
4/12/2021 7:45:00 AM 13.8 56.84 0.464 7.88 42.93 7.77
4/12/2021 8:00:00 AM 13.77 56.786 0.46 7.88 38.67 7.78
4/12/2021 8:15:00 AM 13.74 56.732 0.462 7.88 39.24 7.72
4/12/2021 8:30:00 AM 13.72 56.696 0.462 7.87 39.7 7.73
4/12/2021 8:45:00 AM 13.71 56.678 0.462 7.87 40.79 7.78
4/12/2021 9:00:00 AM 13.69 56.642 0.464 7.87 44.52 7.79
4/12/2021 9:15:00 AM 13.67 56.606 0.467 7.87 38.28 7.84
4/12/2021 9:30:00 AM 13.66 56.588 0.47 7.87 42.52 7.88
4/12/2021 9:45:00 AM 13.65 56.57 0.474 7.87 45.22 7.88
4/12/2021 10:00:00 AM 13.66 56.588 0.481 7.88 45.89 7.89
4/12/2021 10:15:00 AM 13.68 56.624 0.487 7.88 35.81 7.98
4/12/2021 10:30:00 AM 13.67 56.606 0.493 7.88 40.09 7.99
4/12/2021 10:45:00 AM 13.68 56.624 0.499 7.89 34.77 8.04
4/12/2021 11:00:00 AM 13.69 56.642 0.507 7.89 45.18 8.11
4/12/2021 11:15:00 AM 13.7 56.66 0.512 7.9 42.15 8.18
4/12/2021 11:30:00 AM 13.7 56.66 0.515 7.9 30.37 8.22
4/12/2021 11:45:00 AM 13.7 56.66 0.516 7.91 32.14 8.24
4/12/2021 12:00:00 PM 13.7 56.66 0.512 7.92 31.68 8.29
4/12/2021 12:15:00 PM 13.69 56.642 0.494 7.92 28.16 8.31
4/12/2021 12:30:00 PM 13.69 56.642 0.515 7.92 29.91 8.34
4/12/2021 12:45:00 PM 13.67 56.606 0.517 7.93 33.14 8.36
4/12/2021 1:00:00 PM 13.65 56.57 0.517 7.93 29.86 8.37
4/12/2021 1:15:00 PM 13.67 56.606 0.52 7.93 24.09 8.38
4/12/2021 1:30:00 PM 13.69 56.642 0.522 7.94 28.18 8.45
4/12/2021 1:45:00 PM 13.7 56.66 0.525 7.95 25.55 8.49
4/12/2021 2:00:00 PM 13.71 56.678 0.528 7.95 25.67 8.49
4/12/2021 2:15:00 PM 13.73 56.714 0.532 7.95 27.9 8.54
4/12/2021 2:30:00 PM 13.74 56.732 0.536 7.96 23.23 8.57
4/12/2021 2:45:00 PM 13.76 56.768 0.541 7.96 24.6 8.56
4/12/2021 3:00:00 PM 13.77 56.786 0.542 7.97 27.93 8.61
4/12/2021 3:15:00 PM 13.79 56.822 0.544 7.98 17.33 8.63
4/12/2021 3:30:00 PM 13.79 56.822 0.548 7.98 19.96 8.68
4/12/2021 3:45:00 PM 13.78 56.804 0.551 7.98 16.5 8.64
4/12/2021 4:00:00 PM 13.77 56.786 0.553 7.99 16.62 8.62
4/12/2021 4:15:00 PM 13.77 56.786 0.557 8 14.61 8.66
4/12/2021 4:30:00 PM 13.77 56.786 0.558 8 21.93 8.71
4/12/2021 4:45:00 PM 13.75 56.75 0.559 8.01 14.46 8.7
4/12/2021 5:00:00 PM 13.74 56.732 0.562 8.01 13.41 8.69
4/12/2021 5:15:00 PM 13.72 56.696 0.562 8.02 14.43 8.69
4/12/2021 5:30:00 PM 13.7 56.66 0.562 8.02 13.92 8.68
4/12/2021 5:45:00 PM 13.66 56.588 0.56 8.03 15.8 8.65
4/12/2021 6:00:00 PM 13.63 56.534 0.559 8.02 17.54 8.59
4/12/2021 6:15:00 PM 13.59 56.462 0.555 8.02 21.84 8.58
4/12/2021 6:30:00 PM 13.55 56.39 0.551 8.02 16.6 8.52
4/12/2021 6:45:00 PM 13.5 56.3 0.547 8.02 13.57 8.48
4/12/2021 7:00:00 PM 13.45 56.21 0.542 8.02 16.64 8.43
4/12/2021 7:15:00 PM 13.41 56.138 0.535 8.02 15.74 8.35
4/12/2021 7:30:00 PM 13.36 56.048 0.533 8.01 15.04 8.29
4/12/2021 7:45:00 PM 13.3 55.94 0.529 8.01 15.37 8.27
4/12/2021 8:00:00 PM 13.25 55.85 0.525 8.01 17.83 8.25
4/12/2021 8:15:00 PM 13.21 55.778 0.521 8 17.24 8.24
4/12/2021 8:30:00 PM 13.16 55.688 0.52 8 19.35 8.22
4/12/2021 8:45:00 PM 13.11 55.598 0.518 7.99 16.39 8.22
4/12/2021 9:00:00 PM 13.06 55.508 0.518 7.99 14.81 8.13
4/12/2021 9:15:00 PM 13.02 55.436 0.518 7.98 17.6 8.15
4/12/2021 9:30:00 PM 12.97 55.346 0.519 7.98 15.75 8.16
4/12/2021 9:45:00 PM 12.93 55.274 0.521 7.98 16.9 8.11
4/12/2021 10:00:00 PM 12.89 55.202 0.523 7.98 15.11 8.06
4/12/2021 10:15:00 PM 12.85 55.13 0.526 7.97 14.92 8.07
4/12/2021 10:30:00 PM 12.81 55.058 0.529 7.97 12.58 8.1
4/12/2021 10:45:00 PM 12.78 55.004 0.534 7.97 12.57 8.04
4/12/2021 11:00:00 PM 12.74 54.932 0.538 7.97 13.14 8.02
4/12/2021 11:15:00 PM 12.71 54.878 0.542 7.97 12.28 8.09
4/12/2021 11:30:00 PM 12.68 54.824 0.546 7.97 13.59 8.06
4/12/2021 11:45:00 PM 12.64 54.752 0.551 7.97 12.96 8.03
4/13/2021 12:00:00 AM 12.61 54.698 0.555 7.97 12.01 8.06
4/13/2021 12:15:00 AM 12.58 54.644 0.559 7.97 9.42 8.05
4/13/2021 12:30:00 AM 12.56 54.608 0.563 7.97 10.93 8.08
4/13/2021 12:45:00 AM 12.53 54.554 0.567 7.98 11.17 8.1
4/13/2021 1:00:00 AM 12.5 54.5 0.57 7.98 9.22 8.11
4/13/2021 1:15:00 AM 12.47 54.446 0.574 7.98 9.91 8.11
4/13/2021 1:30:00 AM 12.44 54.392 0.577 7.98 10.79 8.06
4/13/2021 1:45:00 AM 12.42 54.356 0.581 7.98 10.27 8.07
4/13/2021 2:00:00 AM 12.39 54.302 0.583 7.98 9.46 8.11
4/13/2021 2:15:00 AM 12.37 54.266 0.585 7.98 9.93 8.11
4/13/2021 2:30:00 AM 12.34 54.212 0.588 7.98 9.95 8.09
4/13/2021 2:45:00 AM 12.31 54.158 0.59 7.99 9.47 8.15
4/13/2021 3:00:00 AM 12.29 54.122 0.592 7.98 9.27 8.14
4/13/2021 3:15:00 AM 12.27 54.086 0.593 7.99 10.18 8.15
4/13/2021 3:30:00 AM 12.24 54.032 0.595 7.99 10.63 8.17
4/13/2021 3:45:00 AM 12.22 53.996 0.596 7.99 9.19 8.18
4/13/2021 4:00:00 AM 12.19 53.942 0.596 7.98 11.37 8.17
4/13/2021 4:15:00 AM 12.17 53.906 0.597 7.99 8.34 8.14
4/13/2021 4:30:00 AM 12.15 53.87 0.598 7.99 10.49 8.15
4/13/2021 4:45:00 AM 12.12 53.816 0.599 7.99 9.63 8.14
4/13/2021 5:00:00 AM 12.1 53.78 0.598 7.99 9.19 8.13
4/13/2021 5:15:00 AM 12.07 53.726 0.599 7.99 13.99 8.14
4/13/2021 5:30:00 AM 12.05 53.69 0.6 7.99 9.3 8.12
4/13/2021 5:45:00 AM 12.03 53.654 0.598 7.99 9.28 8.14
4/13/2021 6:00:00 AM 12.01 53.618 0.598 7.99 9.68 8.16
4/13/2021 6:15:00 AM 11.99 53.582 0.598 7.99 9.77 8.18
4/13/2021 6:30:00 AM 11.97 53.546 0.598 7.99 10.04 8.16
4/13/2021 6:45:00 AM 11.95 53.51 0.596 7.99 13.98 8.2
4/13/2021 7:00:00 AM 11.93 53.474 0.595 7.99 8.64 8.21
4/13/2021 7:15:00 AM 11.92 53.456 0.594 7.99 8.09 8.26
4/13/2021 7:30:00 AM 11.91 53.438 0.594 7.99 8.29 8.28
4/13/2021 7:45:00 AM 11.9 53.42 0.592 7.99 8.98 8.33
4/13/2021 8:00:00 AM 11.9 53.42 0.591 7.99 8.9 8.39
4/13/2021 8:15:00 AM 11.9 53.42 0.59 7.99 7.36 8.43
4/13/2021 8:30:00 AM 11.9 53.42 0.588 7.99 9.13 8.46
4/13/2021 8:45:00 AM 11.91 53.438 0.588 7.99 6.63 8.53
4/13/2021 9:00:00 AM 11.93 53.474 0.587 7.99 6.34 8.65
4/13/2021 9:15:00 AM 11.93 53.474 0.585 8 7.69 8.67
4/13/2021 9:30:00 AM 11.94 53.492 0.585 8 6.85 8.72
4/13/2021 9:45:00 AM 11.96 53.528 0.584 8.01 6.78 8.82
4/13/2021 10:00:00 AM 11.98 53.564 0.584 8.01 6.52 8.95
4/13/2021 10:15:00 AM 12.01 53.618 0.582 8.02 6.37 9.05
4/13/2021 10:30:00 AM 12.08 53.744 0.581 8.02 5.55 9.13
4/13/2021 10:45:00 AM 12.15 53.87 0.58 8.03 7.98 9.32
4/13/2021 11:00:00 AM 12.34 54.212 0.579 8.04 5.32 9.53
4/13/2021 11:15:00 AM 12.48 54.464 0.578 8.05 6.44 9.7
4/13/2021 11:30:00 AM 12.65 54.77 0.577 8.05 5.98 9.87
4/13/2021 11:45:00 AM 12.87 55.166 0.576 8.06 5.63 10
4/13/2021 12:00:00 PM 12.95 55.31 0.576 8.07 5.25 10.14
4/13/2021 12:15:00 PM 12.98 55.364 0.575 8.08 5.17 10.16
4/13/2021 12:30:00 PM 13.1 55.58 0.574 8.09 7.13 10.24
4/13/2021 12:45:00 PM 13.13 55.634 0.573 8.11 5.89 10.3
4/13/2021 1:00:00 PM 13.17 55.706 0.574 8.12 5 10.35
4/13/2021 1:15:00 PM 13.45 56.21 0.573 8.12 5.19 10.43
4/13/2021 1:30:00 PM 13.72 56.696 0.573 8.14 8.32 10.69
4/13/2021 1:45:00 PM 13.78 56.804 0.573 8.14 4.05 10.73
4/13/2021 2:00:00 PM 13.82 56.876 0.573 8.16 3.66 10.73
4/13/2021 2:15:00 PM 13.94 57.092 0.573 8.17 3.51 10.71
4/13/2021 2:30:00 PM 14.04 57.272 0.573 8.18 3.77 10.77
4/13/2021 2:45:00 PM 14.12 57.416 0.573 8.19 5.58 10.82
4/13/2021 3:00:00 PM 14.16 57.488 0.574 8.2 3 10.77
4/13/2021 3:15:00 PM 14.23 57.614 0.574 8.2 5.45 10.69
4/13/2021 3:30:00 PM 14.36 57.848 0.574 8.2 4.11 10.7
4/13/2021 3:45:00 PM 14.48 58.064 0.575 8.21 4.01 10.77
4/13/2021 4:00:00 PM 14.51 58.118 0.575 8.22 2.99 10.69
4/13/2021 4:15:00 PM 14.58 58.244 0.575 8.22 3.89 10.57
4/13/2021 4:30:00 PM 14.67 58.406 0.576 8.22 3.71 10.52
4/13/2021 4:45:00 PM 14.73 58.514 0.577 8.23 3.15 10.54
4/13/2021 5:00:00 PM 14.78 58.604 0.578 8.23 3.43 10.48
4/13/2021 5:15:00 PM 14.84 58.712 0.578 8.23 3.8 10.4
4/13/2021 5:30:00 PM 14.84 58.712 0.58 8.24 4.3 10.25
4/13/2021 5:45:00 PM 14.83 58.694 0.581 8.24 4.11 10.1
4/13/2021 6:00:00 PM 14.82 58.676 0.583 8.24 3.19 9.99
4/13/2021 6:15:00 PM 14.79 58.622 0.584 8.23 3.41 9.85
4/13/2021 6:30:00 PM 14.75 58.55 0.584 8.23 3.77 9.68
4/13/2021 6:45:00 PM 14.7 58.46 0.586 8.22 5.14 9.53
4/13/2021 7:00:00 PM 14.65 58.37 0.587 8.21 2.4 9.44
4/13/2021 7:15:00 PM 14.6 58.28 0.589 8.2 2.74 9.29
4/13/2021 7:30:00 PM 14.54 58.172 0.59 8.2 2.92 9.18
4/13/2021 7:45:00 PM 14.48 58.064 0.592 8.19 2.25 9.1
4/13/2021 8:00:00 PM 14.41 57.938 0.594 8.18 2.51 8.98
4/13/2021 8:15:00 PM 14.34 57.812 0.595 8.17 2.26 8.82
4/13/2021 8:30:00 PM 14.26 57.668 0.596 8.16 3.73 8.71
4/13/2021 8:45:00 PM 14.19 57.542 0.598 8.16 3.2 8.62
4/13/2021 9:00:00 PM 14.12 57.416 0.599 8.14 3.6 8.53
4/13/2021 9:15:00 PM 14.04 57.272 0.6 8.14 3.67 8.5
4/13/2021 9:30:00 PM 13.96 57.128 0.602 8.13 3.62 8.4
4/13/2021 9:45:00 PM 13.88 56.984 0.603 8.12 2.62 8.3
4/13/2021 10:00:00 PM 13.8 56.84 0.604 8.11 4.62 8.28
4/13/2021 10:15:00 PM 13.71 56.678 0.605 8.11 3.1 8.18
4/13/2021 10:30:00 PM 13.63 56.534 0.607 8.1 3.06 8.11
4/13/2021 10:45:00 PM 13.55 56.39 0.607 8.1 2.55 8.09
4/13/2021 11:00:00 PM 13.46 56.228 0.608 8.09 3.93 8.11
4/13/2021 11:15:00 PM 13.38 56.084 0.61 8.08 3.75 8.06
4/13/2021 11:30:00 PM 13.3 55.94 0.611 8.08 3.15 8.05
4/13/2021 11:45:00 PM 13.22 55.796 0.612 8.08 3.2 8.04
4/14/2021 12:00:00 AM 13.14 55.652 0.613 8.08 2.84 8.03
4/14/2021 12:15:00 AM 13.07 55.526 0.614 8.07 3.11 8.02
4/14/2021 12:30:00 AM 12.99 55.382 0.616 8.07 2.75 8.01
4/14/2021 12:45:00 AM 12.92 55.256 0.617 8.07 2.98 8.03
4/14/2021 1:00:00 AM 12.85 55.13 0.619 8.06 4.82 7.97
4/14/2021 1:15:00 AM 12.78 55.004 0.621 8.06 3.21 7.96
4/14/2021 1:30:00 AM 12.71 54.878 0.622 8.06 10.49 7.96
4/14/2021 1:45:00 AM 12.65 54.77 0.624 8.06 4.95 7.96
4/14/2021 2:00:00 AM 12.58 54.644 0.626 8.06 3.3 8
4/14/2021 2:15:00 AM 12.52 54.536 0.628 8.06 2.38 8.02
4/14/2021 2:30:00 AM 12.46 54.428 0.631 8.05 3.91 8.04
4/14/2021 2:45:00 AM 12.4 54.32 0.633 8.05 3.2 8.02
4/14/2021 3:00:00 AM 12.34 54.212 0.636 8.05 2.77 8
4/14/2021 3:15:00 AM 12.29 54.122 0.639 8.05 2.67 8.04
4/14/2021 3:30:00 AM 12.24 54.032 0.642 8.05 2.9 8.06
4/14/2021 3:45:00 AM 12.19 53.942 0.645 8.06 3.76 8.06
4/14/2021 4:00:00 AM 12.15 53.87 0.648 8.06 3.21 8.11
4/14/2021 4:15:00 AM 12.11 53.798 0.652 8.05 3.92 8.11
4/14/2021 4:30:00 AM 12.06 53.708 0.655 8.05 4.62 8.12
4/14/2021 4:45:00 AM 12.02 53.636 0.659 8.06 2.46 8.15
4/14/2021 5:00:00 AM 11.98 53.564 0.662 8.06 2.8 8.17
4/14/2021 5:15:00 AM 11.95 53.51 0.666 8.06 3.63 8.14
4/14/2021 5:30:00 AM 11.91 53.438 0.669 8.06 1.95 8.18
4/14/2021 5:45:00 AM 11.88 53.384 0.672 8.06 4.76 8.19
4/14/2021 6:00:00 AM 11.86 53.348 0.675 8.06 2.86 8.22
4/14/2021 6:15:00 AM 11.85 53.33 0.678 8.06 2.13 8.21
4/14/2021 6:30:00 AM 11.83 53.294 0.681 8.06 1.52 8.24
4/14/2021 6:45:00 AM 11.81 53.258 0.683 8.06 3.38 8.24
4/14/2021 7:00:00 AM 11.81 53.258 0.686 8.06 5.43 8.26
4/14/2021 7:15:00 AM 11.8 53.24 0.688 8.06 2.85 8.29
4/14/2021 7:30:00 AM 11.81 53.258 0.692 8.06 2.41 8.31
4/14/2021 7:45:00 AM 11.82 53.276 0.693 8.06 1.73 8.37
4/14/2021 8:00:00 AM 11.83 53.294 0.694 8.07 1.76 8.46
4/14/2021 8:15:00 AM 11.86 53.348 0.696 8.07 1.74 8.53
4/14/2021 8:30:00 AM 11.88 53.384 0.698 8.08 1.67 8.6
4/14/2021 8:45:00 AM 11.92 53.456 0.7 8.08 1.31 8.67
4/14/2021 9:00:00 AM 11.98 53.564 0.701 8.09 2.04 8.77
4/14/2021 9:15:00 AM 12.05 53.69 0.702 8.09 1.24 8.97
4/14/2021 9:30:00 AM 12.13 53.834 0.704 8.1 1.47 9.08
4/14/2021 9:45:00 AM 12.25 54.05 0.705 8.11 5.3 9.26
4/14/2021 10:00:00 AM 12.36 54.248 0.706 8.12 0.59 9.36
4/14/2021 10:15:00 AM 12.45 54.41 0.707 8.12 2.26 9.5
4/14/2021 10:30:00 AM 12.55 54.59 0.708 8.14 1.52 9.53
4/14/2021 10:45:00 AM 12.67 54.806 0.709 8.15 1.36 9.7
4/14/2021 11:00:00 AM 12.76 54.968 0.71 8.15 1.01 9.84
4/14/2021 11:15:00 AM 12.82 55.076 0.712 8.16 1.73 9.87
4/14/2021 11:30:00 AM 12.87 55.166 0.713 8.17 2.22 9.87
4/14/2021 11:45:00 AM 12.94 55.292 0.714 8.17 1.07 9.86
4/14/2021 12:00:00 PM 13.06 55.508 0.715 8.18 0.63 9.98
4/14/2021 12:15:00 PM 13.17 55.706 0.713 8.19 0.62 10.17
4/14/2021 12:30:00 PM 13.28 55.904 0.716 8.2 2.01 10.29
4/14/2021 12:45:00 PM 13.35 56.03 0.717 8.22 0.28 10.28
4/14/2021 1:00:00 PM 13.41 56.138 0.718 8.23 1.02 10.26
4/14/2021 1:15:00 PM 13.52 56.336 0.718 8.23 0.78 10.35
4/14/2021 1:30:00 PM 13.6 56.48 0.719 8.24 0.51 10.45
4/14/2021 1:45:00 PM 13.62 56.516 0.72 8.25 0.82 10.45
4/14/2021 2:00:00 PM 13.65 56.57 0.721 8.26 0.87 10.35
4/14/2021 2:15:00 PM 13.71 56.678 0.721 8.26 1.12 10.21
4/14/2021 2:30:00 PM 13.76 56.768 0.721 8.27 4.99 10.26
4/14/2021 2:45:00 PM 13.8 56.84 0.722 8.28 5.56 10.3
4/14/2021 3:00:00 PM 13.84 56.912 0.724 8.29 1.39 10.24
4/14/2021 3:15:00 PM 13.88 56.984 0.724 8.29 1.42 10.25
4/14/2021 3:30:00 PM 13.9 57.02 0.725 8.29 0.28 10.15
4/14/2021 3:45:00 PM 13.92 57.056 0.726 8.3 1.53 10.09
4/14/2021 4:00:00 PM 13.92 57.056 0.726 8.3 1.15 9.95
4/14/2021 4:15:00 PM 13.94 57.092 0.727 8.3 1.24 9.91
4/14/2021 4:30:00 PM 13.96 57.128 0.728 8.3 0.51 9.85
4/14/2021 4:45:00 PM 13.98 57.164 0.728 8.3 1.36 9.8
4/14/2021 5:00:00 PM 14 57.2 0.729 8.3 1.49 9.75
4/14/2021 5:15:00 PM 14.01 57.218 0.729 8.3 0.95 9.72
4/14/2021 5:30:00 PM 14.02 57.236 0.73 8.29 0.84 9.7
4/14/2021 5:45:00 PM 14.01 57.218 0.731 8.29 0.95 9.6
4/14/2021 6:00:00 PM 14 57.2 0.732 8.29 0.53 9.52
4/14/2021 6:15:00 PM 13.99 57.182 0.733 8.28 0.63 9.44
4/14/2021 6:30:00 PM 13.98 57.164 0.733 8.28 0.7 9.27
4/14/2021 6:45:00 PM 13.96 57.128 0.734 8.27 0.42 9.24
4/14/2021 7:00:00 PM 13.94 57.092 0.735 8.27 0.24 9.16
4/14/2021 7:15:00 PM 13.92 57.056 0.736 8.26 1.4 9.05
4/14/2021 7:30:00 PM 13.89 57.002 0.736 8.26 0.65 8.97
4/14/2021 7:45:00 PM 13.87 56.966 0.737 8.25 0.74 8.88
4/14/2021 8:00:00 PM 13.83 56.894 0.738 8.24 1.27 8.75
4/14/2021 8:15:00 PM 13.8 56.84 0.739 8.23 1.85 8.64
4/14/2021 8:30:00 PM 13.77 56.786 0.74 8.22 1.1 8.58
4/14/2021 8:45:00 PM 13.73 56.714 0.74 8.22 2.24 8.5
4/14/2021 9:00:00 PM 13.68 56.624 0.741 8.21 1.17 8.5
4/14/2021 9:15:00 PM 13.63 56.534 0.742 8.2 0.72 8.43
4/14/2021 9:30:00 PM 13.58 56.444 0.742 8.19 1.11 8.37
4/14/2021 9:45:00 PM 13.54 56.372 0.743 8.19 0.93 8.35
4/14/2021 10:00:00 PM 13.49 56.282 0.744 8.18 1.59 8.25
4/14/2021 10:15:00 PM 13.43 56.174 0.744 8.17 1.73 8.26
4/14/2021 10:30:00 PM 13.38 56.084 0.744 8.17 1.18 8.19
4/14/2021 10:45:00 PM 13.33 55.994 0.745 8.16 2.51 8.17
4/14/2021 11:00:00 PM 13.29 55.922 0.745 8.15 2.27 8.15
4/14/2021 11:15:00 PM 13.24 55.832 0.745 8.15 1.9 8.1
4/14/2021 11:30:00 PM 13.19 55.742 0.745 8.15 1.26 8.11
4/14/2021 11:45:00 PM 13.14 55.652 0.745 8.14 1.28 8.07
4/15/2021 12:00:00 AM 13.08 55.544 0.745 8.14 1.34 8.05
4/15/2021 12:15:00 AM 13.03 55.454 0.745 8.14 2.19 8.01
4/15/2021 12:30:00 AM 12.99 55.382 0.745 8.13 3.52 8.07
4/15/2021 12:45:00 AM 12.94 55.292 0.745 8.13 2.64 8.08
4/15/2021 1:00:00 AM 12.9 55.22 0.745 8.13 1.75 8.06
4/15/2021 1:15:00 AM 12.85 55.13 0.745 8.13 1.92 8.06
4/15/2021 1:30:00 AM 12.81 55.058 0.745 8.13 3.55 8.03
4/15/2021 1:45:00 AM 12.77 54.986 0.745 8.13 2.97 8.01
4/15/2021 2:00:00 AM 12.72 54.896 0.744 8.12 1.29 8.07
4/15/2021 2:15:00 AM 12.68 54.824 0.744 8.12 1.41 8.05
4/15/2021 2:30:00 AM 12.63 54.734 0.744 8.12 1.49 8.06
4/15/2021 2:45:00 AM 12.59 54.662 0.744 8.12 2.07 8.06
4/15/2021 3:00:00 AM 12.56 54.608 0.744 8.12 2.07 8.1
4/15/2021 3:15:00 AM 12.52 54.536 0.745 8.12 1.54 8.09
4/15/2021 3:30:00 AM 12.51 54.518 0.744 8.11 1.44 8.13
4/15/2021 3:45:00 AM 12.47 54.446 0.745 8.12 1.66 8.14
4/15/2021 4:00:00 AM 12.44 54.392 0.745 8.12 3.07 8.12
4/15/2021 4:15:00 AM 12.42 54.356 0.745 8.12 1.11 8.14
4/15/2021 4:30:00 AM 12.4 54.32 0.746 8.12 3.18 8.18
4/15/2021 4:45:00 AM 12.38 54.284 0.746 8.12 4.42 8.17
4/15/2021 5:00:00 AM 12.35 54.23 0.746 8.12 2.18 8.19
4/15/2021 5:15:00 AM 12.33 54.194 0.747 8.11 1.64 8.2
4/15/2021 5:30:00 AM 12.33 54.194 0.747 8.12 2.45 8.23
4/15/2021 5:45:00 AM 12.32 54.176 0.747 8.11 2.54 8.21
4/15/2021 6:00:00 AM 12.32 54.176 0.748 8.11 1.8 8.2
4/15/2021 6:15:00 AM 12.31 54.158 0.749 8.11 3.46 8.19
4/15/2021 6:30:00 AM 12.31 54.158 0.749 8.11 3.83 8.2
4/15/2021 6:45:00 AM 12.31 54.158 0.749 8.11 4.44 8.29
4/15/2021 7:00:00 AM 12.31 54.158 0.75 8.11 1.53 8.21
4/15/2021 7:15:00 AM 12.33 54.194 0.75 8.11 2.21 8.24
4/15/2021 7:30:00 AM 12.34 54.212 0.751 8.11 1.85 8.27
4/15/2021 7:45:00 AM 12.35 54.23 0.752 8.11 2.7 8.28
4/15/2021 8:00:00 AM 12.37 54.266 0.752 8.11 1.39 8.29
4/15/2021 8:15:00 AM 12.38 54.284 0.753 8.11 2.33 8.35
4/15/2021 8:30:00 AM 12.41 54.338 0.754 8.11 1.5 8.36
4/15/2021 8:45:00 AM 12.46 54.428 0.754 8.12 1.79 8.46
4/15/2021 9:00:00 AM 12.5 54.5 0.755 8.12 2.38 8.64
4/15/2021 9:15:00 AM 12.56 54.608 0.755 8.13 1.2 8.76
4/15/2021 9:30:00 AM 12.59 54.662 0.756 8.14 1.94 8.82
4/15/2021 9:45:00 AM 12.63 54.734 0.757 8.14 1.43 8.89
4/15/2021 10:00:00 AM 12.66 54.788 0.757 8.15 0.91 8.99
4/15/2021 10:15:00 AM 12.72 54.896 0.758 8.16 0.82 9.12
4/15/2021 10:30:00 AM 12.78 55.004 0.759 8.17 1.04 9.25
4/15/2021 10:45:00 AM 12.81 55.058 0.76 8.17 0.9 9.34
4/15/2021 11:00:00 AM 12.83 55.094 0.76 8.18 1.02 9.35
4/15/2021 11:15:00 AM 12.92 55.256 0.761 8.19 0.55 9.42
4/15/2021 11:30:00 AM 13 55.4 0.762 8.2 1.07 9.67
4/15/2021 11:45:00 AM 13.14 55.652 0.762 8.21 0.78 9.86
4/15/2021 12:00:00 PM 13.42 56.156 0.763 8.22 1.53 10.06
4/15/2021 12:15:00 PM 13.6 56.48 0.764 8.23 0.76 10.21
4/15/2021 12:30:00 PM 13.8 56.84 0.764 8.24 1.74 10.38
4/15/2021 12:45:00 PM 13.82 56.876 0.765 8.25 2.59 10.48
4/15/2021 1:00:00 PM 13.81 56.858 0.766 8.26 0.9 10.46
4/15/2021 1:15:00 PM 13.98 57.164 0.767 8.27 1.38 10.48
4/15/2021 1:30:00 PM 14.12 57.416 0.767 8.28 1.01 10.67
4/15/2021 1:45:00 PM 14.18 57.524 0.768 8.29 1.16 10.7
4/15/2021 2:00:00 PM 14.4 57.92 0.769 8.3 1.38 10.71
4/15/2021 2:15:00 PM 14.39 57.902 0.77 8.3 1.28 10.81
4/15/2021 2:30:00 PM 14.32 57.776 0.77 8.31 0.44 10.73
4/15/2021 2:45:00 PM 14.42 57.956 0.771 8.32 0.57 10.69
4/15/2021 3:00:00 PM 14.46 58.028 0.771 8.33 0.69 10.75
4/15/2021 3:15:00 PM 14.54 58.172 0.771 8.34 0.91 10.86
4/15/2021 3:30:00 PM 14.63 58.334 0.771 8.35 2.31 10.81
4/15/2021 3:45:00 PM 14.68 58.424 0.772 8.35 1.27 10.8
4/15/2021 4:00:00 PM 14.61 58.298 0.773 8.36 0.78 10.74
4/15/2021 4:15:00 PM 14.61 58.298 0.773 8.36 0.99 10.68
4/15/2021 4:30:00 PM 14.72 58.496 0.773 8.36 1.04 10.66
4/15/2021 4:45:00 PM 14.67 58.406 0.774 8.37 0.76 10.63
4/15/2021 5:00:00 PM 14.66 58.388 0.774 8.37 1.06 10.57
4/15/2021 5:15:00 PM 14.59 58.262 0.775 8.38 0.41 10.5
4/15/2021 5:30:00 PM 14.59 58.262 0.775 8.38 1.84 10.37
4/15/2021 5:45:00 PM 14.56 58.208 0.775 8.38 1.44 10.29
4/15/2021 6:00:00 PM 14.52 58.136 0.776 8.38 0.69 10.14
4/15/2021 6:15:00 PM 14.47 58.046 0.776 8.37 0.98 10.08
4/15/2021 6:30:00 PM 14.42 57.956 0.776 8.37 1.58 9.99
4/15/2021 6:45:00 PM 14.36 57.848 0.777 8.37 0.66 9.8
4/15/2021 7:00:00 PM 14.3 57.74 0.777 8.36 1.63 9.74
4/15/2021 7:15:00 PM 14.25 57.65 0.778 8.35 1.81 9.62
4/15/2021 7:30:00 PM 14.19 57.542 0.778 8.35 0.53 9.52
4/15/2021 7:45:00 PM 14.1 57.38 0.779 8.34 0.57 9.39
4/15/2021 8:00:00 PM 14.01 57.218 0.779 8.34 0.95 9.23
4/15/2021 8:15:00 PM 13.92 57.056 0.779 8.33 1.71 9.11
4/15/2021 8:30:00 PM 13.84 56.912 0.779 8.32 1.68 9.07
4/15/2021 8:45:00 PM 13.76 56.768 0.779 8.32 1.6 8.9
4/15/2021 9:00:00 PM 13.68 56.624 0.78 8.3 1.09 8.8
4/15/2021 9:15:00 PM 13.58 56.444 0.78 8.3 1.78 8.72
4/15/2021 9:30:00 PM 13.48 56.264 0.78 8.29 1 8.64
4/15/2021 9:45:00 PM 13.37 56.066 0.779 8.28 1.74 8.57
4/15/2021 10:00:00 PM 13.27 55.886 0.78 8.27 2.26 8.49
4/15/2021 10:15:00 PM 13.18 55.724 0.78 8.27 1.05 8.41
4/15/2021 10:30:00 PM 13.09 55.562 0.78 8.26 1.96 8.41
4/15/2021 10:45:00 PM 13 55.4 0.78 8.26 2.64 8.42
4/15/2021 11:00:00 PM 12.9 55.22 0.779 8.25 2.13 8.36
4/15/2021 11:15:00 PM 12.8 55.04 0.779 8.25 2.29 8.31
4/15/2021 11:30:00 PM 12.71 54.878 0.779 8.24 2.32 8.27
4/15/2021 11:45:00 PM 12.61 54.698 0.779 8.24 1.94 8.28
4/16/2021 12:00:00 AM 12.52 54.536 0.779 8.23 2.33 8.24
4/16/2021 12:15:00 AM 12.43 54.374 0.778 8.23 1.65 8.31
4/16/2021 12:30:00 AM 12.34 54.212 0.778 8.22 2.41 8.29
4/16/2021 12:45:00 AM 12.25 54.05 0.777 8.22 2.03 8.28
4/16/2021 1:00:00 AM 12.17 53.906 0.777 8.22 1.39 8.29
4/16/2021 1:15:00 AM 12.08 53.744 0.779 8.21 2.54 8.28
4/16/2021 1:30:00 AM 12 53.6 0.776 8.21 2.9 8.31
4/16/2021 1:45:00 AM 11.92 53.456 0.776 8.21 10.25 8.31
4/16/2021 2:00:00 AM 11.85 53.33 0.776 8.21 3.15 8.33
4/16/2021 2:15:00 AM 11.77 53.186 0.774 8.21 3.78 8.37
4/16/2021 2:30:00 AM 11.7 53.06 0.775 8.2 3.59 8.34
4/16/2021 2:45:00 AM 11.64 52.952 0.774 8.2 3.07 8.32
4/16/2021 3:00:00 AM 11.57 52.826 0.773 8.2 2.37 8.38
4/16/2021 3:15:00 AM 11.51 52.718 0.772 8.2 7.63 8.43
4/16/2021 3:30:00 AM 11.44 52.592 0.772 8.2 5.95 8.43
4/16/2021 3:45:00 AM 11.39 52.502 0.771 8.19 2.88 8.47
4/16/2021 4:00:00 AM 11.35 52.43 0.771 8.19 4.77 8.48
4/16/2021 4:15:00 AM 11.31 52.358 0.771 8.19 3.11 8.5
4/16/2021 4:30:00 AM 11.28 52.304 0.772 8.19 3.75 8.52
4/16/2021 4:45:00 AM 11.25 52.25 0.77 8.19 2.81 8.52
4/16/2021 5:00:00 AM 11.22 52.196 0.77 8.19 2.93 8.52
4/16/2021 5:15:00 AM 11.18 52.124 0.773 8.19 3.11 8.52
4/16/2021 5:30:00 AM 11.14 52.052 0.77 8.19 2.53 8.57
4/16/2021 5:45:00 AM 11.09 51.962 0.767 8.19 3.16 8.6
4/16/2021 6:00:00 AM 11.05 51.89 0.768 8.19 3.5 8.61
4/16/2021 6:15:00 AM 11.03 51.854 0.768 8.19 4.91 8.57
4/16/2021 6:30:00 AM 11.02 51.836 0.768 8.19 2.42 8.6
4/16/2021 6:45:00 AM 10.98 51.764 0.768 8.19 3.87 8.64
4/16/2021 7:00:00 AM 10.94 51.692 0.768 8.19 2.51 8.63
4/16/2021 7:15:00 AM 10.91 51.638 0.768 8.19 2.03 8.68
4/16/2021 7:30:00 AM 10.88 51.584 0.767 8.19 3.97 8.63
4/16/2021 7:45:00 AM 10.86 51.548 0.769 8.19 2.39 8.75
4/16/2021 8:00:00 AM 10.88 51.584 0.769 8.2 2.94 8.85
4/16/2021 8:15:00 AM 10.89 51.602 0.77 8.2 2.12 8.99
4/16/2021 8:30:00 AM 10.89 51.602 0.769 8.21 2.08 9.09
4/16/2021 8:45:00 AM 10.9 51.62 0.77 8.21 1.67 9.17
4/16/2021 9:00:00 AM 10.95 51.71 0.771 8.22 1.35 9.29
4/16/2021 9:15:00 AM 10.99 51.782 0.772 8.23 1.18 9.48
4/16/2021 9:30:00 AM 10.99 51.782 0.772 8.24 2.56 9.63
4/16/2021 9:45:00 AM 11.05 51.89 0.772 8.24 1.57 9.67
4/16/2021 10:00:00 AM 11.17 52.106 0.772 8.25 1.25 9.86
4/16/2021 10:15:00 AM 11.32 52.376 0.773 8.26 0.9 10.04
4/16/2021 10:30:00 AM 11.39